Wetterdaten: Freitag, 10.08.2018
Datum Zeit Temp. A. Feuchte A. Luftdruck Regen Wind Richtung Richtung Taupunkt Windben Empfang
10.08.2018 00:00 19,4 C 84 % 1010,7 hPa 0,0 l/m 3,4 km/h (1 Bft) SW 233 16,6 C 6,3 km/h (2 Bft) 96 %
10.08.2018 00:01 19,4 C 84 % 1010,7 hPa 0,0 l/m 6,1 km/h (2 Bft) W 270 16,6 C 12,6 km/h (3 Bft) 94 %
10.08.2018 00:02 19,4 C 84 % 1010,6 hPa 0,0 l/m 3,1 km/h (1 Bft) SW 233 16,6 C 6,3 km/h (2 Bft) 94 %
10.08.2018 00:03 19,4 C 83 % 1010,8 hPa 0,0 l/m 3,9 km/h (1 Bft) W-NW 300 16,4 C 12,6 km/h (3 Bft) 98 %
10.08.2018 00:04 19,4 C 83 % 1010,8 hPa 0,0 l/m 4,2 km/h (1 Bft) W 259 16,4 C 9,4 km/h (2 Bft) 100 %
10.08.2018 00:05 19,4 C 83 % 1010,8 hPa 0,0 l/m 6,6 km/h (2 Bft) W-NW 293 16,4 C 12,6 km/h (3 Bft) 96 %
10.08.2018 00:06 19,4 C 83 % 1010,8 hPa 0,0 l/m 4,6 km/h (1 Bft) SW 220 16,4 C 18,8 km/h (3 Bft) 100 %
10.08.2018 00:07 19,4 C 83 % 1010,8 hPa 0,0 l/m 8,0 km/h (2 Bft) NW 318 16,4 C 18,8 km/h (3 Bft) 96 %
10.08.2018 00:08 19,3 C 83 % 1010,8 hPa 0,0 l/m 4,8 km/h (1 Bft) NW 321 16,3 C 9,4 km/h (2 Bft) 96 %
10.08.2018 00:09 19,3 C 83 % 1010,8 hPa 0,0 l/m 5,8 km/h (2 Bft) S-SO 155 16,3 C 12,6 km/h (3 Bft) 100 %
10.08.2018 00:10 19,3 C 83 % 1010,9 hPa 0,0 l/m 4,1 km/h (1 Bft) W-NW 292 16,3 C 12,6 km/h (3 Bft) 96 %
10.08.2018 00:11 19,3 C 83 % 1010,9 hPa 0,0 l/m 6,0 km/h (2 Bft) W-NW 289 16,3 C 15,7 km/h (3 Bft) 100 %
10.08.2018 00:12 19,3 C 83 % 1010,9 hPa 0,0 l/m 1,9 km/h (1 Bft) W-SW 251 16,3 C 6,3 km/h (2 Bft) 100 %
10.08.2018 00:13 19,3 C 83 % 1010,9 hPa 0,0 l/m 10,9 km/h (2 Bft) NW 314 16,3 C 18,8 km/h (3 Bft) 100 %
10.08.2018 00:14 19,3 C 83 % 1011,0 hPa 0,0 l/m 4,6 km/h (1 Bft) SW 219 16,3 C 9,4 km/h (2 Bft) 100 %
10.08.2018 00:15 19,3 C 82 % 1011,0 hPa 0,0 l/m 6,3 km/h (2 Bft) W-SW 250 16,1 C 15,7 km/h (3 Bft) 100 %
10.08.2018 00:16 19,3 C 82 % 1011,0 hPa 0,0 l/m 4,1 km/h (1 Bft) W-SW 247 16,1 C 9,4 km/h (2 Bft) 100 %
10.08.2018 00:17 19,4 C 82 % 1011,0 hPa 0,0 l/m 5,8 km/h (2 Bft) S-SW 212 16,2 C 15,7 km/h (3 Bft) 100 %
10.08.2018 00:18 19,4 C 82 % 1011,0 hPa 0,0 l/m 2,6 km/h (1 Bft) N 10 16,2 C 9,4 km/h (2 Bft) 100 %
10.08.2018 00:19 19,4 C 82 % 1011,0 hPa 0,0 l/m 1,8 km/h (1 Bft) W-SW 257 16,2 C 3,1 km/h (1 Bft) 92 %
10.08.2018 00:20 19,4 C 82 % 1011,1 hPa 0,0 l/m 5,6 km/h (1 Bft) SW 231 16,2 C 15,7 km/h (3 Bft) 100 %
10.08.2018 00:21 19,4 C 82 % 1011,1 hPa 0,0 l/m 5,2 km/h (1 Bft) W-NW 300 16,2 C 12,6 km/h (3 Bft) 100 %
10.08.2018 00:22 19,4 C 82 % 1011,1 hPa 0,0 l/m 3,3 km/h (1 Bft) W-SW 244 16,2 C 9,4 km/h (2 Bft) 100 %
10.08.2018 00:23 19,4 C 82 % 1011,1 hPa 0,0 l/m 1,9 km/h (1 Bft) S-SW 212 16,2 C 6,3 km/h (2 Bft) 100 %
10.08.2018 00:24 19,4 C 82 % 1011,1 hPa 0,0 l/m 3,1 km/h (1 Bft) W-SW 248 16,2 C 6,3 km/h (2 Bft) 100 %
10.08.2018 00:25 19,5 C 82 % 1011,1 hPa 0,0 l/m 3,5 km/h (1 Bft) S-SW 210 16,3 C 6,3 km/h (2 Bft) 100 %
10.08.2018 00:26 19,5 C 81 % 1011,1 hPa 0,0 l/m 5,5 km/h (1 Bft) SW 226 16,1 C 12,6 km/h (3 Bft) 100 %
10.08.2018 00:27 19,5 C 81 % 1011,1 hPa 0,0 l/m 2,4 km/h (1 Bft) SW 218 16,1 C 9,4 km/h (2 Bft) 100 %
10.08.2018 00:28 19,5 C 81 % 1011,2 hPa 0,0 l/m 3,5 km/h (1 Bft) W 278 16,1 C 9,4 km/h (2 Bft) 100 %
10.08.2018 00:29 19,5 C 81 % 1011,2 hPa 0,0 l/m 4,1 km/h (1 Bft) S-SW 203 16,1 C 9,4 km/h (2 Bft) 100 %
10.08.2018 00:30 19,5 C 81 % 1011,1 hPa 0,0 l/m 1,7 km/h (1 Bft) SW 232 16,1 C 9,4 km/h (2 Bft) 100 %
10.08.2018 00:31 19,5 C 81 % 1011,1 hPa 0,0 l/m 5,2 km/h (1 Bft) W-NW 303 16,1 C 9,4 km/h (2 Bft) 100 %
10.08.2018 00:32 19,5 C 81 % 1011,1 hPa 0,0 l/m 1,7 km/h (1 Bft) S-SW 210 16,1 C 3,1 km/h (1 Bft) 100 %
10.08.2018 00:33 19,6 C 81 % 1011,2 hPa 0,0 l/m 3,8 km/h (1 Bft) W-SW 240 16,2 C 15,7 km/h (3 Bft) 100 %
10.08.2018 00:34 19,6 C 81 % 1011,1 hPa 0,0 l/m 2,6 km/h (1 Bft) SW 219 16,2 C 12,6 km/h (3 Bft) 100 %
10.08.2018 00:35 19,5 C 81 % 1011,1 hPa 0,0 l/m 6,1 km/h (2 Bft) S-SW 199 16,1 C 12,6 km/h (3 Bft) 100 %
10.08.2018 00:36 19,5 C 81 % 1011,3 hPa 0,0 l/m 9,1 km/h (2 Bft) S-SO 162 16,1 C 22,0 km/h (4 Bft) 100 %
10.08.2018 00:37 19,5 C 81 % 1011,3 hPa 0,0 l/m 1,9 km/h (1 Bft) S-SW 210 16,1 C 9,4 km/h (2 Bft) 100 %
10.08.2018 00:38 19,5 C 81 % 1011,2 hPa 0,0 l/m 2,7 km/h (1 Bft) NW 305 16,1 C 6,3 km/h (2 Bft) 100 %
10.08.2018 00:39 19,5 C 81 % 1011,2 hPa 0,0 l/m 2,2 km/h (1 Bft) W 267 16,1 C 6,3 km/h (2 Bft) 100 %
10.08.2018 00:40 19,5 C 81 % 1011,3 hPa 0,0 l/m 2,2 km/h (1 Bft) W-NW 292 16,1 C 6,3 km/h (2 Bft) 100 %
10.08.2018 00:41 19,5 C 81 % 1011,3 hPa 0,0 l/m 1,6 km/h (1 Bft) W-SW 245 16,1 C 3,1 km/h (1 Bft) 100 %
10.08.2018 00:42 19,5 C 81 % 1011,3 hPa 0,0 l/m 0,6 km/h (0 Bft) W-SW 247 16,1 C 3,1 km/h (1 Bft) 96 %
10.08.2018 00:43 19,5 C 81 % 1011,3 hPa 0,0 l/m 3,9 km/h (1 Bft) W-SW 241 16,1 C 9,4 km/h (2 Bft) 100 %
10.08.2018 00:44 19,5 C 81 % 1011,3 hPa 0,0 l/m 1,3 km/h (1 Bft) SW 229 16,1 C 6,3 km/h (2 Bft) 100 %
10.08.2018 00:45 19,5 C 81 % 1011,3 hPa 0,0 l/m 0,1 km/h (0 Bft) W-SW 240 16,1 C 3,1 km/h (1 Bft) 100 %
10.08.2018 00:46 19,5 C 81 % 1011,4 hPa 0,0 l/m 8,4 km/h (2 Bft) SW 225 16,1 C 15,7 km/h (3 Bft) 100 %
10.08.2018 00:47 19,5 C 81 % 1011,4 hPa 0,0 l/m 4,2 km/h (1 Bft) N-NO 28 16,1 C 12,6 km/h (3 Bft) 100 %
10.08.2018 00:48 19,5 C 81 % 1011,4 hPa 0,0 l/m 2,4 km/h (1 Bft) SW 224 16,1 C 9,4 km/h (2 Bft) 100 %
10.08.2018 00:49 19,5 C 81 % 1011,3 hPa 0,0 l/m 3,4 km/h (1 Bft) W 280 16,1 C 9,4 km/h (2 Bft) 100 %
10.08.2018 00:50 19,5 C 81 % 1011,4 hPa 0,0 l/m 0,3 km/h (0 Bft) SW 214 16,1 C 3,1 km/h (1 Bft) 100 %
10.08.2018 00:51 19,4 C 81 % 1011,4 hPa 0,0 l/m 2,4 km/h (1 Bft) W-NW 290 16,1 C 6,3 km/h (2 Bft) 100 %
10.08.2018 00:52 19,4 C 81 % 1011,5 hPa 0,0 l/m 3,8 km/h (1 Bft) W 281 16,1 C 12,6 km/h (3 Bft) 96 %
10.08.2018 00:53 19,4 C 81 % 1011,5 hPa 0,0 l/m 1,3 km/h (1 Bft) SW 223 16,1 C 6,3 km/h (2 Bft) 100 %
10.08.2018 00:54 19,4 C 81 % 1011,5 hPa 0,0 l/m 1,7 km/h (1 Bft) SW 219 16,1 C 12,6 km/h (3 Bft) 100 %
10.08.2018 00:55 19,4 C 81 % 1011,5 hPa 0,0 l/m 0,3 km/h (0 Bft) SW 224 16,1 C 3,1 km/h (1 Bft) 100 %
10.08.2018 00:56 19,4 C 81 % 1011,4 hPa 0,0 l/m 2,8 km/h (1 Bft) S-SW 197 16,1 C 9,4 km/h (2 Bft) 100 %
10.08.2018 00:57 19,3 C 81 % 1011,5 hPa 0,0 l/m 7,4 km/h (2 Bft) NW 323 16,0 C 18,8 km/h (3 Bft) 97 %
10.08.2018 00:58 19,3 C 80 % 1011,5 hPa 0,0 l/m 7,2 km/h (2 Bft) W-NW 283 15,8 C 22,0 km/h (4 Bft) 96 %
10.08.2018 00:59 19,3 C 80 % 1011,6 hPa 0,0 l/m 11,2 km/h (2 Bft) W-SW 246 15,8 C 28,2 km/h (4 Bft) 100 %
10.08.2018 01:00 19,3 C 80 % 1011,5 hPa 0,0 l/m 6,5 km/h (2 Bft) NO 34 15,8 C 12,6 km/h (3 Bft) 96 %
10.08.2018 01:01 19,3 C 80 % 1011,5 hPa 0,0 l/m 8,9 km/h (2 Bft) W-NW 302 15,8 C 15,7 km/h (3 Bft) 100 %
10.08.2018 01:02 19,4 C 79 % 1011,6 hPa 0,0 l/m 0,4 km/h (0 Bft) NW 312 15,7 C 3,1 km/h (1 Bft) 96 %
10.08.2018 01:03 19,4 C 79 % 1011,7 hPa 0,0 l/m 2,7 km/h (1 Bft) W-SW 247 15,7 C 6,3 km/h (2 Bft) 100 %
10.08.2018 01:04 19,4 C 79 % 1011,6 hPa 0,0 l/m 0,3 km/h (0 Bft) NW 311 15,7 C 3,1 km/h (1 Bft) 96 %
10.08.2018 01:05 19,4 C 80 % 1011,7 hPa 0,0 l/m 0,1 km/h (0 Bft) SW 233 15,9 C 3,1 km/h (1 Bft) 100 %
10.08.2018 01:06 19,3 C 80 % 1011,7 hPa 0,0 l/m 1,1 km/h (1 Bft) W 264 15,8 C 3,1 km/h (1 Bft) 100 %
10.08.2018 01:07 19,3 C 80 % 1011,7 hPa 0,0 l/m 2,2 km/h (1 Bft) W 281 15,8 C 9,4 km/h (2 Bft) 100 %
10.08.2018 01:08 19,3 C 80 % 1011,7 hPa 0,0 l/m 4,2 km/h (1 Bft) W-SW 252 15,8 C 12,6 km/h (3 Bft) 100 %
10.08.2018 01:09 19,3 C 80 % 1011,8 hPa 0,0 l/m 4,2 km/h (1 Bft) W-SW 253 15,8 C 9,4 km/h (2 Bft) 100 %
10.08.2018 01:10 19,3 C 79 % 1011,8 hPa 0,0 l/m 2,4 km/h (1 Bft) W 274 15,6 C 6,3 km/h (2 Bft) 100 %
10.08.2018 01:11 19,2 C 80 % 1011,8 hPa 0,0 l/m 0,0 km/h (0 Bft) W 274 15,7 C 0,0 km/h (0 Bft) 100 %
10.08.2018 01:12 19,2 C 80 % 1011,9 hPa 0,0 l/m 0,5 km/h (0 Bft) W-SW 244 15,7 C 3,1 km/h (1 Bft) 100 %
10.08.2018 01:13 19,2 C 79 % 1011,9 hPa 0,0 l/m 5,9 km/h (2 Bft) SW 223 15,5 C 18,8 km/h (3 Bft) 100 %
10.08.2018 01:14 19,2 C 79 % 1011,8 hPa 0,0 l/m 1,0 km/h (0 Bft) W 276 15,5 C 6,3 km/h (2 Bft) 100 %
10.08.2018 01:15 19,2 C 79 % 1011,9 hPa 0,0 l/m 0,1 km/h (0 Bft) NW 307 15,5 C 3,1 km/h (1 Bft) 100 %
10.08.2018 01:16 19,2 C 79 % 1012,0 hPa 0,0 l/m 1,8 km/h (1 Bft) W 280 15,5 C 6,3 km/h (2 Bft) 100 %
10.08.2018 01:17 19,1 C 79 % 1012,0 hPa 0,0 l/m 1,3 km/h (1 Bft) W-SW 240 15,4 C 6,3 km/h (2 Bft) 100 %
10.08.2018 01:18 19,1 C 79 % 1012,0 hPa 0,0 l/m 0,0 km/h (0 Bft) W-SW 239 15,4 C 0,0 km/h (0 Bft) 100 %
10.08.2018 01:19 19,1 C 79 % 1012,0 hPa 0,0 l/m 1,7 km/h (1 Bft) SW 231 15,4 C 6,3 km/h (2 Bft) 100 %
10.08.2018 01:20 19,1 C 79 % 1012,0 hPa 0,0 l/m 3,5 km/h (1 Bft) NW 321 15,4 C 9,4 km/h (2 Bft) 100 %
10.08.2018 01:21 19,1 C 79 % 1012,0 hPa 0,0 l/m 0,5 km/h (0 Bft) NW 320 15,4 C 3,1 km/h (1 Bft) 100 %
10.08.2018 01:22 19,1 C 79 % 1012,0 hPa 0,0 l/m 0,3 km/h (0 Bft) SW 224 15,4 C 3,1 km/h (1 Bft) 100 %
10.08.2018 01:23 19,1 C 79 % 1012,1 hPa 0,0 l/m 1,9 km/h (1 Bft) N-NW 327 15,4 C 6,3 km/h (2 Bft) 100 %
10.08.2018 01:24 19,1 C 80 % 1012,1 hPa 0,0 l/m 1,4 km/h (1 Bft) W 266 15,6 C 3,1 km/h (1 Bft) 100 %
10.08.2018 01:25 19,1 C 80 % 1012,2 hPa 0,0 l/m 0,6 km/h (0 Bft) NW 307 15,6 C 3,1 km/h (1 Bft) 100 %
10.08.2018 01:26 19,1 C 80 % 1012,1 hPa 0,0 l/m 0,0 km/h (0 Bft) W-SW 245 15,6 C 0,0 km/h (0 Bft) 100 %
10.08.2018 01:27 19,1 C 80 % 1012,2 hPa 0,0 l/m 0,0 km/h (0 Bft) W 269 15,6 C 0,0 km/h (0 Bft) 100 %
10.08.2018 01:28 19,1 C 80 % 1012,2 hPa 0,0 l/m 0,0 km/h (0 Bft) W-SW 258 15,6 C 0,0 km/h (0 Bft) 100 %
10.08.2018 01:29 19,0 C 80 % 1012,2 hPa 0,0 l/m 0,3 km/h (0 Bft) W-SW 238 15,5 C 3,1 km/h (1 Bft) 100 %
10.08.2018 01:30 19,0 C 80 % 1012,3 hPa 0,0 l/m 0,7 km/h (0 Bft) O-NO 57 15,5 C 3,1 km/h (1 Bft) 100 %
10.08.2018 01:31 19,0 C 80 % 1012,3 hPa 0,0 l/m 0,3 km/h (0 Bft) S-SW 200 15,5 C 3,1 km/h (1 Bft) 100 %
10.08.2018 01:32 18,9 C 80 % 1012,3 hPa 0,0 l/m 4,1 km/h (1 Bft) W-SW 240 15,4 C 9,4 km/h (2 Bft) 100 %
10.08.2018 01:33 18,9 C 80 % 1012,3 hPa 0,0 l/m 0,4 km/h (0 Bft) S-SW 203 15,4 C 3,1 km/h (1 Bft) 100 %
10.08.2018 01:34 18,9 C 80 % 1012,3 hPa 0,0 l/m 0,2 km/h (0 Bft) SW 219 15,4 C 3,1 km/h (1 Bft) 100 %
10.08.2018 01:35 18,9 C 80 % 1012,3 hPa 0,0 l/m 1,5 km/h (1 Bft) W-SW 257 15,4 C 6,3 km/h (2 Bft) 100 %
10.08.2018 01:36 18,9 C 80 % 1012,3 hPa 0,0 l/m 2,4 km/h (1 Bft) W-SW 243 15,4 C 6,3 km/h (2 Bft) 100 %
10.08.2018 01:37 18,9 C 80 % 1012,4 hPa 0,0 l/m 0,0 km/h (0 Bft) W-SW 243 15,4 C 0,0 km/h (0 Bft) 100 %
10.08.2018 01:38 18,9 C 80 % 1012,4 hPa 0,0 l/m 0,9 km/h (0 Bft) S 184 15,4 C 3,1 km/h (1 Bft) 100 %
10.08.2018 01:39 18,9 C 80 % 1012,4 hPa 0,0 l/m 0,3 km/h (0 Bft) W-SW 256 15,4 C 3,1 km/h (1 Bft) 100 %
10.08.2018 01:40 18,8 C 80 % 1012,4 hPa 0,0 l/m 2,2 km/h (1 Bft) W-NW 295 15,3 C 6,3 km/h (2 Bft) 100 %
10.08.2018 01:41 18,8 C 80 % 1012,4 hPa 0,0 l/m 0,9 km/h (0 Bft) W 272 15,3 C 3,1 km/h (1 Bft) 100 %
10.08.2018 01:42 18,8 C 80 % 1012,5 hPa 0,0 l/m 0,0 km/h (0 Bft) W 272 15,3 C 0,0 km/h (0 Bft) 100 %
10.08.2018 01:43 18,8 C 80 % 1012,5 hPa 0,0 l/m 0,4 km/h (0 Bft) S-SW 206 15,3 C 3,1 km/h (1 Bft) 100 %
10.08.2018 01:44 18,8 C 80 % 1012,5 hPa 0,0 l/m 0,7 km/h (0 Bft) W-SW 252 15,3 C 3,1 km/h (1 Bft) 100 %
10.08.2018 01:45 18,8 C 79 % 1012,5 hPa 0,0 l/m 3,7 km/h (1 Bft) W-SW 255 15,1 C 9,4 km/h (2 Bft) 100 %
10.08.2018 01:46 18,8 C 79 % 1012,5 hPa 0,0 l/m 0,9 km/h (0 Bft) SW 221 15,1 C 3,1 km/h (1 Bft) 96 %
10.08.2018 01:47 18,8 C 79 % 1012,5 hPa 0,0 l/m 0,0 km/h (0 Bft) SW 224 15,1 C 0,0 km/h (0 Bft) 100 %
10.08.2018 01:48 18,8 C 79 % 1012,5 hPa 0,0 l/m 0,3 km/h (0 Bft) W-SW 237 15,1 C 3,1 km/h (1 Bft) 100 %
10.08.2018 01:49 18,8 C 79 % 1012,5 hPa 0,0 l/m 0,0 km/h (0 Bft) SW 236 15,1 C 0,0 km/h (0 Bft) 100 %
10.08.2018 01:50 18,8 C 79 % 1012,5 hPa 0,0 l/m 0,1 km/h (0 Bft) W-SW 258 15,1 C 3,1 km/h (1 Bft) 96 %
10.08.2018 01:51 18,8 C 79 % 1012,5 hPa 0,0 l/m 0,1 km/h (0 Bft) W 274 15,1 C 3,1 km/h (1 Bft) 96 %
10.08.2018 01:52 18,7 C 79 % 1012,5 hPa 0,0 l/m 0,0 km/h (0 Bft) W 269 15,0 C 0,0 km/h (0 Bft) 96 %
10.08.2018 01:53 18,7 C 79 % 1012,5 hPa 0,0 l/m 1,0 km/h (0 Bft) SW 236 15,0 C 3,1 km/h (1 Bft) 100 %
10.08.2018 01:54 18,7 C 78 % 1012,6 hPa 0,0 l/m 3,3 km/h (1 Bft) NW 314 14,8 C 12,6 km/h (3 Bft) 96 %
10.08.2018 01:55 18,7 C 78 % 1012,6 hPa 0,0 l/m 5,2 km/h (1 Bft) W-SW 239 14,8 C 9,4 km/h (2 Bft) 100 %
10.08.2018 01:56 18,7 C 77 % 1012,7 hPa 0,0 l/m 4,2 km/h (1 Bft) W-SW 244 14,6 C 9,4 km/h (2 Bft) 96 %
10.08.2018 01:57 18,7 C 77 % 1012,6 hPa 0,0 l/m 5,8 km/h (2 Bft) W-SW 240 14,6 C 15,7 km/h (3 Bft) 100 %
10.08.2018 01:58 18,7 C 76 % 1012,6 hPa 0,0 l/m 5,4 km/h (1 Bft) SO 136 14,4 C 18,8 km/h (3 Bft) 96 %
10.08.2018 01:59 18,7 C 76 % 1012,7 hPa 0,0 l/m 4,4 km/h (1 Bft) N-NW 336 14,4 C 9,4 km/h (2 Bft) 100 %
10.08.2018 02:00 18,7 C 74 % 1012,8 hPa 0,0 l/m 16,9 km/h (3 Bft) W 264 14,0 C 31,4 km/h (5 Bft) 96 %
10.08.2018 02:01 18,7 C 73 % 1012,8 hPa 0,0 l/m 9,6 km/h (2 Bft) SW 217 13,8 C 18,8 km/h (3 Bft) 100 %
10.08.2018 02:02 18,7 C 73 % 1012,8 hPa 0,0 l/m 8,6 km/h (2 Bft) SW 231 13,8 C 28,2 km/h (4 Bft) 100 %
10.08.2018 02:03 18,8 C 72 % 1012,8 hPa 0,0 l/m 11,9 km/h (2 Bft) W-SW 245 13,6 C 25,1 km/h (4 Bft) 100 %
10.08.2018 02:04 18,8 C 71 % 1012,9 hPa 0,0 l/m 18,0 km/h (3 Bft) W-NW 285 13,4 C 28,2 km/h (4 Bft) 100 %
10.08.2018 02:05 18,8 C 70 % 1012,8 hPa 0,0 l/m 14,3 km/h (3 Bft) W-SW 252 13,2 C 22,0 km/h (4 Bft) 100 %
10.08.2018 02:06 18,8 C 70 % 1012,9 hPa 0,0 l/m 10,9 km/h (2 Bft) SW 215 13,2 C 25,1 km/h (4 Bft) 100 %
10.08.2018 02:07 18,8 C 70 % 1012,9 hPa 0,0 l/m 8,6 km/h (2 Bft) SW 219 13,2 C 22,0 km/h (4 Bft) 100 %
10.08.2018 02:08 18,8 C 70 % 1013,0 hPa 0,0 l/m 8,9 km/h (2 Bft) S 177 13,2 C 15,7 km/h (3 Bft) 100 %
10.08.2018 02:09 18,8 C 70 % 1013,0 hPa 0,0 l/m 7,2 km/h (2 Bft) W-NW 303 13,2 C 15,7 km/h (3 Bft) 100 %
10.08.2018 02:10 18,8 C 70 % 1013,1 hPa 0,0 l/m 6,7 km/h (2 Bft) W 271 13,2 C 15,7 km/h (3 Bft) 100 %
10.08.2018 02:11 18,8 C 70 % 1013,1 hPa 0,0 l/m 8,8 km/h (2 Bft) W 278 13,2 C 22,0 km/h (4 Bft) 100 %
10.08.2018 02:12 18,8 C 69 % 1013,1 hPa 0,0 l/m 16,4 km/h (3 Bft) W 275 13,0 C 22,0 km/h (4 Bft) 100 %
10.08.2018 02:13 18,8 C 70 % 1013,2 hPa 0,0 l/m 7,0 km/h (2 Bft) W 273 13,2 C 22,0 km/h (4 Bft) 100 %
10.08.2018 02:14 18,7 C 69 % 1013,2 hPa 0,0 l/m 8,6 km/h (2 Bft) SW 235 12,9 C 25,1 km/h (4 Bft) 100 %
10.08.2018 02:15 18,7 C 70 % 1013,3 hPa 0,0 l/m 5,2 km/h (1 Bft) W-NW 301 13,1 C 22,0 km/h (4 Bft) 100 %
10.08.2018 02:16 18,7 C 70 % 1013,3 hPa 0,0 l/m 12,7 km/h (3 Bft) W-NW 300 13,1 C 31,4 km/h (5 Bft) 100 %
10.08.2018 02:17 18,7 C 70 % 1013,4 hPa 0,0 l/m 7,3 km/h (2 Bft) SW 228 13,1 C 18,8 km/h (3 Bft) 100 %
10.08.2018 02:18 18,7 C 70 % 1013,4 hPa 0,0 l/m 8,3 km/h (2 Bft) W-NW 300 13,1 C 22,0 km/h (4 Bft) 100 %
10.08.2018 02:19 18,7 C 70 % 1013,5 hPa 0,0 l/m 14,9 km/h (3 Bft) NW 324 13,1 C 22,0 km/h (4 Bft) 100 %
10.08.2018 02:20 18,6 C 69 % 1013,5 hPa 0,0 l/m 14,1 km/h (3 Bft) W-NW 301 12,8 C 15,7 km/h (3 Bft) 99 %
10.08.2018 02:21 18,6 C 69 % 1013,5 hPa 0,0 l/m 31,4 km/h (5 Bft) W-SW 248 12,8 C 34,5 km/h (5 Bft) 99 %
10.08.2018 02:23 18,5 C 69 % 1013,7 hPa 0,0 l/m 9,4 km/h (2 Bft) W-SW 242 12,7 C 12,6 km/h (3 Bft) 100 %
10.08.2018 02:24 18,4 C 69 % 1013,7 hPa 0,0 l/m 22,2 km/h (4 Bft) W-NW 282 12,6 C 40,8 km/h (6 Bft) 100 %
10.08.2018 02:25 18,4 C 69 % 1013,9 hPa 0,0 l/m 20,5 km/h (4 Bft) W-NW 293 12,6 C 37,7 km/h (5 Bft) 100 %
10.08.2018 02:26 18,3 C 68 % 1013,9 hPa 0,0 l/m 19,6 km/h (3 Bft) SW 214 12,3 C 31,4 km/h (5 Bft) 100 %
10.08.2018 02:27 18,3 C 69 % 1013,9 hPa 0,0 l/m 9,3 km/h (2 Bft) W 278 12,5 C 18,8 km/h (3 Bft) 100 %
10.08.2018 02:28 18,3 C 69 % 1013,9 hPa 0,0 l/m 11,4 km/h (2 Bft) SW 232 12,5 C 22,0 km/h (4 Bft) 100 %
10.08.2018 02:29 18,2 C 69 % 1013,9 hPa 0,0 l/m 11,8 km/h (2 Bft) NW 321 12,4 C 22,0 km/h (4 Bft) 100 %
10.08.2018 02:30 18,1 C 70 % 1014,0 hPa 0,0 l/m 9,7 km/h (2 Bft) SW 231 12,5 C 22,0 km/h (4 Bft) 100 %
10.08.2018 02:31 18,1 C 70 % 1013,9 hPa 0,0 l/m 12,2 km/h (2 Bft) SW 217 12,5 C 18,8 km/h (3 Bft) 100 %
10.08.2018 02:32 17,9 C 70 % 1014,0 hPa 0,0 l/m 16,7 km/h (3 Bft) NW 314 12,3 C 34,5 km/h (5 Bft) 100 %
10.08.2018 02:33 17,8 C 70 % 1014,0 hPa 0,0 l/m 12,2 km/h (2 Bft) W-NW 297 12,3 C 25,1 km/h (4 Bft) 100 %
10.08.2018 02:34 17,8 C 71 % 1014,1 hPa 0,0 l/m 14,3 km/h (3 Bft) W 265 12,5 C 25,1 km/h (4 Bft) 100 %
10.08.2018 02:35 17,7 C 71 % 1014,1 hPa 0,0 l/m 8,6 km/h (2 Bft) W-SW 255 12,4 C 15,7 km/h (3 Bft) 100 %
10.08.2018 02:36 17,6 C 71 % 1014,1 hPa 0,0 l/m 12,2 km/h (2 Bft) S-SW 212 12,3 C 25,1 km/h (4 Bft) 100 %
10.08.2018 02:37 17,6 C 72 % 1014,2 hPa 0,0 l/m 15,6 km/h (3 Bft) W-NW 297 12,5 C 22,0 km/h (4 Bft) 100 %
10.08.2018 02:38 17,6 C 72 % 1014,2 hPa 0,0 l/m 12,1 km/h (2 Bft) N-NW 338 12,5 C 25,1 km/h (4 Bft) 100 %
10.08.2018 02:39 17,5 C 72 % 1014,3 hPa 0,0 l/m 23,1 km/h (4 Bft) NW 310 12,4 C 31,4 km/h (5 Bft) 100 %
10.08.2018 02:40 17,5 C 72 % 1014,3 hPa 0,0 l/m 13,7 km/h (3 Bft) S-SW 200 12,4 C 22,0 km/h (4 Bft) 100 %
10.08.2018 02:41 17,4 C 72 % 1014,3 hPa 0,0 l/m 6,3 km/h (2 Bft) W-NW 297 12,3 C 6,3 km/h (2 Bft) 99 %
10.08.2018 02:42 17,4 C 72 % 1014,3 hPa 0,0 l/m 10,2 km/h (2 Bft) W-NW 302 12,3 C 15,7 km/h (3 Bft) 99 %
10.08.2018 02:43 17,4 C 72 % 1014,4 hPa 0,0 l/m 8,6 km/h (2 Bft) NW 305 12,3 C 15,7 km/h (3 Bft) 99 %
10.08.2018 02:44 17,4 C 72 % 1014,4 hPa 0,0 l/m 11,1 km/h (2 Bft) S-SW 193 12,3 C 18,8 km/h (3 Bft) 100 %
10.08.2018 02:45 17,4 C 72 % 1014,4 hPa 0,0 l/m 13,3 km/h (3 Bft) W-SW 237 12,3 C 25,1 km/h (4 Bft) 100 %
10.08.2018 02:46 17,4 C 72 % 1014,4 hPa 0,0 l/m 15,0 km/h (3 Bft) SW 224 12,3 C 28,2 km/h (4 Bft) 96 %
10.08.2018 02:47 17,4 C 72 % 1014,4 hPa 0,0 l/m 11,0 km/h (2 Bft) W-SW 252 12,3 C 22,0 km/h (4 Bft) 100 %
10.08.2018 02:48 17,3 C 72 % 1014,4 hPa 0,0 l/m 10,9 km/h (2 Bft) NW 315 12,2 C 22,0 km/h (4 Bft) 96 %
10.08.2018 02:49 17,3 C 72 % 1014,5 hPa 0,0 l/m 16,9 km/h (3 Bft) SW 226 12,2 C 37,7 km/h (5 Bft) 100 %
10.08.2018 02:50 17,3 C 72 % 1014,3 hPa 0,0 l/m 7,2 km/h (2 Bft) SO 144 12,2 C 22,0 km/h (4 Bft) 96 %
10.08.2018 02:51 17,3 C 72 % 1014,4 hPa 0,0 l/m 12,8 km/h (3 Bft) W 264 12,2 C 31,4 km/h (5 Bft) 100 %
10.08.2018 02:52 17,3 C 72 % 1014,4 hPa 0,0 l/m 19,1 km/h (3 Bft) S-SO 152 12,2 C 40,8 km/h (6 Bft) 96 %
10.08.2018 02:53 17,3 C 72 % 1014,4 hPa 0,0 l/m 13,3 km/h (3 Bft) NW 324 12,2 C 22,0 km/h (4 Bft) 96 %
10.08.2018 02:54 17,3 C 72 % 1014,4 hPa 0,0 l/m 17,0 km/h (3 Bft) W 262 12,2 C 28,2 km/h (4 Bft) 100 %
10.08.2018 02:55 17,3 C 72 % 1014,4 hPa 0,0 l/m 11,9 km/h (2 Bft) W-NW 297 12,2 C 37,7 km/h (5 Bft) 96 %
10.08.2018 02:56 17,4 C 72 % 1014,4 hPa 0,0 l/m 15,4 km/h (3 Bft) SW 233 12,3 C 28,2 km/h (4 Bft) 100 %
10.08.2018 02:57 17,3 C 71 % 1014,4 hPa 0,0 l/m 21,3 km/h (4 Bft) O 83 12,0 C 53,3 km/h (7 Bft) 100 %
10.08.2018 02:58 17,4 C 72 % 1014,5 hPa 0,0 l/m 19,0 km/h (3 Bft) NW 306 12,3 C 37,7 km/h (5 Bft) 100 %
10.08.2018 02:59 17,4 C 72 % 1014,5 hPa 0,0 l/m 17,3 km/h (3 Bft) W-NW 303 12,3 C 31,4 km/h (5 Bft) 100 %
10.08.2018 03:00 17,4 C 72 % 1014,6 hPa 0,0 l/m 18,0 km/h (3 Bft) SW 230 12,3 C 37,7 km/h (5 Bft) 100 %
10.08.2018 03:01 17,4 C 72 % 1014,6 hPa 0,0 l/m 16,3 km/h (3 Bft) NW 304 12,3 C 34,5 km/h (5 Bft) 100 %
10.08.2018 03:02 17,4 C 72 % 1014,6 hPa 0,0 l/m 14,9 km/h (3 Bft) N 359 12,3 C 28,2 km/h (4 Bft) 100 %
10.08.2018 03:03 17,3 C 72 % 1014,7 hPa 0,0 l/m 15,2 km/h (3 Bft) N-NW 336 12,2 C 28,2 km/h (4 Bft) 100 %
10.08.2018 03:04 17,4 C 72 % 1014,7 hPa 0,0 l/m 9,7 km/h (2 Bft) W-NW 294 12,3 C 18,8 km/h (3 Bft) 100 %
10.08.2018 03:05 17,3 C 72 % 1014,8 hPa 0,0 l/m 14,4 km/h (3 Bft) W-SW 250 12,2 C 28,2 km/h (4 Bft) 100 %
10.08.2018 03:06 17,3 C 72 % 1014,7 hPa 0,0 l/m 16,0 km/h (3 Bft) W-SW 245 12,2 C 28,2 km/h (4 Bft) 100 %
10.08.2018 03:07 17,3 C 72 % 1014,8 hPa 0,0 l/m 14,5 km/h (3 Bft) NW 317 12,2 C 25,1 km/h (4 Bft) 100 %
10.08.2018 03:08 17,3 C 72 % 1014,8 hPa 0,0 l/m 14,8 km/h (3 Bft) W 262 12,2 C 25,1 km/h (4 Bft) 100 %
10.08.2018 03:09 17,3 C 72 % 1014,9 hPa 0,0 l/m 12,8 km/h (3 Bft) SW 224 12,2 C 25,1 km/h (4 Bft) 100 %
10.08.2018 03:10 17,3 C 72 % 1014,9 hPa 0,0 l/m 20,4 km/h (4 Bft) N 360 12,2 C 43,9 km/h (6 Bft) 100 %
10.08.2018 03:11 17,3 C 72 % 1014,9 hPa 0,0 l/m 18,6 km/h (3 Bft) W-NW 289 12,2 C 40,8 km/h (6 Bft) 100 %
10.08.2018 03:12 17,3 C 72 % 1014,8 hPa 0,0 l/m 13,9 km/h (3 Bft) SW 221 12,2 C 25,1 km/h (4 Bft) 100 %
10.08.2018 03:13 17,3 C 72 % 1014,9 hPa 0,0 l/m 17,9 km/h (3 Bft) W 267 12,2 C 31,4 km/h (5 Bft) 100 %
10.08.2018 03:14 17,2 C 72 % 1014,9 hPa 0,0 l/m 12,6 km/h (3 Bft) NW 323 12,1 C 28,2 km/h (4 Bft) 100 %
10.08.2018 03:15 17,2 C 73 % 1014,9 hPa 0,0 l/m 4,4 km/h (1 Bft) S-SW 210 12,3 C 9,4 km/h (2 Bft) 100 %
10.08.2018 03:16 17,2 C 73 % 1014,9 hPa 0,0 l/m 9,3 km/h (2 Bft) SW 216 12,3 C 12,6 km/h (3 Bft) 100 %
10.08.2018 03:17 17,2 C 73 % 1014,9 hPa 0,0 l/m 3,1 km/h (1 Bft) SW 221 12,3 C 6,3 km/h (2 Bft) 100 %
10.08.2018 03:18 17,2 C 73 % 1014,9 hPa 0,0 l/m 10,0 km/h (2 Bft) W-NW 300 12,3 C 18,8 km/h (3 Bft) 100 %
10.08.2018 03:19 17,2 C 73 % 1015,0 hPa 0,0 l/m 9,5 km/h (2 Bft) S-SO 163 12,3 C 18,8 km/h (3 Bft) 100 %
10.08.2018 03:20 17,2 C 73 % 1014,9 hPa 0,0 l/m 6,7 km/h (2 Bft) W-NW 288 12,3 C 22,0 km/h (4 Bft) 100 %
10.08.2018 03:21 17,2 C 73 % 1015,0 hPa 0,0 l/m 11,6 km/h (2 Bft) NW 314 12,3 C 25,1 km/h (4 Bft) 100 %
10.08.2018 03:22 17,2 C 73 % 1015,0 hPa 0,0 l/m 7,6 km/h (2 Bft) W 276 12,3 C 18,8 km/h (3 Bft) 100 %
10.08.2018 03:23 17,2 C 73 % 1015,0 hPa 0,0 l/m 7,6 km/h (2 Bft) W-NW 299 12,3 C 15,7 km/h (3 Bft) 100 %
10.08.2018 03:24 17,1 C 73 % 1014,9 hPa 0,0 l/m 10,8 km/h (2 Bft) W-SW 252 12,2 C 18,8 km/h (3 Bft) 100 %
10.08.2018 03:25 17,1 C 73 % 1015,0 hPa 0,0 l/m 8,6 km/h (2 Bft) W-NW 297 12,2 C 22,0 km/h (4 Bft) 100 %
10.08.2018 03:26 17,1 C 74 % 1015,1 hPa 0,0 l/m 6,5 km/h (2 Bft) W-SW 251 12,4 C 15,7 km/h (3 Bft) 100 %
10.08.2018 03:27 17,1 C 74 % 1015,0 hPa 0,0 l/m 7,7 km/h (2 Bft) W 262 12,4 C 15,7 km/h (3 Bft) 100 %
10.08.2018 03:28 17,1 C 74 % 1015,0 hPa 0,0 l/m 10,3 km/h (2 Bft) S 190 12,4 C 18,8 km/h (3 Bft) 100 %
10.08.2018 03:29 17,0 C 74 % 1014,9 hPa 0,0 l/m 4,7 km/h (1 Bft) W-SW 251 12,3 C 18,8 km/h (3 Bft) 100 %
10.08.2018 03:30 17,0 C 74 % 1014,9 hPa 0,0 l/m 2,7 km/h (1 Bft) W 272 12,3 C 6,3 km/h (2 Bft) 100 %
10.08.2018 03:31 17,0 C 74 % 1014,9 hPa 0,0 l/m 0,1 km/h (0 Bft) W 280 12,3 C 3,1 km/h (1 Bft) 100 %
10.08.2018 03:32 16,9 C 74 % 1014,9 hPa 0,0 l/m 2,7 km/h (1 Bft) NW 315 12,2 C 9,4 km/h (2 Bft) 100 %
10.08.2018 03:33 16,9 C 74 % 1014,9 hPa 0,0 l/m 4,8 km/h (1 Bft) NW 319 12,2 C 12,6 km/h (3 Bft) 100 %
10.08.2018 03:34 16,9 C 74 % 1014,9 hPa 0,0 l/m 8,5 km/h (2 Bft) W-SW 247 12,2 C 15,7 km/h (3 Bft) 100 %
10.08.2018 03:35 16,8 C 75 % 1014,9 hPa 0,0 l/m 2,1 km/h (1 Bft) W 276 12,3 C 6,3 km/h (2 Bft) 100 %
10.08.2018 03:36 16,8 C 75 % 1014,9 hPa 0,0 l/m 2,5 km/h (1 Bft) W 264 12,3 C 6,3 km/h (2 Bft) 100 %
10.08.2018 03:37 16,8 C 75 % 1014,9 hPa 0,0 l/m 0,8 km/h (0 Bft) W-SW 241 12,3 C 3,1 km/h (1 Bft) 96 %
10.08.2018 03:38 16,7 C 75 % 1015,0 hPa 0,0 l/m 8,0 km/h (2 Bft) S 188 12,2 C 15,7 km/h (3 Bft) 100 %
10.08.2018 03:39 16,7 C 75 % 1015,0 hPa 0,0 l/m 4,8 km/h (1 Bft) W-NW 289 12,2 C 18,8 km/h (3 Bft) 96 %
10.08.2018 03:40 16,7 C 75 % 1014,9 hPa 0,0 l/m 4,8 km/h (1 Bft) S-SW 210 12,2 C 12,6 km/h (3 Bft) 100 %
10.08.2018 03:41 16,6 C 75 % 1015,0 hPa 0,0 l/m 0,7 km/h (0 Bft) S 181 12,1 C 3,1 km/h (1 Bft) 100 %
10.08.2018 03:42 16,6 C 75 % 1014,9 hPa 0,0 l/m 6,8 km/h (2 Bft) SW 221 12,1 C 12,6 km/h (3 Bft) 100 %
10.08.2018 03:43 16,6 C 75 % 1015,0 hPa 0,0 l/m 6,7 km/h (2 Bft) S-SW 212 12,1 C 12,6 km/h (3 Bft) 96 %
10.08.2018 03:44 16,5 C 75 % 1015,0 hPa 0,0 l/m 6,3 km/h (2 Bft) W 281 12,1 C 18,8 km/h (3 Bft) 100 %
10.08.2018 03:45 16,5 C 75 % 1015,0 hPa 0,0 l/m 13,2 km/h (3 Bft) NW 309 12,1 C 31,4 km/h (5 Bft) 96 %
10.08.2018 03:46 16,4 C 75 % 1015,0 hPa 0,0 l/m 11,4 km/h (2 Bft) W-SW 250 12,0 C 25,1 km/h (4 Bft) 100 %
10.08.2018 03:47 16,4 C 75 % 1015,0 hPa 0,0 l/m 2,5 km/h (1 Bft) SW 214 12,0 C 9,4 km/h (2 Bft) 96 %
10.08.2018 03:48 16,4 C 75 % 1015,0 hPa 0,0 l/m 0,7 km/h (0 Bft) W 267 12,0 C 3,1 km/h (1 Bft) 100 %
10.08.2018 03:49 16,4 C 76 % 1015,0 hPa 0,0 l/m 5,5 km/h (1 Bft) SW 227 12,2 C 15,7 km/h (3 Bft) 96 %
10.08.2018 03:50 16,4 C 75 % 1015,0 hPa 0,0 l/m 4,3 km/h (1 Bft) W-NW 289 12,0 C 9,4 km/h (2 Bft) 96 %
10.08.2018 03:51 16,3 C 75 % 1015,0 hPa 0,0 l/m 5,8 km/h (2 Bft) NW 319 11,9 C 9,4 km/h (2 Bft) 99 %
10.08.2018 03:52 16,3 C 75 % 1015,0 hPa 0,0 l/m 8,0 km/h (2 Bft) W 277 11,9 C 12,6 km/h (3 Bft) 100 %
10.08.2018 03:53 16,3 C 75 % 1015,1 hPa 0,0 l/m 8,5 km/h (2 Bft) NW 309 11,9 C 18,8 km/h (3 Bft) 100 %
10.08.2018 03:54 16,3 C 75 % 1015,1 hPa 0,0 l/m 2,3 km/h (1 Bft) SW 220 11,9 C 6,3 km/h (2 Bft) 100 %
10.08.2018 03:55 16,3 C 76 % 1015,1 hPa 0,0 l/m 0,1 km/h (0 Bft) W 278 12,1 C 3,1 km/h (1 Bft) 100 %
10.08.2018 03:56 16,2 C 76 % 1015,1 hPa 0,0 l/m 8,1 km/h (2 Bft) W 273 12,0 C 18,8 km/h (3 Bft) 100 %
10.08.2018 03:57 16,2 C 75 % 1015,1 hPa 0,0 l/m 12,6 km/h (3 Bft) SW 228 11,8 C 28,2 km/h (4 Bft) 100 %
10.08.2018 03:58 16,2 C 75 % 1015,1 hPa 0,0 l/m 5,4 km/h (1 Bft) NW 304 11,8 C 12,6 km/h (3 Bft) 100 %
10.08.2018 03:59 16,2 C 75 % 1015,1 hPa 0,0 l/m 11,6 km/h (2 Bft) SW 218 11,8 C 25,1 km/h (4 Bft) 100 %
10.08.2018 04:00 16,2 C 75 % 1015,2 hPa 0,0 l/m 16,5 km/h (3 Bft) W-NW 292 11,8 C 25,1 km/h (4 Bft) 100 %
10.08.2018 04:01 16,2 C 75 % 1015,2 hPa 0,0 l/m 13,2 km/h (3 Bft) W-SW 251 11,8 C 22,0 km/h (4 Bft) 100 %
10.08.2018 04:02 16,2 C 76 % 1015,2 hPa 0,0 l/m 6,9 km/h (2 Bft) SW 232 12,0 C 15,7 km/h (3 Bft) 100 %
10.08.2018 04:03 16,2 C 76 % 1015,2 hPa 0,0 l/m 3,9 km/h (1 Bft) NW 316 12,0 C 6,3 km/h (2 Bft) 100 %
10.08.2018 04:04 16,2 C 76 % 1015,2 hPa 0,0 l/m 16,0 km/h (3 Bft) W 274 12,0 C 25,1 km/h (4 Bft) 100 %
10.08.2018 04:05 16,2 C 76 % 1015,2 hPa 0,0 l/m 8,8 km/h (2 Bft) SW 229 12,0 C 15,7 km/h (3 Bft) 100 %
10.08.2018 04:06 16,2 C 76 % 1015,2 hPa 0,0 l/m 10,4 km/h (2 Bft) W-SW 250 12,0 C 18,8 km/h (3 Bft) 100 %
10.08.2018 04:07 16,2 C 76 % 1015,2 hPa 0,0 l/m 6,4 km/h (2 Bft) W 274 12,0 C 12,6 km/h (3 Bft) 100 %
10.08.2018 04:08 16,2 C 76 % 1015,2 hPa 0,0 l/m 4,1 km/h (1 Bft) O-SO 109 12,0 C 9,4 km/h (2 Bft) 100 %
10.08.2018 04:09 16,1 C 76 % 1015,1 hPa 0,0 l/m 7,7 km/h (2 Bft) W-SW 253 11,9 C 18,8 km/h (3 Bft) 100 %
10.08.2018 04:10 16,1 C 76 % 1015,2 hPa 0,0 l/m 4,4 km/h (1 Bft) S-SW 207 11,9 C 9,4 km/h (2 Bft) 100 %
10.08.2018 04:11 16,1 C 76 % 1015,2 hPa 0,0 l/m 2,2 km/h (1 Bft) W-SW 238 11,9 C 6,3 km/h (2 Bft) 100 %
10.08.2018 04:12 16,1 C 76 % 1015,2 hPa 0,0 l/m 7,2 km/h (2 Bft) NW 304 11,9 C 15,7 km/h (3 Bft) 100 %
10.08.2018 04:13 16,1 C 75 % 1015,2 hPa 0,0 l/m 9,0 km/h (2 Bft) W-NW 302 11,7 C 25,1 km/h (4 Bft) 100 %
10.08.2018 04:14 16,1 C 76 % 1015,2 hPa 0,0 l/m 12,4 km/h (3 Bft) NW 307 11,9 C 28,2 km/h (4 Bft) 100 %
10.08.2018 04:15 16,1 C 75 % 1015,3 hPa 0,0 l/m 14,2 km/h (3 Bft) W-NW 298 11,7 C 18,8 km/h (3 Bft) 100 %
10.08.2018 04:16 16,1 C 75 % 1015,3 hPa 0,0 l/m 11,7 km/h (2 Bft) W-SW 245 11,7 C 18,8 km/h (3 Bft) 100 %
10.08.2018 04:17 16,0 C 75 % 1015,3 hPa 0,0 l/m 12,4 km/h (3 Bft) SW 235 11,6 C 31,4 km/h (5 Bft) 100 %
10.08.2018 04:18 16,0 C 75 % 1015,3 hPa 0,0 l/m 8,1 km/h (2 Bft) W-NW 297 11,6 C 18,8 km/h (3 Bft) 100 %
10.08.2018 04:19 16,0 C 75 % 1015,3 hPa 0,0 l/m 9,3 km/h (2 Bft) W-NW 299 11,6 C 18,8 km/h (3 Bft) 100 %
10.08.2018 04:20 16,0 C 75 % 1015,4 hPa 0,0 l/m 11,6 km/h (2 Bft) S-SW 198 11,6 C 22,0 km/h (4 Bft) 100 %
10.08.2018 04:21 16,0 C 75 % 1015,3 hPa 0,0 l/m 12,4 km/h (3 Bft) W 272 11,6 C 31,4 km/h (5 Bft) 100 %
10.08.2018 04:22 16,0 C 75 % 1015,4 hPa 0,0 l/m 9,2 km/h (2 Bft) W-SW 250 11,6 C 22,0 km/h (4 Bft) 100 %
10.08.2018 04:23 16,0 C 75 % 1015,4 hPa 0,0 l/m 9,3 km/h (2 Bft) SW 233 11,6 C 25,1 km/h (4 Bft) 100 %
10.08.2018 04:24 16,0 C 75 % 1015,4 hPa 0,0 l/m 6,3 km/h (2 Bft) SW 229 11,6 C 18,8 km/h (3 Bft) 100 %
10.08.2018 04:25 16,0 C 75 % 1015,4 hPa 0,0 l/m 10,3 km/h (2 Bft) W-NW 290 11,6 C 22,0 km/h (4 Bft) 100 %
10.08.2018 04:26 16,0 C 75 % 1015,4 hPa 0,0 l/m 6,5 km/h (2 Bft) SW 232 11,6 C 9,4 km/h (2 Bft) 100 %
10.08.2018 04:27 16,0 C 75 % 1015,5 hPa 0,0 l/m 17,7 km/h (3 Bft) N-NW 329 11,6 C 28,2 km/h (4 Bft) 100 %
10.08.2018 04:28 16,0 C 75 % 1015,5 hPa 0,0 l/m 9,5 km/h (2 Bft) W 277 11,6 C 18,8 km/h (3 Bft) 100 %
10.08.2018 04:29 16,0 C 75 % 1015,5 hPa 0,0 l/m 4,7 km/h (1 Bft) SW 236 11,6 C 15,7 km/h (3 Bft) 100 %
10.08.2018 04:30 16,0 C 75 % 1015,5 hPa 0,0 l/m 4,5 km/h (1 Bft) W-SW 253 11,6 C 12,6 km/h (3 Bft) 100 %
10.08.2018 04:31 15,9 C 75 % 1015,5 hPa 0,0 l/m 15,5 km/h (3 Bft) N-NW 330 11,5 C 28,2 km/h (4 Bft) 100 %
10.08.2018 04:32 15,9 C 75 % 1015,5 hPa 0,0 l/m 5,2 km/h (1 Bft) W-SW 244 11,5 C 12,6 km/h (3 Bft) 100 %
10.08.2018 04:33 15,9 C 75 % 1015,5 hPa 0,0 l/m 11,6 km/h (2 Bft) W-NW 290 11,5 C 25,1 km/h (4 Bft) 100 %
10.08.2018 04:34 15,9 C 75 % 1015,6 hPa 0,0 l/m 7,8 km/h (2 Bft) S-SW 201 11,5 C 18,8 km/h (3 Bft) 100 %
10.08.2018 04:35 15,9 C 75 % 1015,6 hPa 0,0 l/m 10,1 km/h (2 Bft) NW 321 11,5 C 18,8 km/h (3 Bft) 100 %
10.08.2018 04:36 15,9 C 75 % 1015,6 hPa 0,0 l/m 9,8 km/h (2 Bft) NW 306 11,5 C 15,7 km/h (3 Bft) 100 %
10.08.2018 04:37 15,9 C 75 % 1015,7 hPa 0,0 l/m 6,1 km/h (2 Bft) W-NW 284 11,5 C 12,6 km/h (3 Bft) 96 %
10.08.2018 04:38 15,9 C 75 % 1015,7 hPa 0,0 l/m 6,5 km/h (2 Bft) W-SW 247 11,5 C 12,6 km/h (3 Bft) 100 %
10.08.2018 04:39 15,8 C 75 % 1015,6 hPa 0,0 l/m 7,7 km/h (2 Bft) W-NW 303 11,4 C 12,6 km/h (3 Bft) 96 %
10.08.2018 04:40 15,8 C 75 % 1015,7 hPa 0,0 l/m 3,1 km/h (1 Bft) N-NW 340 11,4 C 9,4 km/h (2 Bft) 100 %
10.08.2018 04:41 15,8 C 75 % 1015,8 hPa 0,0 l/m 10,2 km/h (2 Bft) W-SW 247 11,4 C 18,8 km/h (3 Bft) 100 %
10.08.2018 04:42 15,8 C 75 % 1015,8 hPa 0,0 l/m 8,2 km/h (2 Bft) NW 314 11,4 C 22,0 km/h (4 Bft) 96 %
10.08.2018 04:43 15,8 C 75 % 1015,8 hPa 0,0 l/m 8,5 km/h (2 Bft) NW 314 11,4 C 22,0 km/h (4 Bft) 100 %
10.08.2018 04:44 15,8 C 75 % 1015,8 hPa 0,0 l/m 5,5 km/h (1 Bft) W-SW 250 11,4 C 12,6 km/h (3 Bft) 96 %
10.08.2018 04:45 15,8 C 76 % 1015,8 hPa 0,0 l/m 5,2 km/h (1 Bft) SW 214 11,6 C 12,6 km/h (3 Bft) 100 %
10.08.2018 04:46 15,8 C 76 % 1015,9 hPa 0,0 l/m 6,0 km/h (2 Bft) W-SW 253 11,6 C 12,6 km/h (3 Bft) 96 %
10.08.2018 04:47 15,8 C 76 % 1015,9 hPa 0,0 l/m 6,7 km/h (2 Bft) W 270 11,6 C 15,7 km/h (3 Bft) 96 %
10.08.2018 04:48 15,8 C 77 % 1015,9 hPa 0,0 l/m 5,6 km/h (1 Bft) W 271 11,8 C 9,4 km/h (2 Bft) 100 %
10.08.2018 04:49 15,7 C 77 % 1016,0 hPa 0,0 l/m 5,6 km/h (1 Bft) W 259 11,7 C 12,6 km/h (3 Bft) 96 %
10.08.2018 04:50 15,7 C 77 % 1016,0 hPa 0,0 l/m 12,6 km/h (3 Bft) W-SW 248 11,7 C 25,1 km/h (4 Bft) 100 %
10.08.2018 04:51 15,7 C 78 % 1016,0 hPa 0,0 l/m 8,6 km/h (2 Bft) W-NW 295 11,9 C 15,7 km/h (3 Bft) 100 %
10.08.2018 04:52 15,7 C 78 % 1016,0 hPa 0,0 l/m 12,0 km/h (2 Bft) NW 309 11,9 C 25,1 km/h (4 Bft) 100 %
10.08.2018 04:53 15,7 C 78 % 1016,0 hPa 0,0 l/m 13,7 km/h (3 Bft) W 277 11,9 C 31,4 km/h (5 Bft) 100 %
10.08.2018 04:54 15,7 C 78 % 1016,0 hPa 0,0 l/m 11,9 km/h (2 Bft) W-SW 257 11,9 C 25,1 km/h (4 Bft) 100 %
10.08.2018 04:55 15,6 C 78 % 1016,0 hPa 0,0 l/m 11,6 km/h (2 Bft) NW 316 11,8 C 25,1 km/h (4 Bft) 100 %
10.08.2018 04:56 15,6 C 78 % 1016,0 hPa 0,0 l/m 10,5 km/h (2 Bft) W-NW 284 11,8 C 22,0 km/h (4 Bft) 100 %
10.08.2018 04:57 15,6 C 79 % 1016,1 hPa 0,0 l/m 11,0 km/h (2 Bft) N-NO 25 12,0 C 18,8 km/h (3 Bft) 100 %
10.08.2018 04:58 15,6 C 78 % 1016,1 hPa 0,0 l/m 9,4 km/h (2 Bft) W-SW 246 11,8 C 22,0 km/h (4 Bft) 100 %
10.08.2018 04:59 15,6 C 79 % 1016,1 hPa 0,0 l/m 7,1 km/h (2 Bft) W-NW 295 12,0 C 15,7 km/h (3 Bft) 100 %
10.08.2018 05:00 15,6 C 79 % 1016,1 hPa 0,0 l/m 9,8 km/h (2 Bft) W-NW 301 12,0 C 18,8 km/h (3 Bft) 100 %
10.08.2018 05:01 15,5 C 79 % 1016,1 hPa 0,0 l/m 9,2 km/h (2 Bft) SW 230 11,9 C 15,7 km/h (3 Bft) 100 %
10.08.2018 05:02 15,5 C 79 % 1016,1 hPa 0,0 l/m 9,5 km/h (2 Bft) W 266 11,9 C 15,7 km/h (3 Bft) 100 %
10.08.2018 05:03 15,5 C 78 % 1016,2 hPa 0,0 l/m 11,8 km/h (2 Bft) W 265 11,7 C 18,8 km/h (3 Bft) 100 %
10.08.2018 05:04 15,5 C 79 % 1016,2 hPa 0,0 l/m 7,3 km/h (2 Bft) NW 309 11,9 C 18,8 km/h (3 Bft) 100 %
10.08.2018 05:05 15,5 C 79 % 1016,2 hPa 0,0 l/m 10,6 km/h (2 Bft) NW 304 11,9 C 28,2 km/h (4 Bft) 100 %
10.08.2018 05:06 15,4 C 79 % 1016,2 hPa 0,0 l/m 10,6 km/h (2 Bft) W-NW 303 11,8 C 18,8 km/h (3 Bft) 100 %
10.08.2018 05:07 15,4 C 79 % 1016,2 hPa 0,0 l/m 6,8 km/h (2 Bft) W-SW 245 11,8 C 12,6 km/h (3 Bft) 100 %
10.08.2018 05:08 15,4 C 79 % 1016,2 hPa 0,0 l/m 8,5 km/h (2 Bft) W-NW 283 11,8 C 15,7 km/h (3 Bft) 100 %
10.08.2018 05:09 15,4 C 79 % 1016,2 hPa 0,0 l/m 7,7 km/h (2 Bft) W-SW 248 11,8 C 12,6 km/h (3 Bft) 100 %
10.08.2018 05:10 15,4 C 79 % 1016,3 hPa 0,0 l/m 7,8 km/h (2 Bft) NW 325 11,8 C 18,8 km/h (3 Bft) 100 %
10.08.2018 05:11 15,4 C 79 % 1016,3 hPa 0,0 l/m 6,4 km/h (2 Bft) W 263 11,8 C 15,7 km/h (3 Bft) 100 %
10.08.2018 05:12 15,3 C 79 % 1016,3 hPa 0,0 l/m 9,9 km/h (2 Bft) NW 317 11,7 C 18,8 km/h (3 Bft) 100 %
10.08.2018 05:13 15,3 C 79 % 1016,3 hPa 0,0 l/m 8,2 km/h (2 Bft) W 259 11,7 C 18,8 km/h (3 Bft) 100 %
10.08.2018 05:14 15,3 C 79 % 1016,3 hPa 0,0 l/m 5,0 km/h (1 Bft) W-SW 255 11,7 C 9,4 km/h (2 Bft) 100 %
10.08.2018 05:15 15,3 C 78 % 1016,2 hPa 0,0 l/m 10,2 km/h (2 Bft) W-NW 300 11,5 C 28,2 km/h (4 Bft) 100 %
10.08.2018 05:16 15,3 C 78 % 1016,2 hPa 0,0 l/m 17,0 km/h (3 Bft) W-NW 298 11,5 C 31,4 km/h (5 Bft) 100 %
10.08.2018 05:17 15,3 C 78 % 1016,3 hPa 0,0 l/m 13,8 km/h (3 Bft) W 275 11,5 C 22,0 km/h (4 Bft) 100 %
10.08.2018 05:18 15,3 C 78 % 1016,2 hPa 0,0 l/m 9,4 km/h (2 Bft) W 278 11,5 C 18,8 km/h (3 Bft) 100 %
10.08.2018 05:19 15,3 C 78 % 1016,3 hPa 0,0 l/m 6,4 km/h (2 Bft) W-NW 299 11,5 C 18,8 km/h (3 Bft) 100 %
10.08.2018 05:20 15,3 C 78 % 1016,3 hPa 0,0 l/m 6,0 km/h (2 Bft) W-SW 241 11,5 C 12,6 km/h (3 Bft) 100 %
10.08.2018 05:21 15,3 C 78 % 1016,3 hPa 0,0 l/m 7,8 km/h (2 Bft) W-SW 242 11,5 C 18,8 km/h (3 Bft) 100 %
10.08.2018 05:22 15,3 C 78 % 1016,3 hPa 0,0 l/m 10,2 km/h (2 Bft) W-SW 248 11,5 C 15,7 km/h (3 Bft) 100 %
10.08.2018 05:23 15,3 C 78 % 1016,3 hPa 0,0 l/m 8,2 km/h (2 Bft) NW 309 11,5 C 22,0 km/h (4 Bft) 100 %
10.08.2018 05:24 15,3 C 78 % 1016,3 hPa 0,0 l/m 12,7 km/h (3 Bft) W 265 11,5 C 22,0 km/h (4 Bft) 100 %
10.08.2018 05:25 15,3 C 78 % 1016,4 hPa 0,0 l/m 8,5 km/h (2 Bft) S-SW 205 11,5 C 12,6 km/h (3 Bft) 100 %
10.08.2018 05:26 15,3 C 78 % 1016,4 hPa 0,0 l/m 9,3 km/h (2 Bft) W-NW 303 11,5 C 22,0 km/h (4 Bft) 100 %
10.08.2018 05:27 15,3 C 78 % 1016,4 hPa 0,0 l/m 6,3 km/h (2 Bft) W-NW 283 11,5 C 25,1 km/h (4 Bft) 100 %
10.08.2018 05:28 15,3 C 78 % 1016,4 hPa 0,0 l/m 3,8 km/h (1 Bft) W-NW 296 11,5 C 12,6 km/h (3 Bft) 100 %
10.08.2018 05:29 15,3 C 78 % 1016,5 hPa 0,0 l/m 6,0 km/h (2 Bft) NW 315 11,5 C 12,6 km/h (3 Bft) 100 %
10.08.2018 05:30 15,3 C 78 % 1016,4 hPa 0,0 l/m 8,3 km/h (2 Bft) W 276 11,5 C 18,8 km/h (3 Bft) 100 %
10.08.2018 05:31 15,4 C 77 % 1016,4 hPa 0,0 l/m 9,1 km/h (2 Bft) W 281 11,4 C 15,7 km/h (3 Bft) 100 %
10.08.2018 05:32 15,4 C 77 % 1016,4 hPa 0,0 l/m 12,9 km/h (3 Bft) W-NW 293 11,4 C 31,4 km/h (5 Bft) 100 %
10.08.2018 05:33 15,4 C 77 % 1016,5 hPa 0,0 l/m 4,9 km/h (1 Bft) W-NW 300 11,4 C 15,7 km/h (3 Bft) 100 %
10.08.2018 05:34 15,4 C 77 % 1016,5 hPa 0,0 l/m 4,1 km/h (1 Bft) W 260 11,4 C 9,4 km/h (2 Bft) 100 %
10.08.2018 05:35 15,4 C 77 % 1016,5 hPa 0,0 l/m 3,7 km/h (1 Bft) W-NW 303 11,4 C 9,4 km/h (2 Bft) 100 %
10.08.2018 05:36 15,4 C 77 % 1016,5 hPa 0,0 l/m 4,2 km/h (1 Bft) W-NW 293 11,4 C 9,4 km/h (2 Bft) 100 %
10.08.2018 05:37 15,4 C 77 % 1016,5 hPa 0,0 l/m 6,0 km/h (2 Bft) W-NW 300 11,4 C 9,4 km/h (2 Bft) 100 %
10.08.2018 05:38 15,4 C 77 % 1016,5 hPa 0,0 l/m 6,0 km/h (2 Bft) NW 304 11,4 C 12,6 km/h (3 Bft) 100 %
10.08.2018 05:39 15,5 C 77 % 1016,6 hPa 0,0 l/m 2,6 km/h (1 Bft) W-SW 247 11,5 C 9,4 km/h (2 Bft) 100 %
10.08.2018 05:40 15,5 C 77 % 1016,6 hPa 0,0 l/m 0,3 km/h (0 Bft) W 277 11,5 C 3,1 km/h (1 Bft) 100 %
10.08.2018 05:41 15,5 C 77 % 1016,6 hPa 0,0 l/m 7,1 km/h (2 Bft) NW 313 11,5 C 18,8 km/h (3 Bft) 100 %
10.08.2018 05:42 15,5 C 76 % 1016,6 hPa 0,0 l/m 7,6 km/h (2 Bft) W 264 11,3 C 12,6 km/h (3 Bft) 100 %
10.08.2018 05:43 15,5 C 76 % 1016,6 hPa 0,0 l/m 5,8 km/h (2 Bft) W-SW 258 11,3 C 9,4 km/h (2 Bft) 93 %
10.08.2018 05:44 15,5 C 75 % 1016,6 hPa 0,0 l/m 8,2 km/h (2 Bft) W 268 11,1 C 12,6 km/h (3 Bft) 100 %
10.08.2018 05:45 15,5 C 75 % 1016,6 hPa 0,0 l/m 6,8 km/h (2 Bft) W-NW 285 11,1 C 12,6 km/h (3 Bft) 96 %
10.08.2018 05:46 15,5 C 74 % 1016,6 hPa 0,0 l/m 6,6 km/h (2 Bft) W-SW 256 10,9 C 12,6 km/h (3 Bft) 100 %
10.08.2018 05:47 15,5 C 74 % 1016,7 hPa 0,0 l/m 6,1 km/h (2 Bft) W 274 10,9 C 9,4 km/h (2 Bft) 96 %
10.08.2018 05:48 15,5 C 74 % 1016,7 hPa 0,0 l/m 6,5 km/h (2 Bft) NW 323 10,9 C 9,4 km/h (2 Bft) 96 %
10.08.2018 05:49 15,5 C 74 % 1016,7 hPa 0,0 l/m 5,6 km/h (1 Bft) W-NW 295 10,9 C 12,6 km/h (3 Bft) 100 %
10.08.2018 05:50 15,5 C 73 % 1016,7 hPa 0,0 l/m 5,7 km/h (1 Bft) SW 231 10,7 C 12,6 km/h (3 Bft) 96 %
10.08.2018 05:51 15,5 C 73 % 1016,7 hPa 0,0 l/m 4,8 km/h (1 Bft) S 190 10,7 C 15,7 km/h (3 Bft) 100 %
10.08.2018 05:52 15,4 C 73 % 1016,7 hPa 0,0 l/m 4,0 km/h (1 Bft) NW 312 10,6 C 9,4 km/h (2 Bft) 100 %
10.08.2018 05:53 15,4 C 74 % 1016,7 hPa 0,0 l/m 7,4 km/h (2 Bft) W 277 10,8 C 12,6 km/h (3 Bft) 100 %
10.08.2018 05:54 15,4 C 74 % 1016,8 hPa 0,0 l/m 5,6 km/h (1 Bft) SW 231 10,8 C 15,7 km/h (3 Bft) 100 %
10.08.2018 05:55 15,4 C 74 % 1016,7 hPa 0,0 l/m 3,9 km/h (1 Bft) W-NW 289 10,8 C 12,6 km/h (3 Bft) 100 %
10.08.2018 05:56 15,4 C 73 % 1016,8 hPa 0,0 l/m 5,9 km/h (2 Bft) W 259 10,6 C 9,4 km/h (2 Bft) 100 %
10.08.2018 05:57 15,3 C 73 % 1016,8 hPa 0,0 l/m 7,4 km/h (2 Bft) N-NW 328 10,5 C 25,1 km/h (4 Bft) 100 %
10.08.2018 05:58 15,3 C 73 % 1016,8 hPa 0,0 l/m 13,5 km/h (3 Bft) W-SW 245 10,5 C 22,0 km/h (4 Bft) 100 %
10.08.2018 05:59 15,3 C 72 % 1016,7 hPa 0,0 l/m 15,0 km/h (3 Bft) NW 308 10,3 C 25,1 km/h (4 Bft) 100 %
10.08.2018 06:00 15,3 C 72 % 1016,9 hPa 0,0 l/m 14,5 km/h (3 Bft) W-NW 291 10,3 C 18,8 km/h (3 Bft) 100 %
10.08.2018 06:01 15,3 C 72 % 1016,9 hPa 0,0 l/m 8,9 km/h (2 Bft) W-NW 297 10,3 C 15,7 km/h (3 Bft) 100 %
10.08.2018 06:02 15,3 C 72 % 1016,8 hPa 0,0 l/m 8,2 km/h (2 Bft) W 273 10,3 C 12,6 km/h (3 Bft) 100 %
10.08.2018 06:03 15,3 C 72 % 1016,9 hPa 0,0 l/m 5,0 km/h (1 Bft) N 356 10,3 C 9,4 km/h (2 Bft) 100 %
10.08.2018 06:04 15,3 C 72 % 1016,9 hPa 0,0 l/m 9,0 km/h (2 Bft) W-NW 288 10,3 C 15,7 km/h (3 Bft) 100 %
10.08.2018 06:05 15,3 C 72 % 1017,0 hPa 0,0 l/m 7,2 km/h (2 Bft) W-NW 283 10,3 C 18,8 km/h (3 Bft) 100 %
10.08.2018 06:06 15,2 C 72 % 1017,0 hPa 0,0 l/m 8,9 km/h (2 Bft) W-NW 295 10,2 C 22,0 km/h (4 Bft) 100 %
10.08.2018 06:07 15,2 C 72 % 1017,0 hPa 0,0 l/m 9,9 km/h (2 Bft) W 266 10,2 C 15,7 km/h (3 Bft) 100 %
10.08.2018 06:08 15,2 C 72 % 1017,0 hPa 0,0 l/m 6,8 km/h (2 Bft) W-SW 251 10,2 C 12,6 km/h (3 Bft) 100 %
10.08.2018 06:09 15,2 C 72 % 1017,0 hPa 0,0 l/m 5,5 km/h (1 Bft) SW 233 10,2 C 9,4 km/h (2 Bft) 100 %
10.08.2018 06:10 15,2 C 72 % 1017,1 hPa 0,0 l/m 6,6 km/h (2 Bft) NW 314 10,2 C 12,6 km/h (3 Bft) 100 %
10.08.2018 06:11 15,1 C 72 % 1017,1 hPa 0,0 l/m 9,0 km/h (2 Bft) W-SW 258 10,1 C 22,0 km/h (4 Bft) 100 %
10.08.2018 06:12 15,1 C 72 % 1017,1 hPa 0,0 l/m 12,1 km/h (2 Bft) W-NW 299 10,1 C 22,0 km/h (4 Bft) 100 %
10.08.2018 06:13 15,1 C 72 % 1017,1 hPa 0,0 l/m 9,8 km/h (2 Bft) W 268 10,1 C 18,8 km/h (3 Bft) 100 %
10.08.2018 06:14 15,1 C 72 % 1017,1 hPa 0,0 l/m 8,8 km/h (2 Bft) W 271 10,1 C 18,8 km/h (3 Bft) 100 %
10.08.2018 06:15 15,1 C 72 % 1017,1 hPa 0,0 l/m 10,1 km/h (2 Bft) W 274 10,1 C 37,7 km/h (5 Bft) 100 %
10.08.2018 06:16 15,1 C 72 % 1017,2 hPa 0,0 l/m 7,8 km/h (2 Bft) W-NW 288 10,1 C 12,6 km/h (3 Bft) 100 %
10.08.2018 06:17 15,1 C 72 % 1017,2 hPa 0,0 l/m 14,0 km/h (3 Bft) S-SW 202 10,1 C 25,1 km/h (4 Bft) 100 %
10.08.2018 06:18 15,0 C 72 % 1017,2 hPa 0,0 l/m 4,7 km/h (1 Bft) W-SW 257 10,0 C 9,4 km/h (2 Bft) 100 %
10.08.2018 06:19 15,0 C 72 % 1017,2 hPa 0,0 l/m 6,4 km/h (2 Bft) SW 231 10,0 C 12,6 km/h (3 Bft) 100 %
10.08.2018 06:20 15,0 C 72 % 1017,2 hPa 0,0 l/m 8,1 km/h (2 Bft) NW 311 10,0 C 12,6 km/h (3 Bft) 100 %
10.08.2018 06:21 14,9 C 72 % 1017,3 hPa 0,0 l/m 9,1 km/h (2 Bft) W-NW 284 9,9 C 18,8 km/h (3 Bft) 100 %
10.08.2018 06:22 14,9 C 72 % 1017,3 hPa 0,0 l/m 4,9 km/h (1 Bft) W 275 9,9 C 9,4 km/h (2 Bft) 100 %
10.08.2018 06:23 14,9 C 73 % 1017,3 hPa 0,0 l/m 8,8 km/h (2 Bft) W-NW 297 10,1 C 15,7 km/h (3 Bft) 100 %
10.08.2018 06:24 14,9 C 73 % 1017,3 hPa 0,0 l/m 6,4 km/h (2 Bft) W-SW 253 10,1 C 15,7 km/h (3 Bft) 100 %
10.08.2018 06:25 14,9 C 73 % 1017,4 hPa 0,0 l/m 3,4 km/h (1 Bft) NW 307 10,1 C 9,4 km/h (2 Bft) 100 %
10.08.2018 06:26 14,8 C 73 % 1017,4 hPa 0,0 l/m 0,8 km/h (0 Bft) W-NW 295 10,0 C 3,1 km/h (1 Bft) 100 %
10.08.2018 06:27 14,8 C 73 % 1017,5 hPa 0,0 l/m 5,5 km/h (1 Bft) W-NW 302 10,0 C 9,4 km/h (2 Bft) 100 %
10.08.2018 06:28 14,8 C 73 % 1017,5 hPa 0,0 l/m 4,8 km/h (1 Bft) W-SW 258 10,0 C 12,6 km/h (3 Bft) 100 %
10.08.2018 06:29 14,8 C 73 % 1017,4 hPa 0,0 l/m 2,8 km/h (1 Bft) W-NW 298 10,0 C 6,3 km/h (2 Bft) 100 %
10.08.2018 06:30 14,8 C 73 % 1017,5 hPa 0,0 l/m 3,1 km/h (1 Bft) W 266 10,0 C 12,6 km/h (3 Bft) 100 %
10.08.2018 06:31 14,8 C 74 % 1017,5 hPa 0,0 l/m 3,7 km/h (1 Bft) SW 226 10,2 C 15,7 km/h (3 Bft) 100 %
10.08.2018 06:32 14,8 C 74 % 1017,6 hPa 0,0 l/m 2,9 km/h (1 Bft) W-NW 299 10,2 C 6,3 km/h (2 Bft) 96 %
10.08.2018 06:33 14,8 C 74 % 1017,6 hPa 0,0 l/m 4,2 km/h (1 Bft) W 277 10,2 C 9,4 km/h (2 Bft) 100 %
10.08.2018 06:34 14,8 C 74 % 1017,6 hPa 0,0 l/m 3,4 km/h (1 Bft) NW 310 10,2 C 12,6 km/h (3 Bft) 100 %
10.08.2018 06:35 14,8 C 74 % 1017,6 hPa 0,0 l/m 1,0 km/h (0 Bft) NW 307 10,2 C 3,1 km/h (1 Bft) 100 %
10.08.2018 06:36 14,8 C 74 % 1017,6 hPa 0,0 l/m 0,7 km/h (0 Bft) NW 309 10,2 C 3,1 km/h (1 Bft) 100 %
10.08.2018 06:37 14,7 C 74 % 1017,6 hPa 0,0 l/m 0,4 km/h (0 Bft) W-NW 285 10,1 C 3,1 km/h (1 Bft) 100 %
10.08.2018 06:38 14,8 C 75 % 1017,6 hPa 0,0 l/m 2,5 km/h (1 Bft) W-NW 303 10,4 C 6,3 km/h (2 Bft) 93 %
10.08.2018 06:39 14,7 C 75 % 1017,6 hPa 0,0 l/m 3,3 km/h (1 Bft) NW 317 10,3 C 6,3 km/h (2 Bft) 100 %
10.08.2018 06:40 14,7 C 75 % 1017,6 hPa 0,0 l/m 0,0 km/h (0 Bft) S-SW 207 10,3 C 0,0 km/h (0 Bft) 100 %
10.08.2018 06:41 14,7 C 75 % 1017,8 hPa 0,0 l/m 1,4 km/h (1 Bft) W-NW 303 10,3 C 6,3 km/h (2 Bft) 98 %
10.08.2018 06:42 14,7 C 76 % 1017,8 hPa 0,0 l/m 1,7 km/h (1 Bft) NW 312 10,5 C 6,3 km/h (2 Bft) 96 %
10.08.2018 06:43 14,7 C 76 % 1017,8 hPa 0,0 l/m 3,3 km/h (1 Bft) W-NW 292 10,5 C 6,3 km/h (2 Bft) 100 %
10.08.2018 06:44 14,7 C 76 % 1017,8 hPa 0,0 l/m 4,1 km/h (1 Bft) SW 227 10,5 C 6,3 km/h (2 Bft) 96 %
10.08.2018 06:45 14,7 C 77 % 1017,8 hPa 0,0 l/m 4,5 km/h (1 Bft) NW 310 10,7 C 9,4 km/h (2 Bft) 100 %
10.08.2018 06:46 14,7 C 77 % 1017,8 hPa 0,0 l/m 5,5 km/h (1 Bft) NW 307 10,7 C 12,6 km/h (3 Bft) 97 %
10.08.2018 06:47 14,7 C 77 % 1017,8 hPa 0,0 l/m 3,5 km/h (1 Bft) W-NW 302 10,7 C 12,6 km/h (3 Bft) 96 %
10.08.2018 06:48 14,7 C 77 % 1017,9 hPa 0,0 l/m 3,1 km/h (1 Bft) SW 228 10,7 C 9,4 km/h (2 Bft) 100 %
10.08.2018 06:49 14,7 C 77 % 1017,9 hPa 0,0 l/m 5,6 km/h (1 Bft) W-SW 238 10,7 C 12,6 km/h (3 Bft) 96 %
10.08.2018 06:50 14,7 C 78 % 1017,8 hPa 0,0 l/m 9,8 km/h (2 Bft) S-SW 209 10,9 C 15,7 km/h (3 Bft) 99 %
10.08.2018 06:51 14,7 C 78 % 1017,8 hPa 0,0 l/m 9,6 km/h (2 Bft) W 279 10,9 C 18,8 km/h (3 Bft) 98 %
10.08.2018 06:52 14,7 C 78 % 1017,9 hPa 0,0 l/m 5,5 km/h (1 Bft) W 275 10,9 C 9,4 km/h (2 Bft) 99 %
10.08.2018 06:53 14,7 C 78 % 1017,9 hPa 0,0 l/m 3,0 km/h (1 Bft) SW 234 10,9 C 6,3 km/h (2 Bft) 98 %
10.08.2018 06:54 14,7 C 78 % 1017,9 hPa 0,0 l/m 5,1 km/h (1 Bft) W-SW 238 10,9 C 12,6 km/h (3 Bft) 100 %
10.08.2018 06:55 14,7 C 78 % 1018,0 hPa 0,0 l/m 8,6 km/h (2 Bft) NW 323 10,9 C 25,1 km/h (4 Bft) 100 %
10.08.2018 06:56 14,7 C 78 % 1018,0 hPa 0,0 l/m 8,0 km/h (2 Bft) W 274 10,9 C 12,6 km/h (3 Bft) 100 %
10.08.2018 06:57 14,7 C 78 % 1018,1 hPa 0,0 l/m 4,6 km/h (1 Bft) W 274 10,9 C 6,3 km/h (2 Bft) 100 %
10.08.2018 06:58 14,7 C 78 % 1018,1 hPa 0,0 l/m 5,5 km/h (1 Bft) W-NW 302 10,9 C 12,6 km/h (3 Bft) 100 %
10.08.2018 06:59 14,6 C 78 % 1018,1 hPa 0,0 l/m 1,7 km/h (1 Bft) W-NW 284 10,8 C 6,3 km/h (2 Bft) 100 %
10.08.2018 07:00 14,6 C 78 % 1018,1 hPa 0,0 l/m 3,9 km/h (1 Bft) W-NW 288 10,8 C 9,4 km/h (2 Bft) 100 %
10.08.2018 07:01 14,6 C 78 % 1018,2 hPa 0,0 l/m 3,6 km/h (1 Bft) W-SW 242 10,8 C 12,6 km/h (3 Bft) 100 %
10.08.2018 07:02 14,6 C 78 % 1018,2 hPa 0,0 l/m 7,1 km/h (2 Bft) W 278 10,8 C 18,8 km/h (3 Bft) 100 %
10.08.2018 07:03 14,6 C 78 % 1018,3 hPa 0,0 l/m 1,8 km/h (1 Bft) W-NW 297 10,8 C 6,3 km/h (2 Bft) 100 %
10.08.2018 07:04 14,6 C 78 % 1018,3 hPa 0,0 l/m 3,9 km/h (1 Bft) SW 222 10,8 C 9,4 km/h (2 Bft) 100 %
10.08.2018 07:05 14,6 C 78 % 1018,3 hPa 0,0 l/m 5,4 km/h (1 Bft) NW 315 10,8 C 9,4 km/h (2 Bft) 100 %
10.08.2018 07:06 14,6 C 78 % 1018,3 hPa 0,0 l/m 1,3 km/h (1 Bft) W-SW 253 10,8 C 9,4 km/h (2 Bft) 100 %
10.08.2018 07:07 14,6 C 78 % 1018,4 hPa 0,0 l/m 8,8 km/h (2 Bft) W-NW 284 10,8 C 22,0 km/h (4 Bft) 100 %
10.08.2018 07:08 14,6 C 77 % 1018,4 hPa 0,0 l/m 7,1 km/h (2 Bft) SW 221 10,6 C 22,0 km/h (4 Bft) 100 %
10.08.2018 07:09 14,7 C 78 % 1018,4 hPa 0,0 l/m 4,1 km/h (1 Bft) W-NW 300 10,9 C 9,4 km/h (2 Bft) 100 %
10.08.2018 07:10 14,7 C 77 % 1018,4 hPa 0,0 l/m 8,5 km/h (2 Bft) S-SW 211 10,7 C 15,7 km/h (3 Bft) 100 %
10.08.2018 07:11 14,7 C 77 % 1018,4 hPa 0,0 l/m 9,2 km/h (2 Bft) NW 312 10,7 C 15,7 km/h (3 Bft) 100 %
10.08.2018 07:12 14,7 C 77 % 1018,4 hPa 0,0 l/m 6,1 km/h (2 Bft) W 278 10,7 C 12,6 km/h (3 Bft) 100 %
10.08.2018 07:13 14,7 C 77 % 1018,5 hPa 0,0 l/m 6,0 km/h (2 Bft) W-SW 248 10,7 C 15,7 km/h (3 Bft) 100 %
10.08.2018 07:14 14,7 C 77 % 1018,5 hPa 0,0 l/m 3,8 km/h (1 Bft) NW 312 10,7 C 9,4 km/h (2 Bft) 100 %
10.08.2018 07:15 14,7 C 77 % 1018,5 hPa 0,0 l/m 6,8 km/h (2 Bft) NW 314 10,7 C 15,7 km/h (3 Bft) 100 %
10.08.2018 07:16 14,8 C 77 % 1018,5 hPa 0,0 l/m 3,8 km/h (1 Bft) W-SW 258 10,8 C 9,4 km/h (2 Bft) 100 %
10.08.2018 07:17 14,8 C 77 % 1018,5 hPa 0,0 l/m 3,3 km/h (1 Bft) N-NW 329 10,8 C 9,4 km/h (2 Bft) 100 %
10.08.2018 07:18 14,8 C 76 % 1018,5 hPa 0,0 l/m 7,6 km/h (2 Bft) W 276 10,6 C 15,7 km/h (3 Bft) 100 %
10.08.2018 07:19 14,8 C 76 % 1018,6 hPa 0,0 l/m 8,0 km/h (2 Bft) NW 321 10,6 C 15,7 km/h (3 Bft) 100 %
10.08.2018 07:20 14,8 C 76 % 1018,6 hPa 0,0 l/m 5,8 km/h (2 Bft) NW 309 10,6 C 15,7 km/h (3 Bft) 100 %
10.08.2018 07:21 14,8 C 76 % 1018,7 hPa 0,0 l/m 9,3 km/h (2 Bft) NW 323 10,6 C 15,7 km/h (3 Bft) 100 %
10.08.2018 07:22 14,9 C 76 % 1018,7 hPa 0,0 l/m 7,2 km/h (2 Bft) W 269 10,7 C 12,6 km/h (3 Bft) 100 %
10.08.2018 07:23 14,9 C 75 % 1018,7 hPa 0,0 l/m 10,6 km/h (2 Bft) W-NW 285 10,5 C 28,2 km/h (4 Bft) 100 %
10.08.2018 07:24 14,9 C 75 % 1018,6 hPa 0,0 l/m 2,6 km/h (1 Bft) N 358 10,5 C 6,3 km/h (2 Bft) 100 %
10.08.2018 07:25 14,9 C 75 % 1018,6 hPa 0,0 l/m 5,0 km/h (1 Bft) W-NW 302 10,5 C 12,6 km/h (3 Bft) 100 %
10.08.2018 07:26 15,0 C 75 % 1018,7 hPa 0,0 l/m 4,8 km/h (1 Bft) W-SW 237 10,6 C 12,6 km/h (3 Bft) 100 %
10.08.2018 07:27 15,0 C 75 % 1018,7 hPa 0,0 l/m 7,6 km/h (2 Bft) NW 315 10,6 C 18,8 km/h (3 Bft) 100 %
10.08.2018 07:28 15,0 C 75 % 1018,8 hPa 0,0 l/m 4,2 km/h (1 Bft) SW 224 10,6 C 12,6 km/h (3 Bft) 100 %
10.08.2018 07:29 15,0 C 75 % 1018,8 hPa 0,0 l/m 4,2 km/h (1 Bft) W 268 10,6 C 9,4 km/h (2 Bft) 100 %
10.08.2018 07:30 15,0 C 75 % 1018,8 hPa 0,0 l/m 5,6 km/h (1 Bft) W 272 10,6 C 12,6 km/h (3 Bft) 100 %
10.08.2018 07:31 15,0 C 75 % 1018,8 hPa 0,0 l/m 4,4 km/h (1 Bft) W-SW 242 10,6 C 9,4 km/h (2 Bft) 100 %
10.08.2018 07:32 15,0 C 74 % 1018,9 hPa 0,0 l/m 0,6 km/h (0 Bft) W-NW 288 10,4 C 3,1 km/h (1 Bft) 100 %
10.08.2018 07:33 15,0 C 74 % 1018,9 hPa 0,0 l/m 10,4 km/h (2 Bft) W-NW 282 10,4 C 18,8 km/h (3 Bft) 100 %
10.08.2018 07:34 15,0 C 74 % 1018,9 hPa 0,0 l/m 8,1 km/h (2 Bft) S-SO 147 10,4 C 15,7 km/h (3 Bft) 100 %
10.08.2018 07:35 15,0 C 74 % 1018,9 hPa 0,0 l/m 6,1 km/h (2 Bft) NW 311 10,4 C 12,6 km/h (3 Bft) 100 %
10.08.2018 07:36 15,0 C 74 % 1018,9 hPa 0,0 l/m 10,2 km/h (2 Bft) W-SW 258 10,4 C 25,1 km/h (4 Bft) 100 %
10.08.2018 07:37 15,0 C 73 % 1018,9 hPa 0,0 l/m 10,3 km/h (2 Bft) W-NW 297 10,2 C 18,8 km/h (3 Bft) 100 %
10.08.2018 07:38 14,9 C 74 % 1018,9 hPa 0,0 l/m 3,8 km/h (1 Bft) NW 326 10,3 C 12,6 km/h (3 Bft) 100 %
10.08.2018 07:39 15,0 C 74 % 1019,0 hPa 0,0 l/m 7,8 km/h (2 Bft) W 271 10,4 C 15,7 km/h (3 Bft) 100 %
10.08.2018 07:40 14,9 C 74 % 1019,0 hPa 0,0 l/m 10,0 km/h (2 Bft) NW 317 10,3 C 15,7 km/h (3 Bft) 100 %
10.08.2018 07:41 14,9 C 73 % 1019,0 hPa 0,0 l/m 12,1 km/h (2 Bft) W 274 10,1 C 25,1 km/h (4 Bft) 100 %
10.08.2018 07:42 14,9 C 74 % 1019,0 hPa 0,0 l/m 8,7 km/h (2 Bft) NW 319 10,3 C 12,6 km/h (3 Bft) 97 %
10.08.2018 07:43 14,9 C 73 % 1019,1 hPa 0,0 l/m 6,7 km/h (2 Bft) W 278 10,1 C 9,4 km/h (2 Bft) 100 %
10.08.2018 07:44 14,9 C 73 % 1019,1 hPa 0,0 l/m 6,7 km/h (2 Bft) W-NW 302 10,1 C 12,6 km/h (3 Bft) 97 %
10.08.2018 07:45 14,9 C 73 % 1019,1 hPa 0,0 l/m 3,8 km/h (1 Bft) W 261 10,1 C 9,4 km/h (2 Bft) 96 %
10.08.2018 07:46 14,9 C 73 % 1019,1 hPa 0,0 l/m 6,9 km/h (2 Bft) NW 311 10,1 C 15,7 km/h (3 Bft) 100 %
10.08.2018 07:47 15,0 C 73 % 1019,1 hPa 0,0 l/m 5,5 km/h (1 Bft) W 260 10,2 C 9,4 km/h (2 Bft) 96 %
10.08.2018 07:48 15,1 C 73 % 1019,1 hPa 0,0 l/m 5,5 km/h (1 Bft) W-NW 289 10,3 C 9,4 km/h (2 Bft) 96 %
10.08.2018 07:49 15,1 C 73 % 1019,1 hPa 0,0 l/m 7,0 km/h (2 Bft) W-NW 296 10,3 C 15,7 km/h (3 Bft) 100 %
10.08.2018 07:50 15,1 C 73 % 1019,1 hPa 0,0 l/m 4,7 km/h (1 Bft) S-SW 209 10,3 C 9,4 km/h (2 Bft) 92 %
10.08.2018 07:51 15,2 C 73 % 1019,1 hPa 0,0 l/m 6,5 km/h (2 Bft) S-SW 197 10,4 C 12,6 km/h (3 Bft) 100 %
10.08.2018 07:52 15,2 C 72 % 1019,1 hPa 0,0 l/m 13,2 km/h (3 Bft) W 264 10,2 C 22,0 km/h (4 Bft) 96 %
10.08.2018 07:53 15,3 C 73 % 1019,1 hPa 0,0 l/m 6,0 km/h (2 Bft) W-SW 243 10,5 C 9,4 km/h (2 Bft) 100 %
10.08.2018 07:54 15,4 C 72 % 1019,1 hPa 0,0 l/m 5,3 km/h (1 Bft) SW 228 10,4 C 12,6 km/h (3 Bft) 96 %
10.08.2018 07:55 15,4 C 72 % 1019,1 hPa 0,0 l/m 2,1 km/h (1 Bft) W 267 10,4 C 6,3 km/h (2 Bft) 96 %
10.08.2018 07:56 15,5 C 72 % 1019,2 hPa 0,0 l/m 2,5 km/h (1 Bft) W-SW 252 10,5 C 9,4 km/h (2 Bft) 100 %
10.08.2018 07:57 15,5 C 73 % 1019,1 hPa 0,0 l/m 5,0 km/h (1 Bft) W 269 10,7 C 12,6 km/h (3 Bft) 100 %
10.08.2018 07:58 15,6 C 72 % 1019,2 hPa 0,0 l/m 3,8 km/h (1 Bft) NW 313 10,6 C 9,4 km/h (2 Bft) 100 %
10.08.2018 07:59 15,6 C 72 % 1019,3 hPa 0,0 l/m 2,5 km/h (1 Bft) W-NW 298 10,6 C 9,4 km/h (2 Bft) 100 %
10.08.2018 08:00 15,6 C 72 % 1019,3 hPa 0,0 l/m 1,3 km/h (1 Bft) W 281 10,6 C 3,1 km/h (1 Bft) 100 %
10.08.2018 08:01 15,6 C 72 % 1019,3 hPa 0,0 l/m 4,6 km/h (1 Bft) NW 319 10,6 C 9,4 km/h (2 Bft) 96 %
10.08.2018 08:02 15,6 C 72 % 1019,3 hPa 0,0 l/m 4,9 km/h (1 Bft) W-SW 243 10,6 C 9,4 km/h (2 Bft) 100 %
10.08.2018 08:03 15,6 C 71 % 1019,3 hPa 0,0 l/m 5,9 km/h (2 Bft) W 267 10,4 C 9,4 km/h (2 Bft) 100 %
10.08.2018 08:04 15,6 C 71 % 1019,4 hPa 0,0 l/m 4,2 km/h (1 Bft) SW 233 10,4 C 9,4 km/h (2 Bft) 100 %
10.08.2018 08:05 15,6 C 72 % 1019,4 hPa 0,0 l/m 2,9 km/h (1 Bft) W-NW 297 10,6 C 6,3 km/h (2 Bft) 100 %
10.08.2018 08:06 15,6 C 72 % 1019,4 hPa 0,0 l/m 3,0 km/h (1 Bft) W 279 10,6 C 9,4 km/h (2 Bft) 100 %
10.08.2018 08:07 15,6 C 72 % 1019,5 hPa 0,0 l/m 1,7 km/h (1 Bft) W 260 10,6 C 6,3 km/h (2 Bft) 100 %
10.08.2018 08:08 15,6 C 72 % 1019,5 hPa 0,0 l/m 1,2 km/h (1 Bft) W 271 10,6 C 6,3 km/h (2 Bft) 100 %
10.08.2018 08:09 15,6 C 72 % 1019,5 hPa 0,0 l/m 2,5 km/h (1 Bft) N-NO 27 10,6 C 3,1 km/h (1 Bft) 100 %
10.08.2018 08:10 15,7 C 72 % 1019,5 hPa 0,0 l/m 3,1 km/h (1 Bft) W-NW 297 10,7 C 9,4 km/h (2 Bft) 100 %
10.08.2018 08:11 15,7 C 71 % 1019,5 hPa 0,0 l/m 9,6 km/h (2 Bft) SW 230 10,5 C 15,7 km/h (3 Bft) 100 %
10.08.2018 08:12 15,8 C 70 % 1019,5 hPa 0,0 l/m 5,4 km/h (1 Bft) W-SW 254 10,3 C 12,6 km/h (3 Bft) 100 %
10.08.2018 08:13 15,8 C 70 % 1019,5 hPa 0,0 l/m 4,0 km/h (1 Bft) NW 311 10,3 C 12,6 km/h (3 Bft) 100 %
10.08.2018 08:14 15,9 C 70 % 1019,5 hPa 0,0 l/m 5,4 km/h (1 Bft) SW 229 10,4 C 9,4 km/h (2 Bft) 100 %
10.08.2018 08:15 15,9 C 71 % 1019,5 hPa 0,0 l/m 1,2 km/h (1 Bft) NW 309 10,6 C 3,1 km/h (1 Bft) 100 %
10.08.2018 08:16 15,9 C 70 % 1019,5 hPa 0,0 l/m 8,0 km/h (2 Bft) W 280 10,4 C 18,8 km/h (3 Bft) 100 %
10.08.2018 08:17 15,9 C 70 % 1019,5 hPa 0,0 l/m 4,1 km/h (1 Bft) W-SW 252 10,4 C 9,4 km/h (2 Bft) 100 %
10.08.2018 08:18 16,0 C 70 % 1019,5 hPa 0,0 l/m 0,3 km/h (0 Bft) NW 312 10,5 C 3,1 km/h (1 Bft) 100 %
10.08.2018 08:19 16,0 C 69 % 1019,5 hPa 0,0 l/m 9,9 km/h (2 Bft) S-SW 212 10,3 C 18,8 km/h (3 Bft) 100 %
10.08.2018 08:20 16,0 C 69 % 1019,6 hPa 0,0 l/m 5,2 km/h (1 Bft) W-SW 251 10,3 C 15,7 km/h (3 Bft) 100 %
10.08.2018 08:21 16,1 C 70 % 1019,6 hPa 0,0 l/m 7,1 km/h (2 Bft) W 260 10,6 C 12,6 km/h (3 Bft) 100 %
10.08.2018 08:22 16,1 C 69 % 1019,6 hPa 0,0 l/m 8,9 km/h (2 Bft) W-NW 286 10,4 C 12,6 km/h (3 Bft) 100 %
10.08.2018 08:23 16,1 C 69 % 1019,5 hPa 0,0 l/m 9,9 km/h (2 Bft) W-SW 257 10,4 C 18,8 km/h (3 Bft) 100 %
10.08.2018 08:24 16,1 C 69 % 1019,6 hPa 0,0 l/m 9,1 km/h (2 Bft) NW 310 10,4 C 15,7 km/h (3 Bft) 100 %
10.08.2018 08:25 16,1 C 69 % 1019,6 hPa 0,0 l/m 9,1 km/h (2 Bft) W 278 10,4 C 18,8 km/h (3 Bft) 100 %
10.08.2018 08:26 16,1 C 69 % 1019,5 hPa 0,0 l/m 9,9 km/h (2 Bft) NW 307 10,4 C 25,1 km/h (4 Bft) 100 %
10.08.2018 08:27 16,1 C 69 % 1019,6 hPa 0,0 l/m 14,1 km/h (3 Bft) SW 235 10,4 C 22,0 km/h (4 Bft) 100 %
10.08.2018 08:28 16,1 C 69 % 1019,6 hPa 0,0 l/m 7,2 km/h (2 Bft) NW 304 10,4 C 15,7 km/h (3 Bft) 100 %
10.08.2018 08:29 16,1 C 69 % 1019,6 hPa 0,0 l/m 9,3 km/h (2 Bft) SW 228 10,4 C 22,0 km/h (4 Bft) 100 %
10.08.2018 08:30 16,1 C 69 % 1019,7 hPa 0,0 l/m 7,5 km/h (2 Bft) SW 231 10,4 C 12,6 km/h (3 Bft) 100 %
10.08.2018 08:31 16,1 C 68 % 1019,7 hPa 0,0 l/m 13,5 km/h (3 Bft) W-SW 241 10,2 C 25,1 km/h (4 Bft) 100 %
10.08.2018 08:32 16,1 C 69 % 1019,7 hPa 0,0 l/m 5,9 km/h (2 Bft) W 260 10,4 C 12,6 km/h (3 Bft) 100 %
10.08.2018 08:33 16,0 C 68 % 1019,7 hPa 0,0 l/m 10,7 km/h (2 Bft) NW 307 10,1 C 15,7 km/h (3 Bft) 100 %
10.08.2018 08:34 16,0 C 68 % 1019,7 hPa 0,0 l/m 9,5 km/h (2 Bft) W 264 10,1 C 15,7 km/h (3 Bft) 100 %
10.08.2018 08:35 15,9 C 69 % 1019,7 hPa 0,0 l/m 8,2 km/h (2 Bft) W-NW 290 10,2 C 18,8 km/h (3 Bft) 100 %
10.08.2018 08:36 15,9 C 69 % 1019,7 hPa 0,0 l/m 7,8 km/h (2 Bft) W 271 10,2 C 18,8 km/h (3 Bft) 100 %
10.08.2018 08:37 15,9 C 69 % 1019,7 hPa 0,0 l/m 10,6 km/h (2 Bft) NW 314 10,2 C 18,8 km/h (3 Bft) 100 %
10.08.2018 08:38 15,9 C 69 % 1019,7 hPa 0,0 l/m 11,9 km/h (2 Bft) W 264 10,2 C 18,8 km/h (3 Bft) 100 %
10.08.2018 08:39 15,9 C 69 % 1019,7 hPa 0,0 l/m 12,9 km/h (3 Bft) W-SW 238 10,2 C 28,2 km/h (4 Bft) 100 %
10.08.2018 08:40 15,8 C 68 % 1019,7 hPa 0,0 l/m 11,4 km/h (2 Bft) W 280 9,9 C 18,8 km/h (3 Bft) 100 %
10.08.2018 08:41 15,8 C 68 % 1019,8 hPa 0,0 l/m 8,9 km/h (2 Bft) SW 219 9,9 C 18,8 km/h (3 Bft) 96 %
10.08.2018 08:42 15,8 C 68 % 1019,8 hPa 0,0 l/m 9,4 km/h (2 Bft) W-SW 253 9,9 C 22,0 km/h (4 Bft) 100 %
10.08.2018 08:43 15,9 C 69 % 1019,8 hPa 0,0 l/m 3,7 km/h (1 Bft) W-NW 296 10,2 C 9,4 km/h (2 Bft) 100 %
10.08.2018 08:44 15,9 C 68 % 1019,8 hPa 0,0 l/m 12,0 km/h (2 Bft) NW 309 10,0 C 22,0 km/h (4 Bft) 100 %
10.08.2018 08:45 15,9 C 69 % 1019,8 hPa 0,0 l/m 6,9 km/h (2 Bft) W-NW 291 10,2 C 12,6 km/h (3 Bft) 96 %
10.08.2018 08:46 15,9 C 69 % 1019,8 hPa 0,0 l/m 2,0 km/h (1 Bft) W 259 10,2 C 6,3 km/h (2 Bft) 100 %
10.08.2018 08:47 16,0 C 69 % 1019,8 hPa 0,0 l/m 4,1 km/h (1 Bft) W-NW 302 10,3 C 6,3 km/h (2 Bft) 96 %
10.08.2018 08:48 16,0 C 69 % 1019,8 hPa 0,0 l/m 6,8 km/h (2 Bft) W 275 10,3 C 12,6 km/h (3 Bft) 100 %
10.08.2018 08:49 16,1 C 69 % 1019,8 hPa 0,0 l/m 5,0 km/h (1 Bft) SW 214 10,4 C 9,4 km/h (2 Bft) 96 %
10.08.2018 08:50 16,1 C 69 % 1019,9 hPa 0,0 l/m 6,3 km/h (2 Bft) W-SW 240 10,4 C 12,6 km/h (3 Bft) 100 %
10.08.2018 08:51 16,1 C 68 % 1019,8 hPa 0,0 l/m 4,7 km/h (1 Bft) SW 228 10,2 C 12,6 km/h (3 Bft) 96 %
10.08.2018 08:52 16,1 C 69 % 1019,8 hPa 0,0 l/m 7,8 km/h (2 Bft) W-SW 253 10,4 C 12,6 km/h (3 Bft) 100 %
10.08.2018 08:53 16,2 C 69 % 1019,9 hPa 0,0 l/m 4,3 km/h (1 Bft) W-SW 237 10,5 C 6,3 km/h (2 Bft) 96 %
10.08.2018 08:54 16,2 C 69 % 1019,9 hPa 0,0 l/m 11,2 km/h (2 Bft) W-SW 241 10,5 C 28,2 km/h (4 Bft) 100 %
10.08.2018 08:55 16,2 C 68 % 1020,0 hPa 0,0 l/m 5,4 km/h (1 Bft) W 275 10,3 C 18,8 km/h (3 Bft) 100 %
10.08.2018 08:56 16,2 C 68 % 1020,0 hPa 0,0 l/m 5,1 km/h (1 Bft) SO 144 10,3 C 9,4 km/h (2 Bft) 100 %
10.08.2018 08:57 16,2 C 68 % 1020,0 hPa 0,0 l/m 10,5 km/h (2 Bft) W-SW 239 10,3 C 18,8 km/h (3 Bft) 100 %
10.08.2018 08:58 16,2 C 68 % 1020,0 hPa 0,0 l/m 12,9 km/h (3 Bft) NW 308 10,3 C 22,0 km/h (4 Bft) 100 %
10.08.2018 08:59 16,2 C 67 % 1020,1 hPa 0,0 l/m 13,2 km/h (3 Bft) S-SW 205 10,1 C 18,8 km/h (3 Bft) 100 %
10.08.2018 09:00 16,2 C 67 % 1020,1 hPa 0,0 l/m 5,2 km/h (1 Bft) W 278 10,1 C 18,8 km/h (3 Bft) 100 %
10.08.2018 09:01 16,2 C 67 % 1020,0 hPa 0,0 l/m 8,8 km/h (2 Bft) W-NW 302 10,1 C 15,7 km/h (3 Bft) 100 %
10.08.2018 09:02 16,1 C 67 % 1020,0 hPa 0,0 l/m 8,3 km/h (2 Bft) W-NW 294 10,0 C 12,6 km/h (3 Bft) 100 %
10.08.2018 09:03 16,1 C 68 % 1020,1 hPa 0,0 l/m 1,3 km/h (1 Bft) NW 309 10,2 C 6,3 km/h (2 Bft) 100 %
10.08.2018 09:04 16,1 C 68 % 1020,1 hPa 0,0 l/m 2,9 km/h (1 Bft) W-NW 283 10,2 C 15,7 km/h (3 Bft) 100 %
10.08.2018 09:05 16,1 C 68 % 1020,1 hPa 0,0 l/m 0,0 km/h (0 Bft) NW 323 10,2 C 0,0 km/h (0 Bft) 100 %
10.08.2018 09:06 16,1 C 68 % 1020,1 hPa 0,0 l/m 2,0 km/h (1 Bft) N 358 10,2 C 9,4 km/h (2 Bft) 100 %
10.08.2018 09:07 16,1 C 68 % 1020,1 hPa 0,0 l/m 4,6 km/h (1 Bft) W-NW 296 10,2 C 12,6 km/h (3 Bft) 96 %
10.08.2018 09:08 16,2 C 68 % 1020,1 hPa 0,0 l/m 2,6 km/h (1 Bft) W-NW 297 10,3 C 6,3 km/h (2 Bft) 100 %
10.08.2018 09:09 16,2 C 68 % 1020,1 hPa 0,0 l/m 2,8 km/h (1 Bft) W-SW 253 10,3 C 6,3 km/h (2 Bft) 100 %
10.08.2018 09:10 16,2 C 67 % 1020,1 hPa 0,0 l/m 12,7 km/h (3 Bft) SW 224 10,1 C 28,2 km/h (4 Bft) 100 %
10.08.2018 09:11 16,3 C 66 % 1020,1 hPa 0,0 l/m 7,7 km/h (2 Bft) W-SW 253 9,9 C 15,7 km/h (3 Bft) 100 %
10.08.2018 09:12 16,3 C 67 % 1020,1 hPa 0,0 l/m 5,0 km/h (1 Bft) SW 216 10,2 C 9,4 km/h (2 Bft) 100 %
10.08.2018 09:13 16,3 C 66 % 1020,2 hPa 0,0 l/m 13,5 km/h (3 Bft) NW 310 9,9 C 22,0 km/h (4 Bft) 100 %
10.08.2018 09:14 16,3 C 65 % 1020,1 hPa 0,0 l/m 12,7 km/h (3 Bft) W-NW 285 9,7 C 22,0 km/h (4 Bft) 100 %
10.08.2018 09:15 16,3 C 65 % 1020,1 hPa 0,0 l/m 14,0 km/h (3 Bft) W-NW 301 9,7 C 22,0 km/h (4 Bft) 100 %
10.08.2018 09:16 16,4 C 66 % 1020,2 hPa 0,0 l/m 7,2 km/h (2 Bft) W-SW 237 10,0 C 12,6 km/h (3 Bft) 100 %
10.08.2018 09:17 16,4 C 66 % 1020,2 hPa 0,0 l/m 4,6 km/h (1 Bft) NW 316 10,0 C 12,6 km/h (3 Bft) 100 %
10.08.2018 09:18 16,4 C 66 % 1020,2 hPa 0,0 l/m 13,8 km/h (3 Bft) W-NW 297 10,0 C 18,8 km/h (3 Bft) 100 %
10.08.2018 09:19 16,4 C 65 % 1020,2 hPa 0,0 l/m 11,5 km/h (2 Bft) SW 233 9,8 C 22,0 km/h (4 Bft) 100 %
10.08.2018 09:20 16,4 C 66 % 1020,2 hPa 0,0 l/m 2,4 km/h (1 Bft) NW 318 10,0 C 6,3 km/h (2 Bft) 100 %
10.08.2018 09:21 16,5 C 66 % 1020,2 hPa 0,0 l/m 6,3 km/h (2 Bft) W 276 10,1 C 15,7 km/h (3 Bft) 100 %
10.08.2018 09:22 16,5 C 66 % 1020,3 hPa 0,0 l/m 9,0 km/h (2 Bft) W-SW 248 10,1 C 15,7 km/h (3 Bft) 100 %
10.08.2018 09:23 16,6 C 65 % 1020,2 hPa 0,0 l/m 9,9 km/h (2 Bft) W-SW 237 10,0 C 18,8 km/h (3 Bft) 100 %
10.08.2018 09:24 16,6 C 65 % 1020,3 hPa 0,0 l/m 14,7 km/h (3 Bft) W 259 10,0 C 25,1 km/h (4 Bft) 100 %
10.08.2018 09:25 16,6 C 66 % 1020,4 hPa 0,0 l/m 4,3 km/h (1 Bft) NW 311 10,2 C 15,7 km/h (3 Bft) 100 %
10.08.2018 09:26 16,7 C 65 % 1020,4 hPa 0,0 l/m 6,9 km/h (2 Bft) NW 307 10,1 C 18,8 km/h (3 Bft) 100 %
10.08.2018 09:27 16,7 C 65 % 1020,4 hPa 0,0 l/m 10,1 km/h (2 Bft) NW 306 10,1 C 18,8 km/h (3 Bft) 100 %
10.08.2018 09:28 16,7 C 65 % 1020,3 hPa 0,0 l/m 11,9 km/h (2 Bft) W-NW 295 10,1 C 28,2 km/h (4 Bft) 100 %
10.08.2018 09:29 16,7 C 64 % 1020,3 hPa 0,0 l/m 11,8 km/h (2 Bft) W-SW 251 9,9 C 18,8 km/h (3 Bft) 100 %
10.08.2018 09:30 16,7 C 64 % 1020,4 hPa 0,0 l/m 9,0 km/h (2 Bft) NW 316 9,9 C 22,0 km/h (4 Bft) 100 %
10.08.2018 09:31 16,7 C 64 % 1020,4 hPa 0,0 l/m 7,7 km/h (2 Bft) S 173 9,9 C 9,4 km/h (2 Bft) 100 %
10.08.2018 09:32 16,7 C 64 % 1020,3 hPa 0,0 l/m 8,5 km/h (2 Bft) W 268 9,9 C 15,7 km/h (3 Bft) 100 %
10.08.2018 09:33 16,8 C 65 % 1020,4 hPa 0,0 l/m 11,6 km/h (2 Bft) W-NW 284 10,2 C 22,0 km/h (4 Bft) 100 %
10.08.2018 09:34 16,8 C 65 % 1020,3 hPa 0,0 l/m 6,0 km/h (2 Bft) W 262 10,2 C 9,4 km/h (2 Bft) 88 %
10.08.2018 09:35 16,8 C 65 % 1020,4 hPa 0,0 l/m 11,4 km/h (2 Bft) W-NW 295 10,2 C 28,2 km/h (4 Bft) 100 %
10.08.2018 09:36 16,7 C 64 % 1020,4 hPa 0,0 l/m 12,7 km/h (3 Bft) W-NW 295 9,9 C 31,4 km/h (5 Bft) 96 %
10.08.2018 09:37 16,7 C 64 % 1020,4 hPa 0,0 l/m 9,3 km/h (2 Bft) NW 305 9,9 C 22,0 km/h (4 Bft) 100 %
10.08.2018 09:38 16,7 C 64 % 1020,4 hPa 0,0 l/m 9,7 km/h (2 Bft) W-NW 289 9,9 C 15,7 km/h (3 Bft) 100 %
10.08.2018 09:39 16,7 C 65 % 1020,4 hPa 0,0 l/m 5,9 km/h (2 Bft) W-NW 302 10,1 C 9,4 km/h (2 Bft) 100 %
10.08.2018 09:40 16,8 C 64 % 1020,4 hPa 0,0 l/m 15,2 km/h (3 Bft) W 269 10,0 C 28,2 km/h (4 Bft) 100 %
10.08.2018 09:41 16,8 C 64 % 1020,4 hPa 0,0 l/m 8,4 km/h (2 Bft) SO 133 10,0 C 15,7 km/h (3 Bft) 96 %
10.08.2018 09:42 16,8 C 64 % 1020,5 hPa 0,0 l/m 5,0 km/h (1 Bft) NW 305 10,0 C 9,4 km/h (2 Bft) 100 %
10.08.2018 09:43 16,9 C 63 % 1020,4 hPa 0,0 l/m 7,4 km/h (2 Bft) NW 321 9,8 C 12,6 km/h (3 Bft) 96 %
10.08.2018 09:44 16,9 C 64 % 1020,5 hPa 0,0 l/m 6,7 km/h (2 Bft) N-NW 328 10,0 C 12,6 km/h (3 Bft) 100 %
10.08.2018 09:45 17,0 C 63 % 1020,4 hPa 0,0 l/m 7,1 km/h (2 Bft) W-NW 288 9,9 C 15,7 km/h (3 Bft) 96 %
10.08.2018 09:46 17,1 C 63 % 1020,4 hPa 0,0 l/m 7,2 km/h (2 Bft) W-NW 295 10,0 C 15,7 km/h (3 Bft) 96 %
10.08.2018 09:47 17,1 C 63 % 1020,4 hPa 0,0 l/m 7,6 km/h (2 Bft) W-SW 255 10,0 C 15,7 km/h (3 Bft) 100 %
10.08.2018 09:48 17,2 C 63 % 1020,4 hPa 0,0 l/m 6,6 km/h (2 Bft) W-NW 286 10,1 C 12,6 km/h (3 Bft) 96 %
10.08.2018 09:49 17,3 C 63 % 1020,4 hPa 0,0 l/m 5,0 km/h (1 Bft) W-NW 296 10,2 C 12,6 km/h (3 Bft) 100 %
10.08.2018 09:50 17,3 C 63 % 1020,4 hPa 0,0 l/m 3,8 km/h (1 Bft) NW 321 10,2 C 6,3 km/h (2 Bft) 100 %
10.08.2018 09:51 17,4 C 62 % 1020,4 hPa 0,0 l/m 5,6 km/h (1 Bft) N-NW 339 10,0 C 12,6 km/h (3 Bft) 100 %
10.08.2018 09:52 17,4 C 62 % 1020,4 hPa 0,0 l/m 4,7 km/h (1 Bft) W-NW 288 10,0 C 15,7 km/h (3 Bft) 100 %
10.08.2018 09:53 17,4 C 62 % 1020,4 hPa 0,0 l/m 7,6 km/h (2 Bft) NW 314 10,0 C 15,7 km/h (3 Bft) 100 %
10.08.2018 09:54 17,3 C 62 % 1020,4 hPa 0,0 l/m 8,8 km/h (2 Bft) W 272 9,9 C 22,0 km/h (4 Bft) 100 %
10.08.2018 09:55 17,3 C 63 % 1020,4 hPa 0,0 l/m 3,8 km/h (1 Bft) W-NW 302 10,2 C 9,4 km/h (2 Bft) 100 %
10.08.2018 09:56 17,3 C 63 % 1020,4 hPa 0,0 l/m 1,8 km/h (1 Bft) SW 222 10,2 C 6,3 km/h (2 Bft) 100 %
10.08.2018 09:57 17,3 C 63 % 1020,4 hPa 0,0 l/m 3,7 km/h (1 Bft) W 271 10,2 C 6,3 km/h (2 Bft) 100 %
10.08.2018 09:58 17,3 C 63 % 1020,4 hPa 0,0 l/m 9,0 km/h (2 Bft) W 263 10,2 C 15,7 km/h (3 Bft) 100 %
10.08.2018 09:59 17,2 C 62 % 1020,4 hPa 0,0 l/m 4,7 km/h (1 Bft) W-NW 297 9,9 C 6,3 km/h (2 Bft) 100 %
10.08.2018 10:00 17,2 C 62 % 1020,4 hPa 0,0 l/m 2,5 km/h (1 Bft) W-SW 252 9,9 C 6,3 km/h (2 Bft) 100 %
10.08.2018 10:01 17,2 C 62 % 1020,5 hPa 0,0 l/m 2,0 km/h (1 Bft) W-SW 249 9,9 C 3,1 km/h (1 Bft) 100 %
10.08.2018 10:02 17,2 C 63 % 1020,5 hPa 0,0 l/m 0,7 km/h (0 Bft) W-NW 300 10,1 C 3,1 km/h (1 Bft) 96 %
10.08.2018 10:03 17,2 C 63 % 1020,5 hPa 0,0 l/m 2,1 km/h (1 Bft) SW 228 10,1 C 6,3 km/h (2 Bft) 100 %
10.08.2018 10:04 17,2 C 62 % 1020,5 hPa 0,0 l/m 8,2 km/h (2 Bft) W-NW 302 9,9 C 15,7 km/h (3 Bft) 100 %
10.08.2018 10:05 17,2 C 61 % 1020,5 hPa 0,0 l/m 7,7 km/h (2 Bft) N 360 9,6 C 12,6 km/h (3 Bft) 100 %
10.08.2018 10:06 17,1 C 61 % 1020,6 hPa 0,0 l/m 6,9 km/h (2 Bft) SW 217 9,5 C 12,6 km/h (3 Bft) 100 %
10.08.2018 10:07 17,1 C 61 % 1020,6 hPa 0,0 l/m 4,7 km/h (1 Bft) W-SW 239 9,5 C 9,4 km/h (2 Bft) 100 %
10.08.2018 10:08 17,1 C 62 % 1020,6 hPa 0,0 l/m 4,1 km/h (1 Bft) W 274 9,8 C 9,4 km/h (2 Bft) 100 %
10.08.2018 10:09 17,1 C 62 % 1020,6 hPa 0,0 l/m 4,2 km/h (1 Bft) NW 305 9,8 C 12,6 km/h (3 Bft) 100 %
10.08.2018 10:10 17,2 C 62 % 1020,6 hPa 0,0 l/m 2,1 km/h (1 Bft) NW 306 9,9 C 6,3 km/h (2 Bft) 100 %
10.08.2018 10:11 17,2 C 62 % 1020,6 hPa 0,0 l/m 5,3 km/h (1 Bft) W-NW 287 9,9 C 15,7 km/h (3 Bft) 100 %
10.08.2018 10:12 17,2 C 63 % 1020,7 hPa 0,0 l/m 3,5 km/h (1 Bft) W-SW 250 10,1 C 9,4 km/h (2 Bft) 100 %
10.08.2018 10:13 17,2 C 62 % 1020,6 hPa 0,0 l/m 2,5 km/h (1 Bft) W 274 9,9 C 6,3 km/h (2 Bft) 100 %
10.08.2018 10:14 17,2 C 61 % 1020,6 hPa 0,0 l/m 7,5 km/h (2 Bft) SW 216 9,6 C 12,6 km/h (3 Bft) 100 %
10.08.2018 10:15 17,2 C 62 % 1020,6 hPa 0,0 l/m 4,7 km/h (1 Bft) SW 232 9,9 C 18,8 km/h (3 Bft) 100 %
10.08.2018 10:16 17,2 C 61 % 1020,6 hPa 0,0 l/m 5,6 km/h (1 Bft) SW 235 9,6 C 12,6 km/h (3 Bft) 100 %
10.08.2018 10:17 17,2 C 61 % 1020,6 hPa 0,0 l/m 8,4 km/h (2 Bft) W-NW 283 9,6 C 15,7 km/h (3 Bft) 100 %
10.08.2018 10:18 17,2 C 61 % 1020,7 hPa 0,0 l/m 5,2 km/h (1 Bft) SW 219 9,6 C 12,6 km/h (3 Bft) 100 %
10.08.2018 10:19 17,3 C 60 % 1020,6 hPa 0,0 l/m 10,8 km/h (2 Bft) W-NW 289 9,5 C 18,8 km/h (3 Bft) 100 %
10.08.2018 10:20 17,3 C 61 % 1020,6 hPa 0,0 l/m 2,9 km/h (1 Bft) S 181 9,7 C 12,6 km/h (3 Bft) 100 %
10.08.2018 10:21 17,3 C 60 % 1020,6 hPa 0,0 l/m 4,5 km/h (1 Bft) SW 231 9,5 C 9,4 km/h (2 Bft) 100 %
10.08.2018 10:22 17,3 C 60 % 1020,6 hPa 0,0 l/m 5,3 km/h (1 Bft) S-SW 210 9,5 C 9,4 km/h (2 Bft) 100 %
10.08.2018 10:23 17,3 C 61 % 1020,6 hPa 0,0 l/m 6,8 km/h (2 Bft) W-SW 250 9,7 C 12,6 km/h (3 Bft) 100 %
10.08.2018 10:24 17,3 C 60 % 1020,6 hPa 0,0 l/m 3,8 km/h (1 Bft) W 260 9,5 C 9,4 km/h (2 Bft) 100 %
10.08.2018 10:25 17,3 C 61 % 1020,6 hPa 0,0 l/m 0,6 km/h (0 Bft) W-SW 257 9,7 C 3,1 km/h (1 Bft) 100 %
10.08.2018 10:26 17,3 C 62 % 1020,6 hPa 0,0 l/m 0,8 km/h (0 Bft) S-SW 199 9,9 C 3,1 km/h (1 Bft) 100 %
10.08.2018 10:27 17,3 C 61 % 1020,6 hPa 0,0 l/m 0,1 km/h (0 Bft) SW 226 9,7 C 3,1 km/h (1 Bft) 100 %
10.08.2018 10:28 17,4 C 61 % 1020,6 hPa 0,0 l/m 1,0 km/h (0 Bft) SW 222 9,8 C 3,1 km/h (1 Bft) 100 %
10.08.2018 10:29 17,4 C 61 % 1020,6 hPa 0,0 l/m 3,1 km/h (1 Bft) S-SW 194 9,8 C 9,4 km/h (2 Bft) 100 %
10.08.2018 10:30 17,5 C 61 % 1020,6 hPa 0,0 l/m 5,4 km/h (1 Bft) SW 226 9,9 C 12,6 km/h (3 Bft) 93 %
10.08.2018 10:31 17,6 C 61 % 1020,6 hPa 0,0 l/m 1,3 km/h (1 Bft) W-SW 239 10,0 C 6,3 km/h (2 Bft) 100 %
10.08.2018 10:32 17,7 C 61 % 1020,6 hPa 0,0 l/m 0,1 km/h (0 Bft) W-SW 244 10,1 C 3,1 km/h (1 Bft) 96 %
10.08.2018 10:33 17,7 C 61 % 1020,6 hPa 0,0 l/m 8,0 km/h (2 Bft) SW 234 10,1 C 12,6 km/h (3 Bft) 100 %
10.08.2018 10:34 17,7 C 60 % 1020,6 hPa 0,0 l/m 3,6 km/h (1 Bft) SW 235 9,8 C 6,3 km/h (2 Bft) 100 %
10.08.2018 10:35 17,7 C 60 % 1020,7 hPa 0,0 l/m 6,0 km/h (2 Bft) W-SW 248 9,8 C 9,4 km/h (2 Bft) 96 %
10.08.2018 10:36 17,7 C 59 % 1020,7 hPa 0,0 l/m 7,0 km/h (2 Bft) NW 311 9,6 C 12,6 km/h (3 Bft) 100 %
10.08.2018 10:37 17,8 C 59 % 1020,6 hPa 0,0 l/m 2,4 km/h (1 Bft) W-SW 255 9,7 C 6,3 km/h (2 Bft) 97 %
10.08.2018 10:38 17,8 C 59 % 1020,7 hPa 0,0 l/m 4,2 km/h (1 Bft) W 265 9,7 C 6,3 km/h (2 Bft) 96 %
10.08.2018 10:39 17,8 C 59 % 1020,6 hPa 0,0 l/m 1,0 km/h (0 Bft) W-SW 240 9,7 C 3,1 km/h (1 Bft) 100 %
10.08.2018 10:40 17,9 C 60 % 1020,6 hPa 0,0 l/m 0,8 km/h (0 Bft) W 269 10,0 C 6,3 km/h (2 Bft) 96 %
10.08.2018 10:41 17,9 C 60 % 1020,6 hPa 0,0 l/m 0,4 km/h (0 Bft) W 270 10,0 C 3,1 km/h (1 Bft) 100 %
10.08.2018 10:42 17,9 C 60 % 1020,6 hPa 0,0 l/m 5,0 km/h (1 Bft) SW 220 10,0 C 9,4 km/h (2 Bft) 96 %
10.08.2018 10:43 18,1 C 59 % 1020,6 hPa 0,0 l/m 6,1 km/h (2 Bft) W-SW 238 10,0 C 12,6 km/h (3 Bft) 100 %
10.08.2018 10:44 18,1 C 59 % 1020,6 hPa 0,0 l/m 5,5 km/h (1 Bft) W-SW 240 10,0 C 9,4 km/h (2 Bft) 100 %
10.08.2018 10:45 18,2 C 60 % 1020,6 hPa 0,0 l/m 6,0 km/h (2 Bft) S-SW 199 10,3 C 9,4 km/h (2 Bft) 100 %
10.08.2018 10:46 18,2 C 59 % 1020,6 hPa 0,0 l/m 6,0 km/h (2 Bft) W 260 10,1 C 9,4 km/h (2 Bft) 100 %
10.08.2018 10:47 18,3 C 59 % 1020,6 hPa 0,0 l/m 0,4 km/h (0 Bft) W-SW 247 10,1 C 3,1 km/h (1 Bft) 100 %
10.08.2018 10:48 18,3 C 58 % 1020,6 hPa 0,0 l/m 1,4 km/h (1 Bft) SW 215 9,9 C 3,1 km/h (1 Bft) 100 %
10.08.2018 10:49 18,3 C 58 % 1020,6 hPa 0,0 l/m 1,2 km/h (1 Bft) W-SW 243 9,9 C 3,1 km/h (1 Bft) 100 %
10.08.2018 10:50 18,3 C 59 % 1020,7 hPa 0,0 l/m 0,8 km/h (0 Bft) SO 136 10,1 C 3,1 km/h (1 Bft) 100 %
10.08.2018 10:51 18,3 C 58 % 1020,7 hPa 0,0 l/m 3,4 km/h (1 Bft) NW 304 9,9 C 9,4 km/h (2 Bft) 96 %
10.08.2018 10:52 18,3 C 58 % 1020,7 hPa 0,0 l/m 11,3 km/h (2 Bft) SW 217 9,9 C 18,8 km/h (3 Bft) 100 %
10.08.2018 10:53 18,3 C 57 % 1020,7 hPa 0,0 l/m 4,3 km/h (1 Bft) S 191 9,6 C 9,4 km/h (2 Bft) 100 %
10.08.2018 10:54 18,3 C 57 % 1020,6 hPa 0,0 l/m 4,1 km/h (1 Bft) SW 218 9,6 C 9,4 km/h (2 Bft) 100 %
10.08.2018 10:55 18,3 C 57 % 1020,6 hPa 0,0 l/m 2,2 km/h (1 Bft) W 266 9,6 C 9,4 km/h (2 Bft) 100 %
10.08.2018 10:56 18,3 C 57 % 1020,6 hPa 0,0 l/m 6,1 km/h (2 Bft) W-NW 288 9,6 C 12,6 km/h (3 Bft) 100 %
10.08.2018 10:57 18,3 C 57 % 1020,6 hPa 0,0 l/m 1,1 km/h (1 Bft) SW 214 9,6 C 3,1 km/h (1 Bft) 100 %
10.08.2018 10:58 18,4 C 58 % 1020,7 hPa 0,0 l/m 0,8 km/h (0 Bft) W 262 10,0 C 9,4 km/h (2 Bft) 100 %
10.08.2018 10:59 18,4 C 58 % 1020,7 hPa 0,0 l/m 4,8 km/h (1 Bft) NW 304 10,0 C 9,4 km/h (2 Bft) 100 %
10.08.2018 11:00 18,5 C 56 % 1020,7 hPa 0,0 l/m 9,7 km/h (2 Bft) W-SW 239 9,6 C 18,8 km/h (3 Bft) 100 %
10.08.2018 11:01 18,6 C 56 % 1020,7 hPa 0,0 l/m 5,9 km/h (2 Bft) SW 235 9,6 C 12,6 km/h (3 Bft) 100 %
10.08.2018 11:02 18,6 C 56 % 1020,7 hPa 0,0 l/m 6,9 km/h (2 Bft) W 281 9,6 C 12,6 km/h (3 Bft) 100 %
10.08.2018 11:03 18,6 C 57 % 1020,7 hPa 0,0 l/m 6,8 km/h (2 Bft) W 271 9,9 C 18,8 km/h (3 Bft) 100 %
10.08.2018 11:04 18,7 C 57 % 1020,7 hPa 0,0 l/m 6,7 km/h (2 Bft) W 279 10,0 C 15,7 km/h (3 Bft) 100 %
10.08.2018 11:05 18,7 C 56 % 1020,8 hPa 0,0 l/m 7,5 km/h (2 Bft) SW 230 9,7 C 12,6 km/h (3 Bft) 100 %
10.08.2018 11:06 18,8 C 57 % 1020,7 hPa 0,0 l/m 4,6 km/h (1 Bft) N-NW 328 10,1 C 9,4 km/h (2 Bft) 100 %
10.08.2018 11:07 18,9 C 58 % 1020,7 hPa 0,0 l/m 0,8 km/h (0 Bft) NW 323 10,5 C 3,1 km/h (1 Bft) 100 %
10.08.2018 11:08 19,0 C 57 % 1020,6 hPa 0,0 l/m 2,2 km/h (1 Bft) W 259 10,3 C 6,3 km/h (2 Bft) 100 %
10.08.2018 11:09 19,2 C 57 % 1020,6 hPa 0,0 l/m 0,1 km/h (0 Bft) O 84 10,5 C 3,1 km/h (1 Bft) 100 %
10.08.2018 11:10 19,2 C 56 % 1020,7 hPa 0,0 l/m 2,0 km/h (1 Bft) W 280 10,2 C 3,1 km/h (1 Bft) 100 %
10.08.2018 11:11 19,3 C 56 % 1020,7 hPa 0,0 l/m 2,7 km/h (1 Bft) SW 226 10,3 C 12,6 km/h (3 Bft) 100 %
10.08.2018 11:12 19,4 C 54 % 1020,7 hPa 0,0 l/m 6,0 km/h (2 Bft) W-NW 298 9,8 C 15,7 km/h (3 Bft) 100 %
10.08.2018 11:13 19,4 C 53 % 1020,7 hPa 0,0 l/m 7,5 km/h (2 Bft) NW 311 9,6 C 12,6 km/h (3 Bft) 100 %
10.08.2018 11:14 19,3 C 54 % 1020,7 hPa 0,0 l/m 3,9 km/h (1 Bft) W-NW 293 9,8 C 9,4 km/h (2 Bft) 100 %
10.08.2018 11:15 19,3 C 53 % 1020,7 hPa 0,0 l/m 6,4 km/h (2 Bft) SW 231 9,5 C 9,4 km/h (2 Bft) 100 %
10.08.2018 11:16 19,2 C 53 % 1020,7 hPa 0,0 l/m 3,1 km/h (1 Bft) W-SW 244 9,4 C 6,3 km/h (2 Bft) 100 %
10.08.2018 11:17 19,2 C 55 % 1020,6 hPa 0,0 l/m 1,6 km/h (1 Bft) S-SO 159 9,9 C 6,3 km/h (2 Bft) 100 %
10.08.2018 11:18 19,2 C 55 % 1020,7 hPa 0,0 l/m 1,7 km/h (1 Bft) NW 309 9,9 C 6,3 km/h (2 Bft) 100 %
10.08.2018 11:19 19,3 C 55 % 1020,7 hPa 0,0 l/m 1,7 km/h (1 Bft) W-NW 291 10,0 C 6,3 km/h (2 Bft) 100 %
10.08.2018 11:20 19,4 C 55 % 1020,6 hPa 0,0 l/m 0,3 km/h (0 Bft) SW 231 10,1 C 3,1 km/h (1 Bft) 100 %
10.08.2018 11:21 19,4 C 55 % 1020,6 hPa 0,0 l/m 1,6 km/h (1 Bft) W 276 10,1 C 6,3 km/h (2 Bft) 100 %
10.08.2018 11:22 19,5 C 55 % 1020,7 hPa 0,0 l/m 8,6 km/h (2 Bft) NW 320 10,2 C 18,8 km/h (3 Bft) 100 %
10.08.2018 11:23 19,6 C 54 % 1020,6 hPa 0,0 l/m 4,2 km/h (1 Bft) NW 314 10,0 C 15,7 km/h (3 Bft) 100 %
10.08.2018 11:24 19,6 C 54 % 1020,7 hPa 0,0 l/m 6,5 km/h (2 Bft) NW 310 10,0 C 12,6 km/h (3 Bft) 96 %
10.08.2018 11:25 19,6 C 53 % 1020,6 hPa 0,0 l/m 0,7 km/h (0 Bft) W-NW 297 9,8 C 3,1 km/h (1 Bft) 92 %
10.08.2018 11:26 19,6 C 54 % 1020,7 hPa 0,0 l/m 6,9 km/h (2 Bft) NW 315 10,0 C 12,6 km/h (3 Bft) 100 %
10.08.2018 11:27 19,6 C 53 % 1020,7 hPa 0,0 l/m 3,9 km/h (1 Bft) W-NW 299 9,8 C 9,4 km/h (2 Bft) 100 %
10.08.2018 11:28 19,6 C 53 % 1020,7 hPa 0,0 l/m 5,2 km/h (1 Bft) W 274 9,8 C 18,8 km/h (3 Bft) 100 %
10.08.2018 11:29 19,6 C 53 % 1020,7 hPa 0,0 l/m 4,4 km/h (1 Bft) SW 219 9,8 C 12,6 km/h (3 Bft) 96 %
10.08.2018 11:30 19,6 C 53 % 1020,7 hPa 0,0 l/m 4,2 km/h (1 Bft) W 266 9,8 C 9,4 km/h (2 Bft) 96 %
10.08.2018 11:31 19,5 C 52 % 1020,7 hPa 0,0 l/m 6,7 km/h (2 Bft) S-SW 198 9,4 C 12,6 km/h (3 Bft) 100 %
10.08.2018 11:32 19,5 C 53 % 1020,7 hPa 0,0 l/m 6,8 km/h (2 Bft) W-SW 250 9,7 C 12,6 km/h (3 Bft) 96 %
10.08.2018 11:33 19,5 C 53 % 1020,7 hPa 0,0 l/m 3,7 km/h (1 Bft) W 261 9,7 C 6,3 km/h (2 Bft) 100 %
10.08.2018 11:34 19,6 C 54 % 1020,7 hPa 0,0 l/m 5,2 km/h (1 Bft) W 262 10,0 C 15,7 km/h (3 Bft) 91 %
10.08.2018 11:35 19,6 C 53 % 1020,8 hPa 0,0 l/m 8,1 km/h (2 Bft) W-NW 285 9,8 C 15,7 km/h (3 Bft) 100 %
10.08.2018 11:36 19,6 C 53 % 1020,7 hPa 0,0 l/m 7,8 km/h (2 Bft) NW 309 9,8 C 12,6 km/h (3 Bft) 93 %
10.08.2018 11:37 19,6 C 53 % 1020,7 hPa 0,0 l/m 6,9 km/h (2 Bft) NW 309 9,8 C 15,7 km/h (3 Bft) 100 %
10.08.2018 11:38 19,6 C 54 % 1020,7 hPa 0,0 l/m 11,9 km/h (2 Bft) W-NW 297 10,0 C 18,8 km/h (3 Bft) 100 %
10.08.2018 11:39 19,6 C 52 % 1020,7 hPa 0,0 l/m 11,3 km/h (2 Bft) W 274 9,5 C 18,8 km/h (3 Bft) 100 %
10.08.2018 11:40 19,5 C 53 % 1020,8 hPa 0,0 l/m 6,0 km/h (2 Bft) NW 304 9,7 C 12,6 km/h (3 Bft) 100 %
10.08.2018 11:41 19,4 C 52 % 1020,7 hPa 0,0 l/m 5,2 km/h (1 Bft) SW 218 9,3 C 12,6 km/h (3 Bft) 100 %
10.08.2018 11:42 19,4 C 53 % 1020,7 hPa 0,0 l/m 5,6 km/h (1 Bft) NW 309 9,6 C 12,6 km/h (3 Bft) 100 %
10.08.2018 11:43 19,3 C 53 % 1020,7 hPa 0,0 l/m 7,5 km/h (2 Bft) W-NW 282 9,5 C 22,0 km/h (4 Bft) 100 %
10.08.2018 11:44 19,2 C 54 % 1020,8 hPa 0,0 l/m 7,2 km/h (2 Bft) W-NW 295 9,7 C 12,6 km/h (3 Bft) 100 %
10.08.2018 11:45 19,2 C 53 % 1020,7 hPa 0,0 l/m 11,2 km/h (2 Bft) SW 224 9,4 C 15,7 km/h (3 Bft) 100 %
10.08.2018 11:46 19,1 C 53 % 1020,8 hPa 0,0 l/m 5,5 km/h (1 Bft) W-NW 285 9,3 C 9,4 km/h (2 Bft) 100 %
10.08.2018 11:47 19,0 C 55 % 1020,8 hPa 0,0 l/m 5,6 km/h (1 Bft) W-NW 297 9,8 C 12,6 km/h (3 Bft) 100 %
10.08.2018 11:48 18,9 C 54 % 1020,8 hPa 0,0 l/m 9,9 km/h (2 Bft) NW 309 9,4 C 15,7 km/h (3 Bft) 100 %
10.08.2018 11:49 18,9 C 55 % 1020,8 hPa 0,0 l/m 3,1 km/h (1 Bft) S-SW 205 9,7 C 9,4 km/h (2 Bft) 100 %
10.08.2018 11:50 18,9 C 54 % 1020,8 hPa 0,0 l/m 1,3 km/h (1 Bft) S-SW 202 9,4 C 6,3 km/h (2 Bft) 100 %
10.08.2018 11:51 18,9 C 57 % 1020,8 hPa 0,0 l/m 3,5 km/h (1 Bft) W 278 10,2 C 15,7 km/h (3 Bft) 100 %
10.08.2018 11:52 19,0 C 55 % 1020,8 hPa 0,0 l/m 6,5 km/h (2 Bft) W-SW 257 9,8 C 18,8 km/h (3 Bft) 100 %
10.08.2018 11:53 19,1 C 55 % 1020,7 hPa 0,0 l/m 3,6 km/h (1 Bft) W 268 9,8 C 12,6 km/h (3 Bft) 100 %
10.08.2018 11:54 19,2 C 56 % 1020,8 hPa 0,0 l/m 2,4 km/h (1 Bft) W-NW 295 10,2 C 6,3 km/h (2 Bft) 100 %
10.08.2018 11:55 19,3 C 54 % 1020,7 hPa 0,0 l/m 5,0 km/h (1 Bft) NW 314 9,8 C 12,6 km/h (3 Bft) 100 %
10.08.2018 11:56 19,3 C 54 % 1020,7 hPa 0,0 l/m 5,2 km/h (1 Bft) W 274 9,8 C 9,4 km/h (2 Bft) 100 %
10.08.2018 11:57 19,4 C 54 % 1020,7 hPa 0,0 l/m 8,3 km/h (2 Bft) W 260 9,8 C 15,7 km/h (3 Bft) 100 %
10.08.2018 11:58 19,4 C 54 % 1020,7 hPa 0,0 l/m 6,7 km/h (2 Bft) W 278 9,8 C 12,6 km/h (3 Bft) 100 %
10.08.2018 11:59 19,6 C 54 % 1020,7 hPa 0,0 l/m 8,5 km/h (2 Bft) NW 316 10,0 C 15,7 km/h (3 Bft) 100 %
10.08.2018 12:00 19,6 C 53 % 1020,6 hPa 0,0 l/m 8,2 km/h (2 Bft) W 272 9,8 C 12,6 km/h (3 Bft) 100 %
10.08.2018 12:01 19,7 C 52 % 1020,7 hPa 0,0 l/m 8,3 km/h (2 Bft) NW 324 9,6 C 12,6 km/h (3 Bft) 100 %
10.08.2018 12:02 19,7 C 51 % 1020,6 hPa 0,0 l/m 1,8 km/h (1 Bft) NW 304 9,3 C 12,6 km/h (3 Bft) 100 %
10.08.2018 12:03 19,7 C 52 % 1020,6 hPa 0,0 l/m 2,6 km/h (1 Bft) SW 219 9,6 C 9,4 km/h (2 Bft) 100 %
10.08.2018 12:04 19,7 C 52 % 1020,6 hPa 0,0 l/m 8,7 km/h (2 Bft) W-NW 297 9,6 C 12,6 km/h (3 Bft) 100 %
10.08.2018 12:05 19,7 C 53 % 1020,6 hPa 0,0 l/m 4,7 km/h (1 Bft) N-NW 327 9,8 C 12,6 km/h (3 Bft) 100 %
10.08.2018 12:06 19,7 C 55 % 1020,6 hPa 0,0 l/m 3,1 km/h (1 Bft) W-SW 258 10,4 C 6,3 km/h (2 Bft) 100 %
10.08.2018 12:07 19,8 C 53 % 1020,7 hPa 0,0 l/m 3,3 km/h (1 Bft) S-SW 202 9,9 C 9,4 km/h (2 Bft) 100 %
10.08.2018 12:08 19,8 C 54 % 1020,6 hPa 0,0 l/m 4,7 km/h (1 Bft) W 262 10,2 C 15,7 km/h (3 Bft) 100 %
10.08.2018 12:09 19,8 C 52 % 1020,6 hPa 0,0 l/m 4,4 km/h (1 Bft) W-SW 248 9,7 C 9,4 km/h (2 Bft) 100 %
10.08.2018 12:10 19,8 C 51 % 1020,6 hPa 0,0 l/m 8,4 km/h (2 Bft) NW 319 9,4 C 12,6 km/h (3 Bft) 99 %
10.08.2018 12:12 19,7 C 53 % 1020,6 hPa 0,0 l/m 6,5 km/h (2 Bft) NW 311 9,8 C 12,6 km/h (3 Bft) 100 %
10.08.2018 12:13 19,7 C 53 % 1020,6 hPa 0,0 l/m 6,9 km/h (2 Bft) NW 316 9,8 C 18,8 km/h (3 Bft) 100 %
10.08.2018 12:14 19,8 C 53 % 1020,6 hPa 0,0 l/m 5,2 km/h (1 Bft) NW 316 9,9 C 9,4 km/h (2 Bft) 100 %
10.08.2018 12:15 19,8 C 52 % 1020,6 hPa 0,0 l/m 6,6 km/h (2 Bft) W-NW 293 9,7 C 22,0 km/h (4 Bft) 100 %
10.08.2018 12:16 19,9 C 51 % 1020,6 hPa 0,0 l/m 7,4 km/h (2 Bft) W-NW 287 9,5 C 18,8 km/h (3 Bft) 100 %
10.08.2018 12:17 19,9 C 52 % 1020,6 hPa 0,0 l/m 3,9 km/h (1 Bft) W-NW 282 9,7 C 6,3 km/h (2 Bft) 96 %
10.08.2018 12:18 19,9 C 52 % 1020,6 hPa 0,0 l/m 9,9 km/h (2 Bft) S-SO 167 9,7 C 22,0 km/h (4 Bft) 100 %
10.08.2018 12:19 20,0 C 52 % 1020,6 hPa 0,0 l/m 6,6 km/h (2 Bft) W 262 9,8 C 12,6 km/h (3 Bft) 96 %
10.08.2018 12:20 20,1 C 51 % 1020,6 hPa 0,0 l/m 8,4 km/h (2 Bft) NW 317 9,6 C 12,6 km/h (3 Bft) 100 %
10.08.2018 12:21 20,2 C 52 % 1020,6 hPa 0,0 l/m 6,9 km/h (2 Bft) W 278 10,0 C 12,6 km/h (3 Bft) 96 %
10.08.2018 12:22 20,2 C 51 % 1020,6 hPa 0,0 l/m 7,5 km/h (2 Bft) W-NW 288 9,7 C 12,6 km/h (3 Bft) 92 %
10.08.2018 12:23 20,3 C 50 % 1020,6 hPa 0,0 l/m 7,1 km/h (2 Bft) NW 311 9,5 C 12,6 km/h (3 Bft) 100 %
10.08.2018 12:24 20,3 C 51 % 1020,6 hPa 0,0 l/m 8,7 km/h (2 Bft) S-SO 158 9,8 C 15,7 km/h (3 Bft) 100 %
10.08.2018 12:25 20,3 C 50 % 1020,7 hPa 0,0 l/m 13,0 km/h (3 Bft) SW 231 9,5 C 22,0 km/h (4 Bft) 96 %
10.08.2018 12:26 20,3 C 51 % 1020,7 hPa 0,0 l/m 5,2 km/h (1 Bft) W 264 9,8 C 9,4 km/h (2 Bft) 97 %
10.08.2018 12:27 20,4 C 51 % 1020,7 hPa 0,0 l/m 1,2 km/h (1 Bft) S-SW 193 9,9 C 6,3 km/h (2 Bft) 100 %
10.08.2018 12:28 20,6 C 52 % 1020,7 hPa 0,0 l/m 0,3 km/h (0 Bft) SW 232 10,4 C 3,1 km/h (1 Bft) 97 %
10.08.2018 12:29 20,6 C 50 % 1020,7 hPa 0,0 l/m 1,9 km/h (1 Bft) S-SW 211 9,8 C 6,3 km/h (2 Bft) 100 %
10.08.2018 12:30 20,7 C 51 % 1020,7 hPa 0,0 l/m 3,1 km/h (1 Bft) W 277 10,2 C 9,4 km/h (2 Bft) 100 %
10.08.2018 12:31 20,8 C 50 % 1020,6 hPa 0,0 l/m 0,3 km/h (0 Bft) SW 228 10,0 C 3,1 km/h (1 Bft) 100 %
10.08.2018 12:32 20,9 C 52 % 1020,6 hPa 0,0 l/m 1,7 km/h (1 Bft) W-SW 252 10,7 C 6,3 km/h (2 Bft) 100 %
10.08.2018 12:33 21,0 C 50 % 1020,6 hPa 0,0 l/m 2,1 km/h (1 Bft) W-SW 248 10,2 C 6,3 km/h (2 Bft) 100 %
10.08.2018 12:34 21,1 C 52 % 1020,6 hPa 0,0 l/m 0,6 km/h (0 Bft) NW 316 10,9 C 3,1 km/h (1 Bft) 100 %
10.08.2018 12:35 21,1 C 49 % 1020,6 hPa 0,0 l/m 3,4 km/h (1 Bft) W-NW 302 10,0 C 12,6 km/h (3 Bft) 100 %
10.08.2018 12:36 21,1 C 49 % 1020,5 hPa 0,0 l/m 7,6 km/h (2 Bft) W-SW 245 10,0 C 31,4 km/h (5 Bft) 100 %
10.08.2018 12:37 21,1 C 49 % 1020,5 hPa 0,0 l/m 11,1 km/h (2 Bft) W-NW 287 10,0 C 22,0 km/h (4 Bft) 100 %
10.08.2018 12:38 21,1 C 49 % 1020,6 hPa 0,0 l/m 4,9 km/h (1 Bft) W 281 10,0 C 12,6 km/h (3 Bft) 100 %
10.08.2018 12:39 21,1 C 49 % 1020,5 hPa 0,0 l/m 12,7 km/h (3 Bft) NW 310 10,0 C 18,8 km/h (3 Bft) 100 %
10.08.2018 12:40 21,1 C 49 % 1020,5 hPa 0,0 l/m 9,5 km/h (2 Bft) W 264 10,0 C 18,8 km/h (3 Bft) 100 %
10.08.2018 12:41 21,1 C 49 % 1020,6 hPa 0,0 l/m 11,6 km/h (2 Bft) W-SW 250 10,0 C 18,8 km/h (3 Bft) 100 %
10.08.2018 12:42 21,1 C 49 % 1020,6 hPa 0,0 l/m 8,7 km/h (2 Bft) W-SW 258 10,0 C 15,7 km/h (3 Bft) 100 %
10.08.2018 12:43 21,1 C 47 % 1020,6 hPa 0,0 l/m 5,6 km/h (1 Bft) W-NW 295 9,3 C 12,6 km/h (3 Bft) 100 %
10.08.2018 12:44 21,1 C 47 % 1020,6 hPa 0,0 l/m 6,1 km/h (2 Bft) W 268 9,3 C 12,6 km/h (3 Bft) 100 %
10.08.2018 12:45 21,2 C 48 % 1020,6 hPa 0,0 l/m 3,1 km/h (1 Bft) NW 321 9,7 C 6,3 km/h (2 Bft) 100 %
10.08.2018 12:46 21,2 C 46 % 1020,5 hPa 0,0 l/m 6,0 km/h (2 Bft) W-SW 238 9,1 C 9,4 km/h (2 Bft) 100 %
10.08.2018 12:47 21,3 C 47 % 1020,5 hPa 0,0 l/m 5,8 km/h (2 Bft) W-NW 295 9,5 C 15,7 km/h (3 Bft) 100 %
10.08.2018 12:48 21,4 C 45 % 1020,5 hPa 0,0 l/m 11,1 km/h (2 Bft) SW 233 9,0 C 18,8 km/h (3 Bft) 93 %
10.08.2018 12:49 21,4 C 45 % 1020,4 hPa 0,0 l/m 6,1 km/h (2 Bft) W 269 9,0 C 15,7 km/h (3 Bft) 100 %
10.08.2018 12:50 21,4 C 46 % 1020,4 hPa 0,0 l/m 9,8 km/h (2 Bft) NW 307 9,3 C 22,0 km/h (4 Bft) 100 %
10.08.2018 12:51 21,5 C 47 % 1020,4 hPa 0,0 l/m 8,3 km/h (2 Bft) W 279 9,7 C 15,7 km/h (3 Bft) 100 %
10.08.2018 12:52 21,6 C 46 % 1020,5 hPa 0,0 l/m 9,5 km/h (2 Bft) SW 214 9,5 C 15,7 km/h (3 Bft) 100 %
10.08.2018 12:53 21,6 C 46 % 1020,4 hPa 0,0 l/m 7,8 km/h (2 Bft) S-SW 212 9,5 C 15,7 km/h (3 Bft) 100 %
10.08.2018 12:54 21,6 C 46 % 1020,4 hPa 0,0 l/m 14,5 km/h (3 Bft) W 261 9,5 C 47,1 km/h (6 Bft) 100 %
10.08.2018 12:55 21,5 C 46 % 1020,4 hPa 0,0 l/m 12,7 km/h (3 Bft) NW 310 9,4 C 22,0 km/h (4 Bft) 100 %
10.08.2018 12:56 21,5 C 46 % 1020,4 hPa 0,0 l/m 9,7 km/h (2 Bft) SW 236 9,4 C 22,0 km/h (4 Bft) 100 %
10.08.2018 12:57 21,6 C 46 % 1020,5 hPa 0,0 l/m 15,2 km/h (3 Bft) NW 321 9,5 C 28,2 km/h (4 Bft) 100 %
10.08.2018 12:58 21,5 C 45 % 1020,5 hPa 0,0 l/m 10,8 km/h (2 Bft) W-NW 299 9,1 C 18,8 km/h (3 Bft) 100 %
10.08.2018 12:59 21,4 C 45 % 1020,4 hPa 0,0 l/m 12,6 km/h (3 Bft) W-NW 285 9,0 C 22,0 km/h (4 Bft) 100 %
10.08.2018 13:00 21,3 C 45 % 1020,4 hPa 0,0 l/m 15,2 km/h (3 Bft) W 265 8,9 C 25,1 km/h (4 Bft) 100 %
10.08.2018 13:01 21,2 C 46 % 1020,5 hPa 0,0 l/m 11,4 km/h (2 Bft) SW 234 9,1 C 18,8 km/h (3 Bft) 100 %
10.08.2018 13:02 21,1 C 45 % 1020,5 hPa 0,0 l/m 7,2 km/h (2 Bft) NW 311 8,7 C 15,7 km/h (3 Bft) 100 %
10.08.2018 13:03 21,0 C 45 % 1020,5 hPa 0,0 l/m 9,1 km/h (2 Bft) NW 319 8,6 C 15,7 km/h (3 Bft) 100 %
10.08.2018 13:04 20,9 C 45 % 1020,5 hPa 0,0 l/m 9,7 km/h (2 Bft) W-SW 257 8,5 C 15,7 km/h (3 Bft) 100 %
10.08.2018 13:05 20,8 C 45 % 1020,5 hPa 0,0 l/m 5,2 km/h (1 Bft) W-NW 295 8,4 C 9,4 km/h (2 Bft) 100 %
10.08.2018 13:06 20,8 C 45 % 1020,5 hPa 0,0 l/m 8,4 km/h (2 Bft) W-NW 287 8,4 C 12,6 km/h (3 Bft) 100 %
10.08.2018 13:07 20,7 C 46 % 1020,5 hPa 0,0 l/m 7,8 km/h (2 Bft) NW 305 8,7 C 12,6 km/h (3 Bft) 100 %
10.08.2018 13:08 20,8 C 47 % 1020,5 hPa 0,0 l/m 6,3 km/h (2 Bft) W-NW 285 9,1 C 9,4 km/h (2 Bft) 100 %
10.08.2018 13:09 20,8 C 45 % 1020,4 hPa 0,0 l/m 9,4 km/h (2 Bft) W-SW 252 8,4 C 15,7 km/h (3 Bft) 100 %
10.08.2018 13:10 20,9 C 47 % 1020,4 hPa 0,0 l/m 6,9 km/h (2 Bft) SW 217 9,2 C 15,7 km/h (3 Bft) 100 %
10.08.2018 13:11 20,9 C 44 % 1020,4 hPa 0,0 l/m 3,0 km/h (1 Bft) W 271 8,2 C 9,4 km/h (2 Bft) 100 %
10.08.2018 13:12 21,1 C 45 % 1020,4 hPa 0,0 l/m 4,6 km/h (1 Bft) W 272 8,7 C 9,4 km/h (2 Bft) 96 %
10.08.2018 13:13 21,1 C 45 % 1020,3 hPa 0,0 l/m 2,5 km/h (1 Bft) W-NW 283 8,7 C 9,4 km/h (2 Bft) 100 %
10.08.2018 13:14 21,2 C 44 % 1020,3 hPa 0,0 l/m 8,9 km/h (2 Bft) W-SW 248 8,5 C 15,7 km/h (3 Bft) 96 %
10.08.2018 13:15 21,3 C 43 % 1020,3 hPa 0,0 l/m 5,3 km/h (1 Bft) SW 222 8,2 C 12,6 km/h (3 Bft) 100 %
10.08.2018 13:16 21,3 C 42 % 1020,3 hPa 0,0 l/m 11,7 km/h (2 Bft) W-SW 244 7,9 C 31,4 km/h (5 Bft) 96 %
10.08.2018 13:17 21,4 C 44 % 1020,3 hPa 0,0 l/m 3,0 km/h (1 Bft) W-NW 290 8,6 C 9,4 km/h (2 Bft) 100 %
10.08.2018 13:18 21,6 C 44 % 1020,3 hPa 0,0 l/m 3,8 km/h (1 Bft) SW 235 8,8 C 9,4 km/h (2 Bft) 96 %
10.08.2018 13:19 21,8 C 43 % 1020,3 hPa 0,0 l/m 7,6 km/h (2 Bft) NW 307 8,7 C 18,8 km/h (3 Bft) 100 %
10.08.2018 13:20 21,8 C 42 % 1020,4 hPa 0,0 l/m 12,2 km/h (2 Bft) W-SW 246 8,3 C 18,8 km/h (3 Bft) 96 %
10.08.2018 13:21 21,9 C 42 % 1020,4 hPa 0,0 l/m 6,5 km/h (2 Bft) NW 314 8,4 C 12,6 km/h (3 Bft) 96 %
10.08.2018 13:22 22,1 C 43 % 1020,3 hPa 0,0 l/m 6,3 km/h (2 Bft) S 179 8,9 C 18,8 km/h (3 Bft) 100 %
10.08.2018 13:23 22,2 C 40 % 1020,3 hPa 0,0 l/m 8,1 km/h (2 Bft) W 259 8,0 C 18,8 km/h (3 Bft) 96 %
10.08.2018 13:24 22,2 C 40 % 1020,3 hPa 0,0 l/m 8,9 km/h (2 Bft) W-NW 288 8,0 C 15,7 km/h (3 Bft) 100 %
10.08.2018 13:25 22,3 C 41 % 1020,3 hPa 0,0 l/m 6,1 km/h (2 Bft) W-NW 303 8,4 C 12,6 km/h (3 Bft) 100 %
10.08.2018 13:26 22,4 C 41 % 1020,3 hPa 0,0 l/m 6,4 km/h (2 Bft) W-NW 294 8,5 C 12,6 km/h (3 Bft) 100 %
10.08.2018 13:27 22,4 C 40 % 1020,3 hPa 0,0 l/m 11,7 km/h (2 Bft) SW 214 8,1 C 18,8 km/h (3 Bft) 100 %
10.08.2018 13:28 22,5 C 41 % 1020,2 hPa 0,0 l/m 1,4 km/h (1 Bft) W-SW 252 8,6 C 6,3 km/h (2 Bft) 100 %
10.08.2018 13:29 22,6 C 41 % 1020,1 hPa 0,0 l/m 4,4 km/h (1 Bft) S 176 8,7 C 22,0 km/h (4 Bft) 100 %
10.08.2018 13:30 22,7 C 40 % 1020,1 hPa 0,0 l/m 9,7 km/h (2 Bft) S-SW 207 8,4 C 25,1 km/h (4 Bft) 100 %
10.08.2018 13:31 22,7 C 40 % 1020,2 hPa 0,0 l/m 7,6 km/h (2 Bft) W-SW 256 8,4 C 15,7 km/h (3 Bft) 100 %
10.08.2018 13:32 22,7 C 40 % 1020,1 hPa 0,0 l/m 11,9 km/h (2 Bft) S-SW 195 8,4 C 25,1 km/h (4 Bft) 100 %
10.08.2018 13:33 22,7 C 39 % 1020,1 hPa 0,0 l/m 12,8 km/h (3 Bft) W 276 8,0 C 25,1 km/h (4 Bft) 100 %
10.08.2018 13:34 22,7 C 39 % 1020,2 hPa 0,0 l/m 8,5 km/h (2 Bft) W-NW 297 8,0 C 15,7 km/h (3 Bft) 100 %
10.08.2018 13:35 22,6 C 39 % 1020,3 hPa 0,0 l/m 8,6 km/h (2 Bft) W 268 7,9 C 18,8 km/h (3 Bft) 100 %
10.08.2018 13:36 22,6 C 41 % 1020,2 hPa 0,0 l/m 4,7 km/h (1 Bft) SW 231 8,7 C 22,0 km/h (4 Bft) 100 %
10.08.2018 13:37 22,6 C 42 % 1020,2 hPa 0,0 l/m 3,8 km/h (1 Bft) S-SO 153 9,0 C 18,8 km/h (3 Bft) 100 %
10.08.2018 13:38 22,6 C 41 % 1020,2 hPa 0,0 l/m 9,4 km/h (2 Bft) W-SW 240 8,7 C 22,0 km/h (4 Bft) 100 %
10.08.2018 13:39 22,6 C 39 % 1020,3 hPa 0,0 l/m 10,0 km/h (2 Bft) S-SW 213 7,9 C 15,7 km/h (3 Bft) 100 %
10.08.2018 13:40 22,6 C 41 % 1020,2 hPa 0,0 l/m 6,4 km/h (2 Bft) W 268 8,7 C 12,6 km/h (3 Bft) 100 %
10.08.2018 13:41 22,6 C 42 % 1020,2 hPa 0,0 l/m 3,8 km/h (1 Bft) S-SW 209 9,0 C 9,4 km/h (2 Bft) 100 %
10.08.2018 13:42 22,7 C 42 % 1020,1 hPa 0,0 l/m 5,9 km/h (2 Bft) NW 314 9,1 C 15,7 km/h (3 Bft) 100 %
10.08.2018 13:43 22,6 C 40 % 1020,2 hPa 0,0 l/m 4,2 km/h (1 Bft) W-SW 244 8,3 C 9,4 km/h (2 Bft) 100 %
10.08.2018 13:44 22,5 C 41 % 1020,2 hPa 0,0 l/m 2,5 km/h (1 Bft) W-SW 240 8,6 C 9,4 km/h (2 Bft) 100 %
10.08.2018 13:45 22,4 C 41 % 1020,2 hPa 0,0 l/m 3,3 km/h (1 Bft) W-NW 293 8,5 C 9,4 km/h (2 Bft) 100 %
10.08.2018 13:46 22,3 C 41 % 1020,2 hPa 0,0 l/m 2,8 km/h (1 Bft) W-NW 294 8,4 C 9,4 km/h (2 Bft) 100 %
10.08.2018 13:47 22,2 C 41 % 1020,2 hPa 0,0 l/m 6,5 km/h (2 Bft) W 281 8,3 C 9,4 km/h (2 Bft) 100 %
10.08.2018 13:48 22,1 C 40 % 1020,2 hPa 0,0 l/m 5,3 km/h (1 Bft) W 270 7,9 C 12,6 km/h (3 Bft) 100 %
10.08.2018 13:49 22,1 C 41 % 1020,2 hPa 0,0 l/m 0,6 km/h (0 Bft) SW 214 8,2 C 3,1 km/h (1 Bft) 100 %
10.08.2018 13:50 22,0 C 41 % 1020,1 hPa 0,0 l/m 5,8 km/h (2 Bft) S-SW 212 8,1 C 9,4 km/h (2 Bft) 100 %
10.08.2018 13:51 22,0 C 41 % 1020,2 hPa 0,0 l/m 9,1 km/h (2 Bft) W-SW 246 8,1 C 12,6 km/h (3 Bft) 100 %
10.08.2018 13:52 22,0 C 43 % 1020,2 hPa 0,0 l/m 6,9 km/h (2 Bft) S-SW 200 8,8 C 9,4 km/h (2 Bft) 100 %
10.08.2018 13:53 22,1 C 42 % 1020,2 hPa 0,0 l/m 3,8 km/h (1 Bft) NO 55 8,6 C 9,4 km/h (2 Bft) 100 %
10.08.2018 13:54 22,2 C 43 % 1020,2 hPa 0,0 l/m 6,7 km/h (2 Bft) SW 219 9,0 C 12,6 km/h (3 Bft) 100 %
10.08.2018 13:55 22,3 C 44 % 1020,1 hPa 0,0 l/m 3,9 km/h (1 Bft) SW 236 9,5 C 12,6 km/h (3 Bft) 100 %
10.08.2018 13:56 22,4 C 42 % 1020,1 hPa 0,0 l/m 3,3 km/h (1 Bft) W 264 8,9 C 15,7 km/h (3 Bft) 100 %
10.08.2018 13:57 22,5 C 41 % 1020,1 hPa 0,0 l/m 7,5 km/h (2 Bft) S-SW 200 8,6 C 15,7 km/h (3 Bft) 100 %
10.08.2018 13:58 22,6 C 40 % 1020,1 hPa 0,0 l/m 4,6 km/h (1 Bft) W 261 8,3 C 12,6 km/h (3 Bft) 100 %
10.08.2018 13:59 22,6 C 41 % 1020,1 hPa 0,0 l/m 0,0 km/h (0 Bft) S-SW 200 8,7 C 0,0 km/h (0 Bft) 100 %
10.08.2018 14:00 22,7 C 41 % 1020,1 hPa 0,0 l/m 0,8 km/h (0 Bft) SW 214 8,8 C 3,1 km/h (1 Bft) 100 %
10.08.2018 14:01 22,7 C 40 % 1020,1 hPa 0,0 l/m 1,6 km/h (1 Bft) NO 49 8,4 C 3,1 km/h (1 Bft) 100 %
10.08.2018 14:02 22,8 C 41 % 1020,0 hPa 0,0 l/m 1,6 km/h (1 Bft) NW 326 8,9 C 6,3 km/h (2 Bft) 100 %
10.08.2018 14:03 22,9 C 42 % 1020,1 hPa 0,0 l/m 4,1 km/h (1 Bft) O-NO 62 9,3 C 12,6 km/h (3 Bft) 100 %
10.08.2018 14:04 23,1 C 42 % 1020,1 hPa 0,0 l/m 3,0 km/h (1 Bft) W-NW 286 9,5 C 22,0 km/h (4 Bft) 100 %
10.08.2018 14:05 23,2 C 42 % 1020,1 hPa 0,0 l/m 3,8 km/h (1 Bft) W-NW 295 9,6 C 9,4 km/h (2 Bft) 100 %
10.08.2018 14:06 23,3 C 42 % 1020,1 hPa 0,0 l/m 2,0 km/h (1 Bft) N-NO 19 9,7 C 6,3 km/h (2 Bft) 100 %
10.08.2018 14:07 23,4 C 46 % 1020,1 hPa 0,0 l/m 0,3 km/h (0 Bft) SW 226 11,1 C 3,1 km/h (1 Bft) 96 %
10.08.2018 14:08 23,5 C 46 % 1020,1 hPa 0,0 l/m 3,9 km/h (1 Bft) SW 236 11,2 C 12,6 km/h (3 Bft) 96 %
10.08.2018 14:09 23,6 C 39 % 1020,1 hPa 0,0 l/m 9,3 km/h (2 Bft) W-SW 253 8,8 C 18,8 km/h (3 Bft) 96 %
10.08.2018 14:10 23,6 C 38 % 1020,1 hPa 0,0 l/m 14,0 km/h (3 Bft) W 281 8,4 C 22,0 km/h (4 Bft) 100 %
10.08.2018 14:11 23,5 C 38 % 1020,1 hPa 0,0 l/m 7,8 km/h (2 Bft) S 169 8,4 C 12,6 km/h (3 Bft) 100 %
10.08.2018 14:12 23,4 C 38 % 1020,1 hPa 0,0 l/m 12,1 km/h (2 Bft) SW 221 8,3 C 25,1 km/h (4 Bft) 96 %
10.08.2018 14:13 23,3 C 38 % 1020,1 hPa 0,0 l/m 7,1 km/h (2 Bft) SW 222 8,2 C 18,8 km/h (3 Bft) 100 %
10.08.2018 14:14 23,3 C 37 % 1020,2 hPa 0,0 l/m 11,4 km/h (2 Bft) SW 233 7,8 C 25,1 km/h (4 Bft) 96 %
10.08.2018 14:15 23,2 C 38 % 1020,1 hPa 0,0 l/m 9,6 km/h (2 Bft) S 186 8,1 C 18,8 km/h (3 Bft) 96 %
10.08.2018 14:16 23,2 C 38 % 1020,1 hPa 0,0 l/m 4,6 km/h (1 Bft) W 279 8,1 C 12,6 km/h (3 Bft) 100 %
10.08.2018 14:17 23,1 C 40 % 1020,1 hPa 0,0 l/m 4,2 km/h (1 Bft) W-SW 252 8,8 C 18,8 km/h (3 Bft) 96 %
10.08.2018 14:18 22,9 C 38 % 1020,1 hPa 0,0 l/m 6,3 km/h (2 Bft) SW 232 7,8 C 18,8 km/h (3 Bft) 100 %
10.08.2018 14:19 22,8 C 39 % 1020,1 hPa 0,0 l/m 5,0 km/h (1 Bft) O 94 8,1 C 15,7 km/h (3 Bft) 96 %
10.08.2018 14:20 22,7 C 38 % 1020,3 hPa 0,0 l/m 6,1 km/h (2 Bft) SW 226 7,6 C 12,6 km/h (3 Bft) 100 %
10.08.2018 14:21 22,6 C 40 % 1020,2 hPa 0,0 l/m 5,8 km/h (2 Bft) NW 308 8,3 C 12,6 km/h (3 Bft) 100 %
10.08.2018 14:22 22,5 C 39 % 1020,1 hPa 0,0 l/m 3,8 km/h (1 Bft) SW 217 7,8 C 9,4 km/h (2 Bft) 100 %
10.08.2018 14:23 22,4 C 39 % 1020,1 hPa 0,0 l/m 4,2 km/h (1 Bft) N-NW 343 7,8 C 9,4 km/h (2 Bft) 100 %
10.08.2018 14:24 22,3 C 39 % 1020,0 hPa 0,0 l/m 5,6 km/h (1 Bft) SW 221 7,7 C 15,7 km/h (3 Bft) 100 %
10.08.2018 14:25 22,2 C 40 % 1020,0 hPa 0,0 l/m 5,3 km/h (1 Bft) W-NW 297 8,0 C 9,4 km/h (2 Bft) 100 %
10.08.2018 14:26 22,1 C 40 % 1020,0 hPa 0,0 l/m 8,6 km/h (2 Bft) W 276 7,9 C 15,7 km/h (3 Bft) 100 %
10.08.2018 14:27 22,0 C 39 % 1020,1 hPa 0,0 l/m 1,8 km/h (1 Bft) O 84 7,4 C 3,1 km/h (1 Bft) 100 %
10.08.2018 14:28 21,9 C 41 % 1020,0 hPa 0,0 l/m 5,2 km/h (1 Bft) SW 225 8,0 C 15,7 km/h (3 Bft) 100 %
10.08.2018 14:29 21,9 C 40 % 1020,0 hPa 0,0 l/m 1,3 km/h (1 Bft) S-SW 195 7,7 C 3,1 km/h (1 Bft) 100 %
10.08.2018 14:30 21,9 C 41 % 1020,0 hPa 0,0 l/m 4,9 km/h (1 Bft) SW 226 8,0 C 12,6 km/h (3 Bft) 100 %
10.08.2018 14:31 22,0 C 40 % 1020,1 hPa 0,0 l/m 5,4 km/h (1 Bft) W 259 7,8 C 12,6 km/h (3 Bft) 100 %
10.08.2018 14:32 22,1 C 41 % 1020,0 hPa 0,0 l/m 0,9 km/h (0 Bft) NW 321 8,2 C 3,1 km/h (1 Bft) 100 %
10.08.2018 14:33 22,1 C 42 % 1020,0 hPa 0,0 l/m 1,6 km/h (1 Bft) SW 232 8,6 C 3,1 km/h (1 Bft) 100 %
10.08.2018 14:34 22,2 C 40 % 1020,0 hPa 0,0 l/m 0,0 km/h (0 Bft) W-SW 245 8,0 C 0,0 km/h (0 Bft) 100 %
10.08.2018 14:35 22,3 C 41 % 1020,0 hPa 0,0 l/m 0,1 km/h (0 Bft) W-SW 245 8,4 C 3,1 km/h (1 Bft) 100 %
10.08.2018 14:36 22,3 C 40 % 1020,0 hPa 0,0 l/m 2,4 km/h (1 Bft) SW 232 8,0 C 9,4 km/h (2 Bft) 100 %
10.08.2018 14:37 22,4 C 40 % 1020,1 hPa 0,0 l/m 1,8 km/h (1 Bft) W-SW 258 8,1 C 6,3 km/h (2 Bft) 100 %
10.08.2018 14:38 22,4 C 40 % 1020,0 hPa 0,0 l/m 6,1 km/h (2 Bft) SW 220 8,1 C 15,7 km/h (3 Bft) 100 %
10.08.2018 14:39 22,3 C 38 % 1020,0 hPa 0,0 l/m 8,4 km/h (2 Bft) W-SW 257 7,3 C 15,7 km/h (3 Bft) 100 %
10.08.2018 14:40 22,3 C 39 % 1020,0 hPa 0,0 l/m 5,0 km/h (1 Bft) W-SW 256 7,7 C 9,4 km/h (2 Bft) 100 %
10.08.2018 14:41 22,4 C 39 % 1020,0 hPa 0,0 l/m 8,8 km/h (2 Bft) NW 319 7,8 C 12,6 km/h (3 Bft) 100 %
10.08.2018 14:42 22,4 C 39 % 1020,1 hPa 0,0 l/m 6,3 km/h (2 Bft) N-NW 344 7,8 C 12,6 km/h (3 Bft) 100 %
10.08.2018 14:43 22,5 C 38 % 1020,1 hPa 0,0 l/m 6,8 km/h (2 Bft) W-NW 286 7,5 C 15,7 km/h (3 Bft) 100 %
10.08.2018 14:44 22,6 C 36 % 1020,0 hPa 0,0 l/m 14,3 km/h (3 Bft) S 172 6,8 C 25,1 km/h (4 Bft) 100 %
10.08.2018 14:45 22,6 C 39 % 1020,0 hPa 0,0 l/m 5,1 km/h (1 Bft) S-SO 157 7,9 C 9,4 km/h (2 Bft) 100 %
10.08.2018 14:46 22,6 C 37 % 1019,9 hPa 0,0 l/m 5,6 km/h (1 Bft) NW 323 7,2 C 6,3 km/h (2 Bft) 100 %
10.08.2018 14:47 22,5 C 37 % 1020,0 hPa 0,0 l/m 11,2 km/h (2 Bft) NW 311 7,1 C 22,0 km/h (4 Bft) 100 %
10.08.2018 14:48 22,4 C 37 % 1020,0 hPa 0,0 l/m 6,0 km/h (2 Bft) SW 226 7,0 C 15,7 km/h (3 Bft) 100 %
10.08.2018 14:49 22,3 C 37 % 1020,0 hPa 0,0 l/m 7,7 km/h (2 Bft) N-NW 327 6,9 C 18,8 km/h (3 Bft) 100 %
10.08.2018 14:50 22,3 C 37 % 1020,0 hPa 0,0 l/m 9,0 km/h (2 Bft) SW 220 6,9 C 15,7 km/h (3 Bft) 100 %
10.08.2018 14:51 22,3 C 36 % 1020,1 hPa 0,0 l/m 9,5 km/h (2 Bft) W-SW 258 6,5 C 15,7 km/h (3 Bft) 100 %
10.08.2018 14:52 22,3 C 37 % 1020,1 hPa 0,0 l/m 2,1 km/h (1 Bft) W-NW 292 6,9 C 6,3 km/h (2 Bft) 100 %
10.08.2018 14:53 22,3 C 37 % 1020,1 hPa 0,0 l/m 7,3 km/h (2 Bft) SW 230 6,9 C 12,6 km/h (3 Bft) 100 %
10.08.2018 14:54 22,2 C 37 % 1020,0 hPa 0,0 l/m 9,2 km/h (2 Bft) SW 231 6,8 C 18,8 km/h (3 Bft) 100 %
10.08.2018 14:55 22,2 C 38 % 1020,1 hPa 0,0 l/m 5,2 km/h (1 Bft) W 259 7,2 C 12,6 km/h (3 Bft) 100 %
10.08.2018 14:56 22,2 C 37 % 1020,0 hPa 0,0 l/m 7,7 km/h (2 Bft) SW 235 6,8 C 15,7 km/h (3 Bft) 100 %
10.08.2018 14:57 22,2 C 38 % 1020,0 hPa 0,0 l/m 9,7 km/h (2 Bft) W 264 7,2 C 18,8 km/h (3 Bft) 100 %
10.08.2018 14:58 22,3 C 37 % 1020,1 hPa 0,0 l/m 4,9 km/h (1 Bft) SW 218 6,9 C 12,6 km/h (3 Bft) 100 %
10.08.2018 14:59 22,4 C 38 % 1020,1 hPa 0,0 l/m 9,2 km/h (2 Bft) NW 304 7,4 C 22,0 km/h (4 Bft) 100 %
10.08.2018 15:00 22,5 C 37 % 1020,0 hPa 0,0 l/m 9,3 km/h (2 Bft) W 281 7,1 C 22,0 km/h (4 Bft) 96 %
10.08.2018 15:01 22,6 C 36 % 1020,0 hPa 0,0 l/m 5,0 km/h (1 Bft) W-SW 242 6,8 C 9,4 km/h (2 Bft) 100 %
10.08.2018 15:02 22,6 C 35 % 1020,0 hPa 0,0 l/m 6,5 km/h (2 Bft) W-NW 292 6,4 C 12,6 km/h (3 Bft) 100 %
10.08.2018 15:03 22,5 C 36 % 1020,1 hPa 0,0 l/m 1,6 km/h (1 Bft) NW 317 6,7 C 3,1 km/h (1 Bft) 100 %
10.08.2018 15:04 22,4 C 38 % 1020,0 hPa 0,0 l/m 0,0 km/h (0 Bft) W 267 7,4 C 0,0 km/h (0 Bft) 100 %
10.08.2018 15:05 22,4 C 36 % 1020,0 hPa 0,0 l/m 3,8 km/h (1 Bft) W-SW 238 6,6 C 12,6 km/h (3 Bft) 96 %
10.08.2018 15:06 22,4 C 36 % 1020,0 hPa 0,0 l/m 0,0 km/h (0 Bft) W 281 6,6 C 0,0 km/h (0 Bft) 100 %
10.08.2018 15:07 22,4 C 37 % 1020,0 hPa 0,0 l/m 4,1 km/h (1 Bft) W-SW 253 7,0 C 12,6 km/h (3 Bft) 96 %
10.08.2018 15:08 22,5 C 39 % 1020,0 hPa 0,0 l/m 1,2 km/h (1 Bft) SW 222 7,8 C 3,1 km/h (1 Bft) 100 %
10.08.2018 15:09 22,6 C 39 % 1020,0 hPa 0,0 l/m 6,8 km/h (2 Bft) SW 224 7,9 C 12,6 km/h (3 Bft) 96 %
10.08.2018 15:10 22,7 C 38 % 1020,0 hPa 0,0 l/m 3,1 km/h (1 Bft) O-SO 115 7,6 C 6,3 km/h (2 Bft) 100 %
10.08.2018 15:11 22,8 C 37 % 1020,0 hPa 0,0 l/m 2,8 km/h (1 Bft) N-NW 343 7,3 C 6,3 km/h (2 Bft) 96 %
10.08.2018 15:12 23,0 C 37 % 1019,9 hPa 0,0 l/m 4,8 km/h (1 Bft) W-SW 253 7,5 C 9,4 km/h (2 Bft) 100 %
10.08.2018 15:13 23,1 C 35 % 1019,9 hPa 0,0 l/m 7,4 km/h (2 Bft) S 180 6,8 C 18,8 km/h (3 Bft) 96 %
10.08.2018 15:14 23,1 C 35 % 1019,9 hPa 0,0 l/m 2,6 km/h (1 Bft) SO 135 6,8 C 9,4 km/h (2 Bft) 96 %
10.08.2018 15:15 23,1 C 36 % 1019,9 hPa 0,0 l/m 3,9 km/h (1 Bft) N-NW 333 7,2 C 15,7 km/h (3 Bft) 100 %
10.08.2018 15:16 23,1 C 36 % 1019,9 hPa 0,0 l/m 9,4 km/h (2 Bft) N 356 7,2 C 25,1 km/h (4 Bft) 100 %
10.08.2018 15:17 23,1 C 37 % 1019,9 hPa 0,0 l/m 4,1 km/h (1 Bft) N 353 7,6 C 9,4 km/h (2 Bft) 100 %
10.08.2018 15:18 23,1 C 38 % 1019,9 hPa 0,0 l/m 2,5 km/h (1 Bft) NO 44 8,0 C 6,3 km/h (2 Bft) 100 %
10.08.2018 15:19 23,2 C 37 % 1020,0 hPa 0,0 l/m 3,5 km/h (1 Bft) N-NW 337 7,7 C 9,4 km/h (2 Bft) 100 %
10.08.2018 15:20 23,3 C 36 % 1020,0 hPa 0,0 l/m 2,4 km/h (1 Bft) N-NO 24 7,4 C 6,3 km/h (2 Bft) 100 %
10.08.2018 15:21 23,4 C 37 % 1019,9 hPa 0,0 l/m 2,1 km/h (1 Bft) NO 54 7,9 C 3,1 km/h (1 Bft) 100 %
10.08.2018 15:22 23,5 C 37 % 1019,9 hPa 0,0 l/m 4,4 km/h (1 Bft) SW 236 8,0 C 12,6 km/h (3 Bft) 100 %
10.08.2018 15:23 23,6 C 36 % 1019,9 hPa 0,0 l/m 6,0 km/h (2 Bft) S 178 7,6 C 22,0 km/h (4 Bft) 100 %
10.08.2018 15:24 23,7 C 35 % 1019,8 hPa 0,0 l/m 9,9 km/h (2 Bft) NO 44 7,3 C 31,4 km/h (5 Bft) 100 %
10.08.2018 15:25 23,8 C 35 % 1019,9 hPa 0,0 l/m 1,6 km/h (1 Bft) N-NO 14 7,4 C 6,3 km/h (2 Bft) 100 %
10.08.2018 15:26 23,8 C 35 % 1019,9 hPa 0,0 l/m 3,5 km/h (1 Bft) W-NW 298 7,4 C 9,4 km/h (2 Bft) 100 %
10.08.2018 15:27 23,8 C 34 % 1019,8 hPa 0,0 l/m 7,6 km/h (2 Bft) S-SO 168 7,0 C 12,6 km/h (3 Bft) 100 %
10.08.2018 15:28 23,8 C 35 % 1019,9 hPa 0,0 l/m 3,0 km/h (1 Bft) SW 231 7,4 C 9,4 km/h (2 Bft) 100 %
10.08.2018 15:29 23,7 C 36 % 1019,9 hPa 0,0 l/m 2,9 km/h (1 Bft) W-NW 286 7,7 C 12,6 km/h (3 Bft) 100 %
10.08.2018 15:30 23,6 C 36 % 1019,9 hPa 0,0 l/m 10,3 km/h (2 Bft) W 273 7,6 C 25,1 km/h (4 Bft) 100 %
10.08.2018 15:31 23,4 C 34 % 1019,9 hPa 0,0 l/m 6,8 km/h (2 Bft) W-SW 240 6,6 C 18,8 km/h (3 Bft) 100 %
10.08.2018 15:32 23,3 C 35 % 1019,9 hPa 0,0 l/m 6,1 km/h (2 Bft) W-SW 245 7,0 C 18,8 km/h (3 Bft) 100 %
10.08.2018 15:33 23,1 C 34 % 1019,9 hPa 0,0 l/m 4,4 km/h (1 Bft) W-SW 250 6,4 C 18,8 km/h (3 Bft) 100 %
10.08.2018 15:34 22,9 C 35 % 1019,9 hPa 0,0 l/m 5,6 km/h (1 Bft) N-NW 330 6,6 C 12,6 km/h (3 Bft) 100 %
10.08.2018 15:35 22,8 C 35 % 1019,9 hPa 0,0 l/m 3,4 km/h (1 Bft) W-SW 244 6,5 C 9,4 km/h (2 Bft) 100 %
10.08.2018 15:36 22,7 C 36 % 1019,9 hPa 0,0 l/m 4,4 km/h (1 Bft) W-NW 285 6,9 C 9,4 km/h (2 Bft) 100 %
10.08.2018 15:37 22,7 C 37 % 1020,0 hPa 0,0 l/m 6,5 km/h (2 Bft) W-NW 300 7,3 C 12,6 km/h (3 Bft) 100 %
10.08.2018 15:38 22,6 C 35 % 1020,0 hPa 0,0 l/m 8,0 km/h (2 Bft) W 281 6,4 C 15,7 km/h (3 Bft) 100 %
10.08.2018 15:39 22,6 C 36 % 1019,9 hPa 0,0 l/m 6,4 km/h (2 Bft) N 349 6,8 C 15,7 km/h (3 Bft) 100 %
10.08.2018 15:40 22,6 C 37 % 1019,9 hPa 0,0 l/m 0,7 km/h (0 Bft) W-SW 251 7,2 C 3,1 km/h (1 Bft) 100 %
10.08.2018 15:41 22,7 C 36 % 1019,9 hPa 0,0 l/m 8,8 km/h (2 Bft) NW 325 6,9 C 22,0 km/h (4 Bft) 100 %
10.08.2018 15:42 22,8 C 36 % 1019,9 hPa 0,0 l/m 6,0 km/h (2 Bft) W 268 6,9 C 15,7 km/h (3 Bft) 100 %
10.08.2018 15:43 22,9 C 37 % 1019,9 hPa 0,0 l/m 0,9 km/h (0 Bft) S 174 7,4 C 3,1 km/h (1 Bft) 100 %
10.08.2018 15:44 23,1 C 36 % 1019,9 hPa 0,0 l/m 4,8 km/h (1 Bft) O-SO 111 7,2 C 9,4 km/h (2 Bft) 100 %
10.08.2018 15:45 23,2 C 38 % 1019,8 hPa 0,0 l/m 3,9 km/h (1 Bft) SW 220 8,1 C 18,8 km/h (3 Bft) 100 %
10.08.2018 15:46 23,3 C 35 % 1019,9 hPa 0,0 l/m 12,8 km/h (3 Bft) W-NW 302 7,0 C 25,1 km/h (4 Bft) 100 %
10.08.2018 15:47 23,3 C 34 % 1019,7 hPa 0,0 l/m 9,2 km/h (2 Bft) SW 226 6,6 C 15,7 km/h (3 Bft) 100 %
10.08.2018 15:48 23,3 C 35 % 1019,8 hPa 0,0 l/m 4,3 km/h (1 Bft) SW 224 7,0 C 15,7 km/h (3 Bft) 100 %
10.08.2018 15:49 23,3 C 36 % 1019,8 hPa 0,0 l/m 7,8 km/h (2 Bft) SW 221 7,4 C 22,0 km/h (4 Bft) 100 %
10.08.2018 15:50 23,4 C 35 % 1019,7 hPa 0,0 l/m 8,2 km/h (2 Bft) W-SW 238 7,1 C 12,6 km/h (3 Bft) 100 %
10.08.2018 15:51 23,4 C 35 % 1019,7 hPa 0,0 l/m 8,2 km/h (2 Bft) N-NW 328 7,1 C 18,8 km/h (3 Bft) 100 %
10.08.2018 15:52 23,4 C 34 % 1019,8 hPa 0,0 l/m 5,8 km/h (2 Bft) SW 233 6,6 C 15,7 km/h (3 Bft) 100 %
10.08.2018 15:53 23,3 C 34 % 1019,8 hPa 0,0 l/m 9,4 km/h (2 Bft) O 79 6,6 C 18,8 km/h (3 Bft) 100 %
10.08.2018 15:54 23,2 C 34 % 1019,8 hPa 0,0 l/m 12,8 km/h (3 Bft) SW 231 6,5 C 25,1 km/h (4 Bft) 100 %
10.08.2018 15:55 23,1 C 34 % 1019,8 hPa 0,0 l/m 9,3 km/h (2 Bft) W-NW 296 6,4 C 18,8 km/h (3 Bft) 100 %
10.08.2018 15:56 23,0 C 33 % 1019,9 hPa 0,0 l/m 10,0 km/h (2 Bft) SW 236 5,9 C 22,0 km/h (4 Bft) 96 %
10.08.2018 15:57 22,8 C 32 % 1019,9 hPa 0,0 l/m 6,4 km/h (2 Bft) S-SO 151 5,2 C 12,6 km/h (3 Bft) 92 %
10.08.2018 15:58 22,8 C 33 % 1019,8 hPa 0,0 l/m 10,6 km/h (2 Bft) W 267 5,7 C 25,1 km/h (4 Bft) 96 %
10.08.2018 15:59 22,7 C 33 % 1019,8 hPa 0,0 l/m 11,0 km/h (2 Bft) W 262 5,6 C 31,4 km/h (5 Bft) 100 %
10.08.2018 16:00 22,7 C 34 % 1019,8 hPa 0,0 l/m 10,9 km/h (2 Bft) W 278 6,0 C 28,2 km/h (4 Bft) 100 %
10.08.2018 16:01 22,7 C 34 % 1019,8 hPa 0,0 l/m 6,5 km/h (2 Bft) NW 315 6,0 C 12,6 km/h (3 Bft) 96 %
10.08.2018 16:02 22,8 C 35 % 1019,8 hPa 0,0 l/m 2,5 km/h (1 Bft) NW 321 6,5 C 9,4 km/h (2 Bft) 100 %
10.08.2018 16:03 22,9 C 38 % 1019,7 hPa 0,0 l/m 0,3 km/h (0 Bft) O 100 7,8 C 3,1 km/h (1 Bft) 96 %
10.08.2018 16:04 23,1 C 34 % 1019,7 hPa 0,0 l/m 6,5 km/h (2 Bft) SW 221 6,4 C 18,8 km/h (3 Bft) 100 %
10.08.2018 16:05 23,1 C 34 % 1019,7 hPa 0,0 l/m 5,6 km/h (1 Bft) W-NW 295 6,4 C 12,6 km/h (3 Bft) 96 %
10.08.2018 16:06 23,2 C 33 % 1019,8 hPa 0,0 l/m 14,8 km/h (3 Bft) N 353 6,0 C 28,2 km/h (4 Bft) 96 %
10.08.2018 16:07 23,3 C 34 % 1019,9 hPa 0,0 l/m 8,2 km/h (2 Bft) W 264 6,6 C 22,0 km/h (4 Bft) 100 %
10.08.2018 16:08 23,3 C 33 % 1019,8 hPa 0,0 l/m 7,4 km/h (2 Bft) SW 229 6,1 C 12,6 km/h (3 Bft) 96 %
10.08.2018 16:09 23,3 C 33 % 1019,7 hPa 0,0 l/m 12,4 km/h (3 Bft) W 262 6,1 C 28,2 km/h (4 Bft) 100 %
10.08.2018 16:10 23,4 C 32 % 1019,7 hPa 0,0 l/m 9,9 km/h (2 Bft) S 174 5,8 C 18,8 km/h (3 Bft) 100 %
10.08.2018 16:11 23,4 C 32 % 1019,7 hPa 0,0 l/m 14,3 km/h (3 Bft) S 182 5,8 C 22,0 km/h (4 Bft) 100 %
10.08.2018 16:12 23,4 C 32 % 1019,7 hPa 0,0 l/m 9,0 km/h (2 Bft) W 266 5,8 C 25,1 km/h (4 Bft) 100 %
10.08.2018 16:13 23,5 C 32 % 1019,8 hPa 0,0 l/m 11,1 km/h (2 Bft) SW 236 5,8 C 18,8 km/h (3 Bft) 100 %
10.08.2018 16:14 23,6 C 32 % 1019,7 hPa 0,0 l/m 7,8 km/h (2 Bft) W-SW 244 5,9 C 15,7 km/h (3 Bft) 100 %
10.08.2018 16:15 23,6 C 33 % 1019,8 hPa 0,0 l/m 5,3 km/h (1 Bft) W-SW 247 6,4 C 12,6 km/h (3 Bft) 100 %
10.08.2018 16:16 23,6 C 32 % 1019,7 hPa 0,0 l/m 6,0 km/h (2 Bft) SW 235 5,9 C 12,6 km/h (3 Bft) 100 %
10.08.2018 16:17 23,6 C 32 % 1019,7 hPa 0,0 l/m 6,8 km/h (2 Bft) W-SW 237 5,9 C 22,0 km/h (4 Bft) 96 %
10.08.2018 16:18 23,6 C 32 % 1019,7 hPa 0,0 l/m 5,9 km/h (2 Bft) W-SW 257 5,9 C 9,4 km/h (2 Bft) 100 %
10.08.2018 16:19 23,6 C 32 % 1019,7 hPa 0,0 l/m 9,0 km/h (2 Bft) W-SW 243 5,9 C 12,6 km/h (3 Bft) 100 %
10.08.2018 16:20 23,6 C 33 % 1019,7 hPa 0,0 l/m 8,5 km/h (2 Bft) W-NW 302 6,4 C 22,0 km/h (4 Bft) 100 %
10.08.2018 16:21 23,6 C 33 % 1019,7 hPa 0,0 l/m 4,5 km/h (1 Bft) SW 225 6,4 C 9,4 km/h (2 Bft) 100 %
10.08.2018 16:22 23,6 C 34 % 1019,6 hPa 0,0 l/m 4,8 km/h (1 Bft) S 184 6,8 C 12,6 km/h (3 Bft) 100 %
10.08.2018 16:23 23,7 C 34 % 1019,6 hPa 0,0 l/m 0,0 km/h (0 Bft) SW 234 6,9 C 0,0 km/h (0 Bft) 100 %
10.08.2018 16:24 23,8 C 33 % 1019,7 hPa 0,0 l/m 4,1 km/h (1 Bft) W-SW 240 6,6 C 12,6 km/h (3 Bft) 100 %
10.08.2018 16:25 23,9 C 33 % 1019,6 hPa 0,0 l/m 5,0 km/h (1 Bft) W-NW 289 6,6 C 18,8 km/h (3 Bft) 100 %
10.08.2018 16:26 23,9 C 33 % 1019,6 hPa 0,0 l/m 4,8 km/h (1 Bft) W-SW 241 6,6 C 15,7 km/h (3 Bft) 100 %
10.08.2018 16:27 23,9 C 35 % 1019,7 hPa 0,0 l/m 3,6 km/h (1 Bft) N-NW 336 7,5 C 12,6 km/h (3 Bft) 100 %
10.08.2018 16:28 23,9 C 34 % 1019,7 hPa 0,0 l/m 1,4 km/h (1 Bft) O-NO 68 7,1 C 3,1 km/h (1 Bft) 100 %
10.08.2018 16:29 23,8 C 32 % 1019,6 hPa 0,0 l/m 5,4 km/h (1 Bft) SW 234 6,1 C 18,8 km/h (3 Bft) 100 %
10.08.2018 16:30 23,7 C 33 % 1019,7 hPa 0,0 l/m 5,2 km/h (1 Bft) W-SW 238 6,5 C 9,4 km/h (2 Bft) 92 %
10.08.2018 16:31 23,7 C 33 % 1019,6 hPa 0,0 l/m 4,1 km/h (1 Bft) W-SW 252 6,5 C 9,4 km/h (2 Bft) 96 %
10.08.2018 16:32 23,7 C 33 % 1019,6 hPa 0,0 l/m 5,2 km/h (1 Bft) S-SW 212 6,5 C 9,4 km/h (2 Bft) 100 %
10.08.2018 16:33 23,7 C 34 % 1019,6 hPa 0,0 l/m 2,1 km/h (1 Bft) W-SW 244 6,9 C 6,3 km/h (2 Bft) 100 %
10.08.2018 16:34 23,7 C 35 % 1019,6 hPa 0,0 l/m 0,7 km/h (0 Bft) N 352 7,3 C 3,1 km/h (1 Bft) 100 %
10.08.2018 16:35 23,8 C 34 % 1019,6 hPa 0,0 l/m 0,0 km/h (0 Bft) N-NO 25 7,0 C 0,0 km/h (0 Bft) 100 %
10.08.2018 16:36 23,8 C 33 % 1019,6 hPa 0,0 l/m 1,2 km/h (1 Bft) NW 317 6,6 C 6,3 km/h (2 Bft) 100 %
10.08.2018 16:37 23,9 C 34 % 1019,6 hPa 0,0 l/m 6,5 km/h (2 Bft) W-NW 284 7,1 C 15,7 km/h (3 Bft) 100 %
10.08.2018 16:38 23,9 C 32 % 1019,7 hPa 0,0 l/m 4,0 km/h (1 Bft) W-SW 239 6,2 C 6,3 km/h (2 Bft) 100 %
10.08.2018 16:39 23,9 C 32 % 1019,6 hPa 0,0 l/m 10,7 km/h (2 Bft) SO 134 6,2 C 34,5 km/h (5 Bft) 100 %
10.08.2018 16:40 23,9 C 31 % 1019,7 hPa 0,0 l/m 12,1 km/h (2 Bft) W-NW 300 5,7 C 28,2 km/h (4 Bft) 100 %
10.08.2018 16:41 23,9 C 31 % 1019,6 hPa 0,0 l/m 15,4 km/h (3 Bft) W-SW 249 5,7 C 22,0 km/h (4 Bft) 100 %
10.08.2018 16:42 23,8 C 31 % 1019,6 hPa 0,0 l/m 6,9 km/h (2 Bft) SW 236 5,6 C 12,6 km/h (3 Bft) 100 %
10.08.2018 16:43 23,8 C 31 % 1019,5 hPa 0,0 l/m 3,4 km/h (1 Bft) NW 309 5,6 C 9,4 km/h (2 Bft) 100 %
10.08.2018 16:44 23,9 C 33 % 1019,5 hPa 0,0 l/m 2,3 km/h (1 Bft) W-SW 252 6,6 C 9,4 km/h (2 Bft) 100 %
10.08.2018 16:45 24,0 C 32 % 1019,5 hPa 0,0 l/m 6,4 km/h (2 Bft) S-SW 200 6,3 C 15,7 km/h (3 Bft) 100 %
10.08.2018 16:46 24,1 C 33 % 1019,5 hPa 0,0 l/m 4,2 km/h (1 Bft) W-SW 239 6,8 C 9,4 km/h (2 Bft) 100 %
10.08.2018 16:47 24,2 C 32 % 1019,5 hPa 0,0 l/m 7,4 km/h (2 Bft) W-SW 237 6,5 C 15,7 km/h (3 Bft) 100 %
10.08.2018 16:48 24,3 C 31 % 1019,5 hPa 0,0 l/m 8,9 km/h (2 Bft) W 281 6,1 C 18,8 km/h (3 Bft) 100 %
10.08.2018 16:49 24,3 C 32 % 1019,6 hPa 0,0 l/m 7,8 km/h (2 Bft) N-NW 329 6,5 C 12,6 km/h (3 Bft) 100 %
10.08.2018 16:50 24,3 C 35 % 1019,5 hPa 0,0 l/m 1,1 km/h (1 Bft) N-NW 333 7,8 C 6,3 km/h (2 Bft) 100 %
10.08.2018 16:51 24,3 C 32 % 1019,5 hPa 0,0 l/m 10,6 km/h (2 Bft) N-NW 328 6,5 C 22,0 km/h (4 Bft) 100 %
10.08.2018 16:52 24,3 C 31 % 1019,5 hPa 0,0 l/m 13,5 km/h (3 Bft) NW 315 6,1 C 18,8 km/h (3 Bft) 100 %
10.08.2018 16:53 24,3 C 31 % 1019,5 hPa 0,0 l/m 7,2 km/h (2 Bft) W-SW 255 6,1 C 18,8 km/h (3 Bft) 100 %
10.08.2018 16:54 24,3 C 32 % 1019,5 hPa 0,0 l/m 1,0 km/h (0 Bft) NW 306 6,5 C 3,1 km/h (1 Bft) 100 %
10.08.2018 16:55 24,3 C 33 % 1019,5 hPa 0,0 l/m 3,1 km/h (1 Bft) W-NW 285 7,0 C 6,3 km/h (2 Bft) 96 %
10.08.2018 16:56 24,4 C 31 % 1019,4 hPa 0,0 l/m 3,1 km/h (1 Bft) W 269 6,2 C 12,6 km/h (3 Bft) 96 %
10.08.2018 16:57 24,5 C 30 % 1019,4 hPa 0,0 l/m 2,6 km/h (1 Bft) W-SW 238 5,8 C 6,3 km/h (2 Bft) 100 %
10.08.2018 16:58 24,6 C 30 % 1019,4 hPa 0,0 l/m 3,6 km/h (1 Bft) NW 311 5,9 C 12,6 km/h (3 Bft) 100 %
10.08.2018 16:59 24,7 C 29 % 1019,4 hPa 0,0 l/m 10,1 km/h (2 Bft) SW 214 5,5 C 25,1 km/h (4 Bft) 96 %
10.08.2018 17:00 24,7 C 30 % 1019,4 hPa 0,0 l/m 8,6 km/h (2 Bft) N-NW 337 6,0 C 18,8 km/h (3 Bft) 96 %
10.08.2018 17:01 24,8 C 30 % 1019,5 hPa 0,0 l/m 7,4 km/h (2 Bft) N 352 6,0 C 15,7 km/h (3 Bft) 100 %
10.08.2018 17:02 24,8 C 29 % 1019,5 hPa 0,0 l/m 14,7 km/h (3 Bft) W-NW 285 5,5 C 31,4 km/h (5 Bft) 96 %
10.08.2018 17:03 24,8 C 29 % 1019,5 hPa 0,0 l/m 12,7 km/h (3 Bft) NW 326 5,5 C 22,0 km/h (4 Bft) 100 %
10.08.2018 17:04 24,7 C 30 % 1019,5 hPa 0,0 l/m 10,7 km/h (2 Bft) SW 227 6,0 C 22,0 km/h (4 Bft) 100 %
10.08.2018 17:05 24,7 C 29 % 1019,5 hPa 0,0 l/m 6,7 km/h (2 Bft) W 264 5,5 C 15,7 km/h (3 Bft) 100 %
10.08.2018 17:06 24,7 C 29 % 1019,5 hPa 0,0 l/m 5,1 km/h (1 Bft) NW 318 5,5 C 12,6 km/h (3 Bft) 100 %
10.08.2018 17:07 24,6 C 30 % 1019,5 hPa 0,0 l/m 16,9 km/h (3 Bft) W 268 5,9 C 28,2 km/h (4 Bft) 100 %
10.08.2018 17:08 24,5 C 29 % 1019,5 hPa 0,0 l/m 8,4 km/h (2 Bft) SW 217 5,3 C 15,7 km/h (3 Bft) 100 %
10.08.2018 17:09 24,4 C 30 % 1019,5 hPa 0,0 l/m 5,3 km/h (1 Bft) W-NW 297 5,7 C 12,6 km/h (3 Bft) 100 %
10.08.2018 17:10 24,3 C 30 % 1019,5 hPa 0,0 l/m 3,1 km/h (1 Bft) SW 226 5,6 C 15,7 km/h (3 Bft) 100 %
10.08.2018 17:11 24,3 C 31 % 1019,4 hPa 0,0 l/m 0,0 km/h (0 Bft) O-NO 77 6,1 C 0,0 km/h (0 Bft) 100 %
10.08.2018 17:12 24,2 C 31 % 1019,5 hPa 0,0 l/m 1,7 km/h (1 Bft) W-SW 245 6,0 C 9,4 km/h (2 Bft) 99 %
10.08.2018 17:13 24,2 C 31 % 1019,4 hPa 0,0 l/m 2,8 km/h (1 Bft) W-SW 239 6,0 C 6,3 km/h (2 Bft) 100 %
10.08.2018 17:14 24,2 C 32 % 1019,5 hPa 0,0 l/m 2,3 km/h (1 Bft) SW 218 6,5 C 9,4 km/h (2 Bft) 100 %
10.08.2018 17:15 24,2 C 31 % 1019,5 hPa 0,0 l/m 8,9 km/h (2 Bft) SW 224 6,0 C 15,7 km/h (3 Bft) 100 %
10.08.2018 17:16 24,2 C 31 % 1019,4 hPa 0,0 l/m 3,3 km/h (1 Bft) N-NO 30 6,0 C 9,4 km/h (2 Bft) 100 %
10.08.2018 17:17 24,1 C 31 % 1019,4 hPa 0,0 l/m 5,5 km/h (1 Bft) N 358 5,9 C 22,0 km/h (4 Bft) 100 %
10.08.2018 17:18 24,1 C 31 % 1019,5 hPa 0,0 l/m 6,6 km/h (2 Bft) S-SO 164 5,9 C 12,6 km/h (3 Bft) 99 %
10.08.2018 17:19 23,9 C 31 % 1019,5 hPa 0,0 l/m 5,9 km/h (2 Bft) W-SW 248 5,7 C 9,4 km/h (2 Bft) 100 %
10.08.2018 17:20 23,9 C 32 % 1019,5 hPa 0,0 l/m 4,6 km/h (1 Bft) SW 215 6,2 C 15,7 km/h (3 Bft) 100 %
10.08.2018 17:21 23,8 C 31 % 1019,4 hPa 0,0 l/m 4,8 km/h (1 Bft) W-NW 298 5,6 C 9,4 km/h (2 Bft) 100 %
10.08.2018 17:22 23,7 C 33 % 1019,4 hPa 0,0 l/m 4,6 km/h (1 Bft) O-SO 122 6,5 C 12,6 km/h (3 Bft) 100 %
10.08.2018 17:23 23,7 C 35 % 1019,4 hPa 0,0 l/m 1,3 km/h (1 Bft) N-NW 338 7,3 C 6,3 km/h (2 Bft) 100 %
10.08.2018 17:24 23,6 C 33 % 1019,5 hPa 0,0 l/m 2,0 km/h (1 Bft) W-SW 246 6,4 C 9,4 km/h (2 Bft) 100 %
10.08.2018 17:25 23,5 C 32 % 1019,4 hPa 0,0 l/m 1,4 km/h (1 Bft) S-SW 203 5,8 C 6,3 km/h (2 Bft) 100 %
10.08.2018 17:26 23,4 C 33 % 1019,4 hPa 0,0 l/m 5,6 km/h (1 Bft) NW 308 6,2 C 15,7 km/h (3 Bft) 100 %
10.08.2018 17:27 23,3 C 35 % 1019,4 hPa 0,0 l/m 0,7 km/h (0 Bft) NW 313 7,0 C 6,3 km/h (2 Bft) 100 %
10.08.2018 17:28 23,3 C 33 % 1019,4 hPa 0,0 l/m 6,8 km/h (2 Bft) SW 233 6,1 C 15,7 km/h (3 Bft) 100 %
10.08.2018 17:29 23,1 C 33 % 1019,4 hPa 0,0 l/m 5,2 km/h (1 Bft) SW 223 5,9 C 15,7 km/h (3 Bft) 100 %
10.08.2018 17:30 23,1 C 35 % 1019,4 hPa 0,0 l/m 0,4 km/h (0 Bft) NO 42 6,8 C 3,1 km/h (1 Bft) 100 %
10.08.2018 17:31 22,9 C 34 % 1019,4 hPa 0,0 l/m 8,9 km/h (2 Bft) SW 235 6,2 C 22,0 km/h (4 Bft) 100 %
10.08.2018 17:32 22,9 C 34 % 1019,4 hPa 0,0 l/m 8,1 km/h (2 Bft) O-NO 62 6,2 C 15,7 km/h (3 Bft) 100 %
10.08.2018 17:33 22,8 C 35 % 1019,4 hPa 0,0 l/m 1,2 km/h (1 Bft) NW 306 6,5 C 3,1 km/h (1 Bft) 100 %
10.08.2018 17:34 22,8 C 35 % 1019,4 hPa 0,0 l/m 0,4 km/h (0 Bft) S-SW 206 6,5 C 6,3 km/h (2 Bft) 100 %
10.08.2018 17:35 22,9 C 34 % 1019,4 hPa 0,0 l/m 2,3 km/h (1 Bft) W-SW 257 6,2 C 6,3 km/h (2 Bft) 100 %
10.08.2018 17:36 23,1 C 34 % 1019,4 hPa 0,0 l/m 5,0 km/h (1 Bft) SW 229 6,4 C 12,6 km/h (3 Bft) 100 %
10.08.2018 17:37 23,2 C 33 % 1019,3 hPa 0,0 l/m 1,7 km/h (1 Bft) W-SW 250 6,0 C 6,3 km/h (2 Bft) 100 %
10.08.2018 17:38 23,2 C 35 % 1019,4 hPa 0,0 l/m 4,4 km/h (1 Bft) W-NW 295 6,9 C 12,6 km/h (3 Bft) 100 %
10.08.2018 17:39 23,3 C 33 % 1019,3 hPa 0,0 l/m 6,9 km/h (2 Bft) SO 145 6,1 C 15,7 km/h (3 Bft) 100 %
10.08.2018 17:40 23,3 C 33 % 1019,4 hPa 0,0 l/m 10,6 km/h (2 Bft) SW 221 6,1 C 18,8 km/h (3 Bft) 100 %
10.08.2018 17:41 23,2 C 33 % 1019,3 hPa 0,0 l/m 8,6 km/h (2 Bft) W-SW 255 6,0 C 12,6 km/h (3 Bft) 100 %
10.08.2018 17:42 23,2 C 34 % 1019,3 hPa 0,0 l/m 2,2 km/h (1 Bft) W-SW 254 6,5 C 18,8 km/h (3 Bft) 100 %
10.08.2018 17:43 23,1 C 33 % 1019,3 hPa 0,0 l/m 7,6 km/h (2 Bft) W-SW 252 5,9 C 12,6 km/h (3 Bft) 100 %
10.08.2018 17:44 23,1 C 34 % 1019,3 hPa 0,0 l/m 4,3 km/h (1 Bft) W-SW 256 6,4 C 12,6 km/h (3 Bft) 100 %
10.08.2018 17:45 23,1 C 33 % 1019,3 hPa 0,0 l/m 9,7 km/h (2 Bft) SW 228 5,9 C 15,7 km/h (3 Bft) 100 %
10.08.2018 17:46 23,1 C 33 % 1019,4 hPa 0,0 l/m 11,3 km/h (2 Bft) NW 314 5,9 C 25,1 km/h (4 Bft) 100 %
10.08.2018 17:47 23,1 C 33 % 1019,4 hPa 0,0 l/m 6,4 km/h (2 Bft) W-NW 300 5,9 C 12,6 km/h (3 Bft) 100 %
10.08.2018 17:48 23,0 C 33 % 1019,3 hPa 0,0 l/m 3,4 km/h (1 Bft) W-SW 245 5,9 C 9,4 km/h (2 Bft) 96 %
10.08.2018 17:49 22,9 C 35 % 1019,3 hPa 0,0 l/m 0,5 km/h (0 Bft) W-SW 243 6,6 C 3,1 km/h (1 Bft) 100 %
10.08.2018 17:50 22,9 C 35 % 1019,3 hPa 0,0 l/m 2,7 km/h (1 Bft) W-SW 238 6,6 C 9,4 km/h (2 Bft) 100 %
10.08.2018 17:51 22,9 C 34 % 1019,3 hPa 0,0 l/m 3,3 km/h (1 Bft) W-NW 300 6,2 C 9,4 km/h (2 Bft) 96 %
10.08.2018 17:52 22,9 C 35 % 1019,2 hPa 0,0 l/m 0,7 km/h (0 Bft) SW 224 6,6 C 6,3 km/h (2 Bft) 96 %
10.08.2018 17:53 22,9 C 34 % 1019,3 hPa 0,0 l/m 1,2 km/h (1 Bft) SW 229 6,2 C 3,1 km/h (1 Bft) 100 %
10.08.2018 17:54 22,9 C 34 % 1019,3 hPa 0,0 l/m 0,5 km/h (0 Bft) W 264 6,2 C 3,1 km/h (1 Bft) 92 %
10.08.2018 17:55 22,9 C 35 % 1019,3 hPa 0,0 l/m 1,0 km/h (0 Bft) W-NW 284 6,6 C 3,1 km/h (1 Bft) 100 %
10.08.2018 17:56 22,9 C 35 % 1019,2 hPa 0,0 l/m 1,0 km/h (0 Bft) SW 234 6,6 C 3,1 km/h (1 Bft) 96 %
10.08.2018 17:57 22,8 C 37 % 1019,3 hPa 0,0 l/m 0,6 km/h (0 Bft) S-SO 162 7,3 C 3,1 km/h (1 Bft) 100 %
10.08.2018 17:58 22,8 C 35 % 1019,3 hPa 0,0 l/m 3,3 km/h (1 Bft) NO 49 6,5 C 12,6 km/h (3 Bft) 100 %
10.08.2018 17:59 22,8 C 35 % 1019,3 hPa 0,0 l/m 0,5 km/h (0 Bft) O 89 6,5 C 3,1 km/h (1 Bft) 100 %
10.08.2018 18:00 22,9 C 36 % 1019,3 hPa 0,0 l/m 4,9 km/h (1 Bft) S 191 7,0 C 12,6 km/h (3 Bft) 100 %
10.08.2018 18:01 23,0 C 34 % 1019,2 hPa 0,0 l/m 3,8 km/h (1 Bft) S-SW 196 6,3 C 12,6 km/h (3 Bft) 100 %
10.08.2018 18:02 23,1 C 36 % 1019,2 hPa 0,0 l/m 6,3 km/h (2 Bft) W 271 7,2 C 15,7 km/h (3 Bft) 100 %
10.08.2018 18:03 23,1 C 35 % 1019,2 hPa 0,0 l/m 1,1 km/h (1 Bft) W-NW 297 6,8 C 3,1 km/h (1 Bft) 100 %
10.08.2018 18:04 23,2 C 34 % 1019,1 hPa 0,0 l/m 4,7 km/h (1 Bft) N-NO 26 6,5 C 9,4 km/h (2 Bft) 100 %
10.08.2018 18:05 23,2 C 35 % 1019,1 hPa 0,0 l/m 2,7 km/h (1 Bft) NW 326 6,9 C 9,4 km/h (2 Bft) 100 %
10.08.2018 18:06 23,2 C 35 % 1019,1 hPa 0,0 l/m 7,8 km/h (2 Bft) S-SW 210 6,9 C 12,6 km/h (3 Bft) 100 %
10.08.2018 18:07 23,2 C 36 % 1019,0 hPa 0,0 l/m 4,1 km/h (1 Bft) NO 46 7,3 C 6,3 km/h (2 Bft) 100 %
10.08.2018 18:08 23,2 C 36 % 1019,1 hPa 0,0 l/m 5,6 km/h (1 Bft) NO 47 7,3 C 12,6 km/h (3 Bft) 100 %
10.08.2018 18:09 23,1 C 35 % 1019,1 hPa 0,0 l/m 8,0 km/h (2 Bft) NW 323 6,8 C 15,7 km/h (3 Bft) 100 %
10.08.2018 18:10 23,1 C 36 % 1019,1 hPa 0,0 l/m 3,5 km/h (1 Bft) W-SW 258 7,2 C 9,4 km/h (2 Bft) 100 %
10.08.2018 18:11 23,0 C 35 % 1019,1 hPa 0,0 l/m 2,2 km/h (1 Bft) N-NW 328 6,7 C 6,3 km/h (2 Bft) 100 %
10.08.2018 18:12 22,9 C 35 % 1019,1 hPa 0,0 l/m 2,0 km/h (1 Bft) W 269 6,6 C 6,3 km/h (2 Bft) 100 %
10.08.2018 18:13 22,9 C 36 % 1019,2 hPa 0,0 l/m 8,0 km/h (2 Bft) W-NW 302 7,0 C 12,6 km/h (3 Bft) 100 %
10.08.2018 18:14 22,9 C 35 % 1019,2 hPa 0,0 l/m 3,3 km/h (1 Bft) W 281 6,6 C 9,4 km/h (2 Bft) 100 %
10.08.2018 18:15 22,8 C 36 % 1019,2 hPa 0,0 l/m 5,5 km/h (1 Bft) NW 308 6,9 C 12,6 km/h (3 Bft) 100 %
10.08.2018 18:16 22,8 C 35 % 1019,2 hPa 0,0 l/m 5,6 km/h (1 Bft) SW 214 6,5 C 9,4 km/h (2 Bft) 100 %
10.08.2018 18:17 22,7 C 35 % 1019,3 hPa 0,0 l/m 8,5 km/h (2 Bft) W-NW 295 6,4 C 12,6 km/h (3 Bft) 100 %
10.08.2018 18:18 22,7 C 36 % 1019,2 hPa 0,0 l/m 12,2 km/h (2 Bft) W 262 6,9 C 25,1 km/h (4 Bft) 100 %
10.08.2018 18:19 22,7 C 35 % 1019,2 hPa 0,0 l/m 10,2 km/h (2 Bft) N-NW 328 6,4 C 18,8 km/h (3 Bft) 100 %
10.08.2018 18:20 22,7 C 34 % 1019,2 hPa 0,0 l/m 9,1 km/h (2 Bft) W-SW 256 6,0 C 12,6 km/h (3 Bft) 100 %
10.08.2018 18:21 22,7 C 35 % 1019,2 hPa 0,0 l/m 10,1 km/h (2 Bft) SW 232 6,4 C 18,8 km/h (3 Bft) 100 %
10.08.2018 18:22 22,7 C 34 % 1019,2 hPa 0,0 l/m 11,5 km/h (2 Bft) NW 307 6,0 C 22,0 km/h (4 Bft) 100 %
10.08.2018 18:23 22,7 C 34 % 1019,2 hPa 0,0 l/m 9,5 km/h (2 Bft) SW 236 6,0 C 18,8 km/h (3 Bft) 100 %
10.08.2018 18:24 22,7 C 34 % 1019,2 hPa 0,0 l/m 8,9 km/h (2 Bft) NW 323 6,0 C 18,8 km/h (3 Bft) 100 %
10.08.2018 18:25 22,8 C 34 % 1019,2 hPa 0,0 l/m 8,8 km/h (2 Bft) NW 310 6,1 C 22,0 km/h (4 Bft) 100 %
10.08.2018 18:26 22,9 C 34 % 1019,2 hPa 0,0 l/m 11,5 km/h (2 Bft) W-NW 302 6,2 C 22,0 km/h (4 Bft) 100 %
10.08.2018 18:27 22,9 C 35 % 1019,2 hPa 0,0 l/m 13,1 km/h (3 Bft) NW 310 6,6 C 22,0 km/h (4 Bft) 100 %
10.08.2018 18:28 22,9 C 35 % 1019,2 hPa 0,0 l/m 5,5 km/h (1 Bft) SW 214 6,6 C 12,6 km/h (3 Bft) 100 %
10.08.2018 18:29 22,9 C 35 % 1019,2 hPa 0,0 l/m 3,8 km/h (1 Bft) W-SW 243 6,6 C 15,7 km/h (3 Bft) 100 %
10.08.2018 18:30 22,8 C 35 % 1019,2 hPa 0,0 l/m 8,2 km/h (2 Bft) W-NW 290 6,5 C 15,7 km/h (3 Bft) 100 %
10.08.2018 18:31 22,8 C 34 % 1019,2 hPa 0,0 l/m 11,8 km/h (2 Bft) SW 226 6,1 C 22,0 km/h (4 Bft) 100 %
10.08.2018 18:32 22,8 C 35 % 1019,2 hPa 0,0 l/m 7,5 km/h (2 Bft) S-SW 210 6,5 C 15,7 km/h (3 Bft) 100 %
10.08.2018 18:33 22,7 C 34 % 1019,2 hPa 0,0 l/m 11,7 km/h (2 Bft) W 274 6,0 C 22,0 km/h (4 Bft) 100 %
10.08.2018 18:34 22,7 C 35 % 1019,2 hPa 0,0 l/m 5,5 km/h (1 Bft) W 277 6,4 C 12,6 km/h (3 Bft) 100 %
10.08.2018 18:35 22,7 C 34 % 1019,2 hPa 0,0 l/m 9,6 km/h (2 Bft) W-NW 289 6,0 C 22,0 km/h (4 Bft) 100 %
10.08.2018 18:36 22,8 C 34 % 1019,2 hPa 0,0 l/m 8,4 km/h (2 Bft) SW 215 6,1 C 15,7 km/h (3 Bft) 100 %
10.08.2018 18:37 22,9 C 34 % 1019,3 hPa 0,0 l/m 9,9 km/h (2 Bft) SW 230 6,2 C 22,0 km/h (4 Bft) 100 %
10.08.2018 18:38 22,9 C 34 % 1019,2 hPa 0,0 l/m 3,8 km/h (1 Bft) SW 233 6,2 C 9,4 km/h (2 Bft) 96 %
10.08.2018 18:39 22,9 C 34 % 1019,3 hPa 0,0 l/m 8,8 km/h (2 Bft) SO 126 6,2 C 18,8 km/h (3 Bft) 100 %
10.08.2018 18:40 22,9 C 33 % 1019,2 hPa 0,0 l/m 10,9 km/h (2 Bft) W-SW 248 5,8 C 22,0 km/h (4 Bft) 96 %
10.08.2018 18:41 22,9 C 33 % 1019,3 hPa 0,0 l/m 8,9 km/h (2 Bft) S 187 5,8 C 12,6 km/h (3 Bft) 100 %
10.08.2018 18:42 22,9 C 34 % 1019,3 hPa 0,0 l/m 5,4 km/h (1 Bft) SW 234 6,2 C 9,4 km/h (2 Bft) 96 %
10.08.2018 18:43 23,0 C 34 % 1019,2 hPa 0,0 l/m 2,2 km/h (1 Bft) W-NW 298 6,3 C 9,4 km/h (2 Bft) 100 %
10.08.2018 18:44 23,0 C 34 % 1019,3 hPa 0,0 l/m 3,6 km/h (1 Bft) SW 222 6,3 C 15,7 km/h (3 Bft) 96 %
10.08.2018 18:45 23,0 C 35 % 1019,2 hPa 0,0 l/m 8,0 km/h (2 Bft) W-NW 290 6,7 C 15,7 km/h (3 Bft) 100 %
10.08.2018 18:46 22,9 C 34 % 1019,2 hPa 0,0 l/m 12,3 km/h (3 Bft) SW 229 6,2 C 18,8 km/h (3 Bft) 96 %
10.08.2018 18:47 22,8 C 34 % 1019,3 hPa 0,0 l/m 12,0 km/h (2 Bft) W 278 6,1 C 25,1 km/h (4 Bft) 100 %
10.08.2018 18:48 22,7 C 34 % 1019,2 hPa 0,0 l/m 7,5 km/h (2 Bft) S-SW 197 6,0 C 12,6 km/h (3 Bft) 96 %
10.08.2018 18:49 22,6 C 34 % 1019,2 hPa 0,0 l/m 6,1 km/h (2 Bft) NW 320 5,9 C 12,6 km/h (3 Bft) 100 %
10.08.2018 18:50 22,6 C 35 % 1019,2 hPa 0,0 l/m 9,4 km/h (2 Bft) W-NW 291 6,4 C 18,8 km/h (3 Bft) 100 %
10.08.2018 18:51 22,4 C 35 % 1019,2 hPa 0,0 l/m 7,7 km/h (2 Bft) SW 232 6,2 C 12,6 km/h (3 Bft) 100 %
10.08.2018 18:52 22,4 C 35 % 1019,3 hPa 0,0 l/m 6,4 km/h (2 Bft) SW 234 6,2 C 12,6 km/h (3 Bft) 100 %
10.08.2018 18:53 22,4 C 35 % 1019,3 hPa 0,0 l/m 3,8 km/h (1 Bft) S-SW 210 6,2 C 6,3 km/h (2 Bft) 100 %
10.08.2018 18:54 22,4 C 35 % 1019,3 hPa 0,0 l/m 2,8 km/h (1 Bft) SW 232 6,2 C 6,3 km/h (2 Bft) 100 %
10.08.2018 18:55 22,5 C 35 % 1019,2 hPa 0,0 l/m 3,5 km/h (1 Bft) W-SW 242 6,3 C 9,4 km/h (2 Bft) 100 %
10.08.2018 18:56 22,6 C 35 % 1019,2 hPa 0,0 l/m 4,3 km/h (1 Bft) SW 224 6,4 C 9,4 km/h (2 Bft) 100 %
10.08.2018 18:57 22,6 C 35 % 1019,2 hPa 0,0 l/m 4,2 km/h (1 Bft) SO 130 6,4 C 9,4 km/h (2 Bft) 100 %
10.08.2018 18:58 22,6 C 35 % 1019,3 hPa 0,0 l/m 3,5 km/h (1 Bft) W-SW 248 6,4 C 15,7 km/h (3 Bft) 100 %
10.08.2018 18:59 22,5 C 35 % 1019,3 hPa 0,0 l/m 1,4 km/h (1 Bft) W-SW 257 6,3 C 3,1 km/h (1 Bft) 100 %
10.08.2018 19:00 22,5 C 36 % 1019,3 hPa 0,0 l/m 2,0 km/h (1 Bft) W-SW 239 6,7 C 6,3 km/h (2 Bft) 100 %
10.08.2018 19:01 22,4 C 35 % 1019,3 hPa 0,0 l/m 3,0 km/h (1 Bft) W-NW 286 6,2 C 9,4 km/h (2 Bft) 100 %
10.08.2018 19:02 22,4 C 36 % 1019,2 hPa 0,0 l/m 1,0 km/h (0 Bft) W-SW 249 6,6 C 3,1 km/h (1 Bft) 100 %
10.08.2018 19:03 22,3 C 35 % 1019,3 hPa 0,0 l/m 4,4 km/h (1 Bft) SW 233 6,1 C 9,4 km/h (2 Bft) 100 %
10.08.2018 19:04 22,2 C 35 % 1019,3 hPa 0,0 l/m 5,5 km/h (1 Bft) W-SW 248 6,0 C 12,6 km/h (3 Bft) 100 %
10.08.2018 19:05 22,2 C 35 % 1019,3 hPa 0,0 l/m 3,9 km/h (1 Bft) S 169 6,0 C 9,4 km/h (2 Bft) 100 %
10.08.2018 19:06 22,1 C 35 % 1019,3 hPa 0,0 l/m 7,8 km/h (2 Bft) S-SW 209 5,9 C 12,6 km/h (3 Bft) 100 %
10.08.2018 19:07 22,1 C 36 % 1019,3 hPa 0,0 l/m 3,5 km/h (1 Bft) NW 311 6,3 C 9,4 km/h (2 Bft) 100 %
10.08.2018 19:08 22,1 C 35 % 1019,3 hPa 0,0 l/m 4,9 km/h (1 Bft) W 266 5,9 C 12,6 km/h (3 Bft) 100 %
10.08.2018 19:09 22,1 C 35 % 1019,2 hPa 0,0 l/m 5,2 km/h (1 Bft) W-SW 237 5,9 C 12,6 km/h (3 Bft) 100 %
10.08.2018 19:10 22,2 C 36 % 1019,3 hPa 0,0 l/m 0,5 km/h (0 Bft) W 272 6,4 C 6,3 km/h (2 Bft) 100 %
10.08.2018 19:11 22,2 C 35 % 1019,3 hPa 0,0 l/m 6,1 km/h (2 Bft) NW 309 6,0 C 9,4 km/h (2 Bft) 100 %
10.08.2018 19:12 22,2 C 35 % 1019,2 hPa 0,0 l/m 2,1 km/h (1 Bft) O 101 6,0 C 6,3 km/h (2 Bft) 100 %
10.08.2018 19:13 22,2 C 35 % 1019,3 hPa 0,0 l/m 12,9 km/h (3 Bft) NW 319 6,0 C 28,2 km/h (4 Bft) 100 %
10.08.2018 19:14 22,2 C 35 % 1019,2 hPa 0,0 l/m 6,9 km/h (2 Bft) S 191 6,0 C 15,7 km/h (3 Bft) 100 %
10.08.2018 19:15 22,1 C 36 % 1019,3 hPa 0,0 l/m 8,0 km/h (2 Bft) NW 326 6,3 C 15,7 km/h (3 Bft) 100 %
10.08.2018 19:16 22,1 C 35 % 1019,3 hPa 0,0 l/m 5,2 km/h (1 Bft) W-NW 288 5,9 C 12,6 km/h (3 Bft) 100 %
10.08.2018 19:17 22,1 C 36 % 1019,3 hPa 0,0 l/m 5,3 km/h (1 Bft) W-NW 295 6,3 C 9,4 km/h (2 Bft) 100 %
10.08.2018 19:18 22,0 C 36 % 1019,3 hPa 0,0 l/m 5,0 km/h (1 Bft) S-SW 198 6,2 C 9,4 km/h (2 Bft) 100 %
10.08.2018 19:19 21,9 C 35 % 1019,2 hPa 0,0 l/m 7,7 km/h (2 Bft) W-SW 241 5,7 C 12,6 km/h (3 Bft) 100 %
10.08.2018 19:20 21,9 C 36 % 1019,3 hPa 0,0 l/m 4,2 km/h (1 Bft) W-NW 297 6,1 C 6,3 km/h (2 Bft) 100 %
10.08.2018 19:21 21,9 C 36 % 1019,3 hPa 0,0 l/m 3,7 km/h (1 Bft) N-NW 331 6,1 C 6,3 km/h (2 Bft) 100 %
10.08.2018 19:22 21,9 C 36 % 1019,3 hPa 0,0 l/m 6,8 km/h (2 Bft) W 259 6,1 C 12,6 km/h (3 Bft) 100 %
10.08.2018 19:23 21,9 C 36 % 1019,3 hPa 0,0 l/m 7,4 km/h (2 Bft) SW 233 6,1 C 25,1 km/h (4 Bft) 100 %
10.08.2018 19:24 21,8 C 36 % 1019,2 hPa 0,0 l/m 10,8 km/h (2 Bft) W 278 6,1 C 18,8 km/h (3 Bft) 100 %
10.08.2018 19:25 21,8 C 37 % 1019,2 hPa 0,0 l/m 8,1 km/h (2 Bft) W-NW 284 6,5 C 12,6 km/h (3 Bft) 100 %
10.08.2018 19:26 21,8 C 36 % 1019,3 hPa 0,0 l/m 8,6 km/h (2 Bft) SW 219 6,1 C 18,8 km/h (3 Bft) 100 %
10.08.2018 19:27 21,8 C 36 % 1019,2 hPa 0,0 l/m 5,5 km/h (1 Bft) W-NW 300 6,1 C 9,4 km/h (2 Bft) 100 %
10.08.2018 19:28 21,7 C 36 % 1019,2 hPa 0,0 l/m 8,2 km/h (2 Bft) W-SW 254 6,0 C 12,6 km/h (3 Bft) 100 %
10.08.2018 19:29 21,7 C 36 % 1019,2 hPa 0,0 l/m 7,4 km/h (2 Bft) W 262 6,0 C 12,6 km/h (3 Bft) 100 %
10.08.2018 19:30 21,7 C 36 % 1019,2 hPa 0,0 l/m 2,6 km/h (1 Bft) W 262 6,0 C 6,3 km/h (2 Bft) 92 %
10.08.2018 19:31 21,7 C 38 % 1019,2 hPa 0,0 l/m 4,4 km/h (1 Bft) SW 234 6,8 C 15,7 km/h (3 Bft) 96 %
10.08.2018 19:32 21,7 C 37 % 1019,2 hPa 0,0 l/m 2,7 km/h (1 Bft) SW 232 6,4 C 6,3 km/h (2 Bft) 100 %
10.08.2018 19:33 21,7 C 37 % 1019,2 hPa 0,0 l/m 1,6 km/h (1 Bft) W-SW 249 6,4 C 6,3 km/h (2 Bft) 100 %
10.08.2018 19:34 21,7 C 37 % 1019,2 hPa 0,0 l/m 1,0 km/h (0 Bft) W-NW 293 6,4 C 3,1 km/h (1 Bft) 96 %
10.08.2018 19:35 21,7 C 37 % 1019,2 hPa 0,0 l/m 5,0 km/h (1 Bft) W-NW 296 6,4 C 12,6 km/h (3 Bft) 100 %
10.08.2018 19:36 21,7 C 37 % 1019,2 hPa 0,0 l/m 10,2 km/h (2 Bft) W-NW 302 6,4 C 18,8 km/h (3 Bft) 97 %
10.08.2018 19:37 21,8 C 36 % 1019,2 hPa 0,0 l/m 8,4 km/h (2 Bft) NW 308 6,1 C 12,6 km/h (3 Bft) 100 %
10.08.2018 19:38 21,7 C 37 % 1019,2 hPa 0,0 l/m 7,2 km/h (2 Bft) W-SW 254 6,4 C 15,7 km/h (3 Bft) 96 %
10.08.2018 19:39 21,7 C 37 % 1019,2 hPa 0,0 l/m 5,1 km/h (1 Bft) S-SW 207 6,4 C 12,6 km/h (3 Bft) 100 %
10.08.2018 19:40 21,7 C 37 % 1019,2 hPa 0,0 l/m 4,6 km/h (1 Bft) W-SW 257 6,4 C 6,3 km/h (2 Bft) 93 %
10.08.2018 19:41 21,7 C 37 % 1019,2 hPa 0,0 l/m 8,0 km/h (2 Bft) S-SW 200 6,4 C 15,7 km/h (3 Bft) 100 %
10.08.2018 19:42 21,6 C 37 % 1019,2 hPa 0,0 l/m 4,3 km/h (1 Bft) NW 311 6,3 C 12,6 km/h (3 Bft) 99 %
10.08.2018 19:43 21,6 C 37 % 1019,2 hPa 0,0 l/m 9,4 km/h (2 Bft) NW 311 6,3 C 15,7 km/h (3 Bft) 98 %
10.08.2018 19:44 21,6 C 37 % 1019,2 hPa 0,0 l/m 12,7 km/h (3 Bft) W 269 6,3 C 25,1 km/h (4 Bft) 100 %
10.08.2018 19:45 21,5 C 37 % 1019,3 hPa 0,0 l/m 8,8 km/h (2 Bft) NW 308 6,2 C 15,7 km/h (3 Bft) 100 %
10.08.2018 19:46 21,5 C 37 % 1019,1 hPa 0,0 l/m 8,5 km/h (2 Bft) W 278 6,2 C 15,7 km/h (3 Bft) 100 %
10.08.2018 19:47 21,4 C 37 % 1019,2 hPa 0,0 l/m 4,2 km/h (1 Bft) SW 224 6,1 C 9,4 km/h (2 Bft) 100 %
10.08.2018 19:48 21,4 C 37 % 1019,2 hPa 0,0 l/m 2,0 km/h (1 Bft) SW 221 6,1 C 9,4 km/h (2 Bft) 100 %
10.08.2018 19:49 21,4 C 38 % 1019,2 hPa 0,0 l/m 2,4 km/h (1 Bft) W-NW 302 6,5 C 6,3 km/h (2 Bft) 100 %
10.08.2018 19:50 21,3 C 38 % 1019,2 hPa 0,0 l/m 8,1 km/h (2 Bft) SW 236 6,4 C 12,6 km/h (3 Bft) 100 %
10.08.2018 19:51 21,3 C 38 % 1019,2 hPa 0,0 l/m 4,8 km/h (1 Bft) NW 304 6,4 C 9,4 km/h (2 Bft) 100 %
10.08.2018 19:52 21,3 C 38 % 1019,2 hPa 0,0 l/m 3,1 km/h (1 Bft) W-NW 293 6,4 C 9,4 km/h (2 Bft) 100 %
10.08.2018 19:53 21,2 C 38 % 1019,2 hPa 0,0 l/m 6,9 km/h (2 Bft) W 259 6,3 C 15,7 km/h (3 Bft) 100 %
10.08.2018 19:54 21,2 C 38 % 1019,2 hPa 0,0 l/m 4,2 km/h (1 Bft) W-NW 283 6,3 C 9,4 km/h (2 Bft) 100 %
10.08.2018 19:55 21,2 C 38 % 1019,2 hPa 0,0 l/m 6,6 km/h (2 Bft) W-SW 240 6,3 C 15,7 km/h (3 Bft) 100 %
10.08.2018 19:56 21,2 C 38 % 1019,2 hPa 0,0 l/m 7,3 km/h (2 Bft) NW 309 6,3 C 12,6 km/h (3 Bft) 100 %
10.08.2018 19:57 21,2 C 38 % 1019,2 hPa 0,0 l/m 4,8 km/h (1 Bft) W-NW 296 6,3 C 9,4 km/h (2 Bft) 100 %
10.08.2018 19:58 21,1 C 38 % 1019,2 hPa 0,0 l/m 6,7 km/h (2 Bft) W-SW 237 6,2 C 15,7 km/h (3 Bft) 100 %
10.08.2018 19:59 21,1 C 38 % 1019,3 hPa 0,0 l/m 3,6 km/h (1 Bft) NW 308 6,2 C 6,3 km/h (2 Bft) 100 %
10.08.2018 20:00 21,1 C 38 % 1019,2 hPa 0,0 l/m 3,4 km/h (1 Bft) SW 217 6,2 C 6,3 km/h (2 Bft) 100 %
10.08.2018 20:01 21,1 C 38 % 1019,2 hPa 0,0 l/m 4,7 km/h (1 Bft) W-SW 241 6,2 C 9,4 km/h (2 Bft) 100 %
10.08.2018 20:02 21,1 C 38 % 1019,3 hPa 0,0 l/m 5,2 km/h (1 Bft) W-NW 293 6,2 C 9,4 km/h (2 Bft) 100 %
10.08.2018 20:03 21,0 C 39 % 1019,2 hPa 0,0 l/m 1,0 km/h (0 Bft) NW 315 6,5 C 3,1 km/h (1 Bft) 100 %
10.08.2018 20:04 21,0 C 39 % 1019,3 hPa 0,0 l/m 5,6 km/h (1 Bft) W-SW 247 6,5 C 12,6 km/h (3 Bft) 100 %
10.08.2018 20:05 20,9 C 39 % 1019,3 hPa 0,0 l/m 2,2 km/h (1 Bft) SW 217 6,4 C 6,3 km/h (2 Bft) 100 %
10.08.2018 20:06 20,9 C 39 % 1019,3 hPa 0,0 l/m 2,0 km/h (1 Bft) W-NW 290 6,4 C 6,3 km/h (2 Bft) 100 %
10.08.2018 20:07 20,9 C 39 % 1019,3 hPa 0,0 l/m 3,3 km/h (1 Bft) W-SW 258 6,4 C 9,4 km/h (2 Bft) 100 %
10.08.2018 20:08 20,9 C 39 % 1019,3 hPa 0,0 l/m 3,1 km/h (1 Bft) S-SW 213 6,4 C 9,4 km/h (2 Bft) 100 %
10.08.2018 20:09 20,9 C 39 % 1019,3 hPa 0,0 l/m 1,5 km/h (1 Bft) W 277 6,4 C 3,1 km/h (1 Bft) 100 %
10.08.2018 20:10 20,9 C 39 % 1019,3 hPa 0,0 l/m 0,0 km/h (0 Bft) W-NW 301 6,4 C 0,0 km/h (0 Bft) 100 %
10.08.2018 20:11 21,0 C 40 % 1019,3 hPa 0,0 l/m 0,0 km/h (0 Bft) W-NW 301 6,9 C 0,0 km/h (0 Bft) 99 %
10.08.2018 20:12 21,0 C 39 % 1019,2 hPa 0,0 l/m 1,9 km/h (1 Bft) S-SW 213 6,5 C 6,3 km/h (2 Bft) 100 %
10.08.2018 20:13 21,0 C 39 % 1019,3 hPa 0,0 l/m 1,8 km/h (1 Bft) SW 214 6,5 C 6,3 km/h (2 Bft) 100 %
10.08.2018 20:14 21,1 C 39 % 1019,3 hPa 0,0 l/m 1,6 km/h (1 Bft) W-NW 295 6,6 C 6,3 km/h (2 Bft) 100 %
10.08.2018 20:15 21,0 C 40 % 1019,3 hPa 0,0 l/m 4,3 km/h (1 Bft) NW 305 6,9 C 9,4 km/h (2 Bft) 100 %
10.08.2018 20:16 21,0 C 39 % 1019,4 hPa 0,0 l/m 4,3 km/h (1 Bft) NW 323 6,5 C 9,4 km/h (2 Bft) 99 %
10.08.2018 20:17 21,0 C 39 % 1019,3 hPa 0,0 l/m 0,0 km/h (0 Bft) NW 322 6,5 C 0,0 km/h (0 Bft) 100 %
10.08.2018 20:18 20,9 C 39 % 1019,3 hPa 0,0 l/m 0,0 km/h (0 Bft) SW 214 6,4 C 0,0 km/h (0 Bft) 100 %
10.08.2018 20:19 20,9 C 40 % 1019,3 hPa 0,0 l/m 0,9 km/h (0 Bft) SO 146 6,8 C 6,3 km/h (2 Bft) 100 %
10.08.2018 20:20 20,9 C 40 % 1019,3 hPa 0,0 l/m 0,7 km/h (0 Bft) W-SW 251 6,8 C 6,3 km/h (2 Bft) 100 %
10.08.2018 20:21 20,8 C 40 % 1019,4 hPa 0,0 l/m 1,0 km/h (0 Bft) W 262 6,7 C 3,1 km/h (1 Bft) 100 %
10.08.2018 20:22 20,8 C 39 % 1019,4 hPa 0,0 l/m 1,4 km/h (1 Bft) S-SW 212 6,3 C 3,1 km/h (1 Bft) 100 %
10.08.2018 20:23 20,7 C 41 % 1019,3 hPa 0,0 l/m 0,6 km/h (0 Bft) SW 231 7,0 C 3,1 km/h (1 Bft) 100 %
10.08.2018 20:24 20,7 C 40 % 1019,3 hPa 0,0 l/m 1,1 km/h (1 Bft) W 264 6,6 C 6,3 km/h (2 Bft) 92 %
10.08.2018 20:25 20,7 C 40 % 1019,3 hPa 0,0 l/m 0,6 km/h (0 Bft) W-SW 257 6,6 C 3,1 km/h (1 Bft) 96 %
10.08.2018 20:26 20,6 C 41 % 1019,4 hPa 0,0 l/m 0,1 km/h (0 Bft) W-SW 257 6,9 C 3,1 km/h (1 Bft) 100 %
10.08.2018 20:27 20,6 C 41 % 1019,3 hPa 0,0 l/m 0,4 km/h (0 Bft) W-NW 282 6,9 C 6,3 km/h (2 Bft) 97 %
10.08.2018 20:28 20,6 C 40 % 1019,4 hPa 0,0 l/m 3,3 km/h (1 Bft) NW 311 6,5 C 9,4 km/h (2 Bft) 92 %
10.08.2018 20:29 20,5 C 40 % 1019,4 hPa 0,0 l/m 0,1 km/h (0 Bft) W-NW 302 6,4 C 3,1 km/h (1 Bft) 100 %
10.08.2018 20:30 20,5 C 40 % 1019,4 hPa 0,0 l/m 2,0 km/h (1 Bft) SW 233 6,4 C 9,4 km/h (2 Bft) 96 %
10.08.2018 20:31 20,5 C 40 % 1019,4 hPa 0,0 l/m 1,1 km/h (1 Bft) W 279 6,4 C 6,3 km/h (2 Bft) 100 %
10.08.2018 20:32 20,4 C 41 % 1019,3 hPa 0,0 l/m 0,0 km/h (0 Bft) W-SW 244 6,7 C 0,0 km/h (0 Bft) 96 %
10.08.2018 20:33 20,4 C 40 % 1019,3 hPa 0,0 l/m 1,0 km/h (0 Bft) W-SW 245 6,3 C 6,3 km/h (2 Bft) 96 %
10.08.2018 20:34 20,4 C 41 % 1019,4 hPa 0,0 l/m 0,0 km/h (0 Bft) W-SW 245 6,7 C 0,0 km/h (0 Bft) 100 %
10.08.2018 20:35 20,5 C 41 % 1019,4 hPa 0,0 l/m 0,0 km/h (0 Bft) W-SW 245 6,8 C 0,0 km/h (0 Bft) 100 %
10.08.2018 20:36 20,5 C 40 % 1019,3 hPa 0,0 l/m 0,4 km/h (0 Bft) SW 222 6,4 C 3,1 km/h (1 Bft) 100 %
10.08.2018 20:37 20,4 C 41 % 1019,4 hPa 0,0 l/m 0,0 km/h (0 Bft) SW 222 6,7 C 0,0 km/h (0 Bft) 100 %
10.08.2018 20:38 20,4 C 40 % 1019,3 hPa 0,0 l/m 0,3 km/h (0 Bft) SW 230 6,3 C 3,1 km/h (1 Bft) 100 %
10.08.2018 20:39 20,4 C 41 % 1019,3 hPa 0,0 l/m 0,0 km/h (0 Bft) SW 230 6,7 C 0,0 km/h (0 Bft) 100 %
10.08.2018 20:40 20,4 C 41 % 1019,3 hPa 0,0 l/m 0,1 km/h (0 Bft) SW 230 6,7 C 3,1 km/h (1 Bft) 100 %
10.08.2018 20:41 20,4 C 41 % 1019,4 hPa 0,0 l/m 0,0 km/h (0 Bft) SW 230 6,7 C 0,0 km/h (0 Bft) 100 %
10.08.2018 20:42 20,4 C 41 % 1019,3 hPa 0,0 l/m 0,0 km/h (0 Bft) S-SW 207 6,7 C 0,0 km/h (0 Bft) 99 %
10.08.2018 20:43 20,4 C 41 % 1019,3 hPa 0,0 l/m 0,0 km/h (0 Bft) S-SW 207 6,7 C 0,0 km/h (0 Bft) 100 %
10.08.2018 20:44 20,4 C 41 % 1019,3 hPa 0,0 l/m 0,0 km/h (0 Bft) S-SW 207 6,7 C 0,0 km/h (0 Bft) 100 %
10.08.2018 20:45 20,3 C 41 % 1019,3 hPa 0,0 l/m 0,3 km/h (0 Bft) SW 218 6,6 C 3,1 km/h (1 Bft) 100 %
10.08.2018 20:46 20,3 C 41 % 1019,4 hPa 0,0 l/m 0,0 km/h (0 Bft) SW 218 6,6 C 0,0 km/h (0 Bft) 100 %
10.08.2018 20:47 20,3 C 41 % 1019,4 hPa 0,0 l/m 0,0 km/h (0 Bft) SW 224 6,6 C 0,0 km/h (0 Bft) 100 %
10.08.2018 20:48 20,2 C 41 % 1019,3 hPa 0,0 l/m 0,1 km/h (0 Bft) W 264 6,5 C 3,1 km/h (1 Bft) 100 %
10.08.2018 20:49 20,2 C 41 % 1019,3 hPa 0,0 l/m 0,0 km/h (0 Bft) W 264 6,5 C 0,0 km/h (0 Bft) 100 %
10.08.2018 20:50 20,2 C 44 % 1019,4 hPa 0,0 l/m 0,0 km/h (0 Bft) W 264 7,6 C 0,0 km/h (0 Bft) 100 %
10.08.2018 20:51 20,1 C 42 % 1019,4 hPa 0,0 l/m 0,0 km/h (0 Bft) W 264 6,8 C 0,0 km/h (0 Bft) 100 %
10.08.2018 20:52 20,1 C 43 % 1019,4 hPa 0,0 l/m 0,0 km/h (0 Bft) W 264 7,1 C 0,0 km/h (0 Bft) 100 %
10.08.2018 20:53 20,0 C 42 % 1019,4 hPa 0,0 l/m 0,0 km/h (0 Bft) W 264 6,7 C 0,0 km/h (0 Bft) 100 %
10.08.2018 20:54 20,0 C 43 % 1019,4 hPa 0,0 l/m 0,0 km/h (0 Bft) W 264 7,0 C 0,0 km/h (0 Bft) 100 %
10.08.2018 20:55 19,9 C 43 % 1019,4 hPa 0,0 l/m 0,0 km/h (0 Bft) W 264 6,9 C 0,0 km/h (0 Bft) 100 %
10.08.2018 20:56 19,8 C 42 % 1019,4 hPa 0,0 l/m 0,0 km/h (0 Bft) W 264 6,5 C 0,0 km/h (0 Bft) 100 %
10.08.2018 20:57 19,8 C 43 % 1019,4 hPa 0,0 l/m 0,0 km/h (0 Bft) W 264 6,9 C 0,0 km/h (0 Bft) 100 %
10.08.2018 20:58 19,7 C 43 % 1019,4 hPa 0,0 l/m 0,0 km/h (0 Bft) W 264 6,8 C 0,0 km/h (0 Bft) 100 %
10.08.2018 20:59 19,7 C 43 % 1019,4 hPa 0,0 l/m 0,0 km/h (0 Bft) W 264 6,8 C 0,0 km/h (0 Bft) 100 %
10.08.2018 21:00 19,6 C 44 % 1019,4 hPa 0,0 l/m 0,0 km/h (0 Bft) W 264 7,0 C 0,0 km/h (0 Bft) 100 %
10.08.2018 21:01 19,6 C 44 % 1019,4 hPa 0,0 l/m 0,0 km/h (0 Bft) W 264 7,0 C 0,0 km/h (0 Bft) 100 %
10.08.2018 21:02 19,4 C 43 % 1019,5 hPa 0,0 l/m 0,0 km/h (0 Bft) W 264 6,5 C 0,0 km/h (0 Bft) 100 %
10.08.2018 21:03 19,4 C 44 % 1019,4 hPa 0,0 l/m 0,0 km/h (0 Bft) W 264 6,8 C 0,0 km/h (0 Bft) 100 %
10.08.2018 21:04 19,3 C 44 % 1019,5 hPa 0,0 l/m 0,0 km/h (0 Bft) W 264 6,7 C 0,0 km/h (0 Bft) 100 %
10.08.2018 21:05 19,3 C 44 % 1019,4 hPa 0,0 l/m 0,0 km/h (0 Bft) W 264 6,7 C 0,0 km/h (0 Bft) 100 %
10.08.2018 21:06 19,2 C 44 % 1019,5 hPa 0,0 l/m 0,0 km/h (0 Bft) W 264 6,7 C 0,0 km/h (0 Bft) 100 %
10.08.2018 21:07 19,2 C 44 % 1019,4 hPa 0,0 l/m 0,0 km/h (0 Bft) W 264 6,7 C 0,0 km/h (0 Bft) 100 %
10.08.2018 21:08 19,1 C 44 % 1019,5 hPa 0,0 l/m 0,0 km/h (0 Bft) W 264 6,6 C 0,0 km/h (0 Bft) 100 %
10.08.2018 21:09 19,1 C 44 % 1019,4 hPa 0,0 l/m 0,0 km/h (0 Bft) W 264 6,6 C 0,0 km/h (0 Bft) 100 %
10.08.2018 21:10 19,1 C 44 % 1019,5 hPa 0,0 l/m 0,0 km/h (0 Bft) W 264 6,6 C 0,0 km/h (0 Bft) 100 %
10.08.2018 21:11 19,0 C 45 % 1019,5 hPa 0,0 l/m 0,0 km/h (0 Bft) W 264 6,8 C 0,0 km/h (0 Bft) 100 %
10.08.2018 21:12 18,9 C 45 % 1019,5 hPa 0,0 l/m 0,0 km/h (0 Bft) W 264 6,7 C 0,0 km/h (0 Bft) 100 %
10.08.2018 21:13 18,9 C 45 % 1019,5 hPa 0,0 l/m 0,0 km/h (0 Bft) W 264 6,7 C 0,0 km/h (0 Bft) 100 %
10.08.2018 21:14 18,9 C 46 % 1019,5 hPa 0,0 l/m 0,0 km/h (0 Bft) W 264 7,0 C 0,0 km/h (0 Bft) 100 %
10.08.2018 21:15 18,8 C 45 % 1019,5 hPa 0,0 l/m 0,0 km/h (0 Bft) W 264 6,6 C 0,0 km/h (0 Bft) 100 %
10.08.2018 21:16 18,8 C 46 % 1019,5 hPa 0,0 l/m 0,0 km/h (0 Bft) W 264 6,9 C 0,0 km/h (0 Bft) 100 %
10.08.2018 21:17 18,7 C 46 % 1019,5 hPa 0,0 l/m 0,0 km/h (0 Bft) W 264 6,8 C 0,0 km/h (0 Bft) 100 %
10.08.2018 21:18 18,7 C 46 % 1019,5 hPa 0,0 l/m 0,0 km/h (0 Bft) W 264 6,8 C 0,0 km/h (0 Bft) 96 %
10.08.2018 21:19 18,6 C 46 % 1019,5 hPa 0,0 l/m 0,0 km/h (0 Bft) W 264 6,8 C 0,0 km/h (0 Bft) 96 %
10.08.2018 21:20 18,6 C 46 % 1019,5 hPa 0,0 l/m 0,0 km/h (0 Bft) W 264 6,8 C 0,0 km/h (0 Bft) 100 %
10.08.2018 21:21 18,5 C 46 % 1019,5 hPa 0,0 l/m 0,0 km/h (0 Bft) W 264 6,7 C 0,0 km/h (0 Bft) 100 %
10.08.2018 21:22 18,4 C 46 % 1019,5 hPa 0,0 l/m 0,0 km/h (0 Bft) W 264 6,6 C 0,0 km/h (0 Bft) 96 %
10.08.2018 21:23 18,4 C 46 % 1019,5 hPa 0,0 l/m 0,0 km/h (0 Bft) W 264 6,6 C 0,0 km/h (0 Bft) 100 %
10.08.2018 21:24 18,3 C 46 % 1019,5 hPa 0,0 l/m 0,0 km/h (0 Bft) W 264 6,5 C 0,0 km/h (0 Bft) 96 %
10.08.2018 21:25 18,3 C 47 % 1019,5 hPa 0,0 l/m 0,0 km/h (0 Bft) W 264 6,8 C 0,0 km/h (0 Bft) 96 %
10.08.2018 21:26 18,2 C 47 % 1019,6 hPa 0,0 l/m 0,0 km/h (0 Bft) W 264 6,7 C 0,0 km/h (0 Bft) 100 %
10.08.2018 21:27 18,2 C 47 % 1019,5 hPa 0,0 l/m 0,0 km/h (0 Bft) W 264 6,7 C 0,0 km/h (0 Bft) 96 %
10.08.2018 21:28 18,1 C 47 % 1019,6 hPa 0,0 l/m 0,0 km/h (0 Bft) W 264 6,6 C 0,0 km/h (0 Bft) 100 %
10.08.2018 21:29 18,1 C 48 % 1019,5 hPa 0,0 l/m 0,0 km/h (0 Bft) W 264 6,9 C 0,0 km/h (0 Bft) 96 %
10.08.2018 21:30 18,0 C 48 % 1019,5 hPa 0,0 l/m 0,0 km/h (0 Bft) W 264 6,8 C 0,0 km/h (0 Bft) 100 %
10.08.2018 21:31 17,9 C 48 % 1019,6 hPa 0,0 l/m 0,0 km/h (0 Bft) W 264 6,7 C 0,0 km/h (0 Bft) 100 %
10.08.2018 21:32 17,9 C 48 % 1019,6 hPa 0,0 l/m 0,0 km/h (0 Bft) W 264 6,7 C 0,0 km/h (0 Bft) 100 %
10.08.2018 21:33 17,8 C 48 % 1019,5 hPa 0,0 l/m 0,0 km/h (0 Bft) W 264 6,6 C 0,0 km/h (0 Bft) 100 %
10.08.2018 21:34 17,8 C 49 % 1019,5 hPa 0,0 l/m 0,0 km/h (0 Bft) W 264 6,9 C 0,0 km/h (0 Bft) 100 %
10.08.2018 21:35 17,7 C 48 % 1019,6 hPa 0,0 l/m 0,0 km/h (0 Bft) W 264 6,6 C 0,0 km/h (0 Bft) 100 %
10.08.2018 21:36 17,7 C 49 % 1019,5 hPa 0,0 l/m 0,0 km/h (0 Bft) W 264 6,9 C 0,0 km/h (0 Bft) 100 %
10.08.2018 21:37 17,7 C 49 % 1019,5 hPa 0,0 l/m 0,0 km/h (0 Bft) W 264 6,9 C 0,0 km/h (0 Bft) 100 %
10.08.2018 21:38 17,6 C 49 % 1019,6 hPa 0,0 l/m 0,0 km/h (0 Bft) W 264 6,8 C 0,0 km/h (0 Bft) 100 %
10.08.2018 21:39 17,6 C 49 % 1019,5 hPa 0,0 l/m 0,0 km/h (0 Bft) W 264 6,8 C 0,0 km/h (0 Bft) 100 %
10.08.2018 21:40 17,6 C 49 % 1019,6 hPa 0,0 l/m 0,0 km/h (0 Bft) W 264 6,8 C 0,0 km/h (0 Bft) 100 %
10.08.2018 21:41 17,5 C 49 % 1019,6 hPa 0,0 l/m 0,0 km/h (0 Bft) W 264 6,7 C 0,0 km/h (0 Bft) 100 %
10.08.2018 21:42 17,4 C 49 % 1019,6 hPa 0,0 l/m 0,0 km/h (0 Bft) W 264 6,6 C 0,0 km/h (0 Bft) 100 %
10.08.2018 21:43 17,4 C 50 % 1019,5 hPa 0,0 l/m 0,0 km/h (0 Bft) W 264 6,9 C 0,0 km/h (0 Bft) 100 %
10.08.2018 21:44 17,4 C 51 % 1019,5 hPa 0,0 l/m 0,1 km/h (0 Bft) W 275 7,2 C 3,1 km/h (1 Bft) 100 %
10.08.2018 21:45 17,3 C 51 % 1019,5 hPa 0,0 l/m 0,0 km/h (0 Bft) W 275 7,1 C 0,0 km/h (0 Bft) 100 %
10.08.2018 21:46 17,3 C 51 % 1019,5 hPa 0,0 l/m 0,0 km/h (0 Bft) W-SW 243 7,1 C 0,0 km/h (0 Bft) 100 %
10.08.2018 21:47 17,2 C 51 % 1019,5 hPa 0,0 l/m 0,0 km/h (0 Bft) W-SW 243 7,0 C 0,0 km/h (0 Bft) 100 %
10.08.2018 21:48 17,2 C 51 % 1019,6 hPa 0,0 l/m 0,0 km/h (0 Bft) W-SW 243 7,0 C 0,0 km/h (0 Bft) 100 %
10.08.2018 21:49 17,2 C 51 % 1019,6 hPa 0,0 l/m 0,0 km/h (0 Bft) W-SW 243 7,0 C 0,0 km/h (0 Bft) 100 %
10.08.2018 21:50 17,1 C 51 % 1019,6 hPa 0,0 l/m 0,0 km/h (0 Bft) W-SW 243 6,9 C 0,0 km/h (0 Bft) 100 %
10.08.2018 21:51 17,1 C 51 % 1019,6 hPa 0,0 l/m 0,0 km/h (0 Bft) W-SW 243 6,9 C 0,0 km/h (0 Bft) 100 %
10.08.2018 21:52 17,1 C 51 % 1019,6 hPa 0,0 l/m 0,0 km/h (0 Bft) W-SW 243 6,9 C 0,0 km/h (0 Bft) 100 %
10.08.2018 21:53 17,0 C 51 % 1019,5 hPa 0,0 l/m 0,0 km/h (0 Bft) W-SW 243 6,8 C 0,0 km/h (0 Bft) 100 %
10.08.2018 21:54 17,0 C 51 % 1019,6 hPa 0,0 l/m 0,0 km/h (0 Bft) W-SW 243 6,8 C 0,0 km/h (0 Bft) 100 %
10.08.2018 21:55 16,9 C 52 % 1019,6 hPa 0,0 l/m 0,0 km/h (0 Bft) W-SW 243 7,0 C 0,0 km/h (0 Bft) 100 %
10.08.2018 21:56 16,9 C 53 % 1019,6 hPa 0,0 l/m 0,0 km/h (0 Bft) W-SW 243 7,3 C 0,0 km/h (0 Bft) 100 %
10.08.2018 21:57 16,9 C 53 % 1019,6 hPa 0,0 l/m 0,0 km/h (0 Bft) W-SW 243 7,3 C 0,0 km/h (0 Bft) 100 %
10.08.2018 21:58 16,9 C 52 % 1019,6 hPa 0,0 l/m 0,0 km/h (0 Bft) W-SW 243 7,0 C 0,0 km/h (0 Bft) 100 %
10.08.2018 21:59 16,8 C 52 % 1019,5 hPa 0,0 l/m 0,0 km/h (0 Bft) W-SW 243 6,9 C 0,0 km/h (0 Bft) 100 %
10.08.2018 22:00 16,8 C 52 % 1019,5 hPa 0,0 l/m 0,0 km/h (0 Bft) W-SW 243 6,9 C 0,0 km/h (0 Bft) 100 %
10.08.2018 22:01 16,8 C 52 % 1019,5 hPa 0,0 l/m 0,0 km/h (0 Bft) W-SW 243 6,9 C 0,0 km/h (0 Bft) 100 %
10.08.2018 22:02 16,8 C 53 % 1019,5 hPa 0,0 l/m 0,0 km/h (0 Bft) W-SW 243 7,2 C 0,0 km/h (0 Bft) 100 %
10.08.2018 22:03 16,7 C 53 % 1019,5 hPa 0,0 l/m 0,0 km/h (0 Bft) W-SW 243 7,1 C 0,0 km/h (0 Bft) 100 %
10.08.2018 22:04 16,7 C 53 % 1019,5 hPa 0,0 l/m 0,0 km/h (0 Bft) W-SW 243 7,1 C 0,0 km/h (0 Bft) 100 %
10.08.2018 22:05 16,7 C 53 % 1019,5 hPa 0,0 l/m 0,0 km/h (0 Bft) W-SW 243 7,1 C 0,0 km/h (0 Bft) 100 %
10.08.2018 22:06 16,6 C 53 % 1019,5 hPa 0,0 l/m 0,0 km/h (0 Bft) W-SW 243 7,0 C 0,0 km/h (0 Bft) 100 %
10.08.2018 22:07 16,6 C 54 % 1019,5 hPa 0,0 l/m 0,0 km/h (0 Bft) W-SW 243 7,3 C 0,0 km/h (0 Bft) 100 %
10.08.2018 22:08 16,6 C 53 % 1019,5 hPa 0,0 l/m 0,0 km/h (0 Bft) W-SW 243 7,0 C 0,0 km/h (0 Bft) 100 %
10.08.2018 22:09 16,6 C 53 % 1019,5 hPa 0,0 l/m 0,0 km/h (0 Bft) W-SW 243 7,0 C 0,0 km/h (0 Bft) 100 %
10.08.2018 22:10 16,5 C 53 % 1019,5 hPa 0,0 l/m 0,0 km/h (0 Bft) W-SW 243 6,9 C 0,0 km/h (0 Bft) 100 %
10.08.2018 22:11 16,5 C 54 % 1019,6 hPa 0,0 l/m 0,0 km/h (0 Bft) W-SW 243 7,2 C 0,0 km/h (0 Bft) 100 %
10.08.2018 22:12 16,5 C 54 % 1019,6 hPa 0,0 l/m 0,0 km/h (0 Bft) W-SW 243 7,2 C 0,0 km/h (0 Bft) 100 %
10.08.2018 22:13 16,4 C 54 % 1019,6 hPa 0,0 l/m 0,0 km/h (0 Bft) W-SW 243 7,1 C 0,0 km/h (0 Bft) 100 %
10.08.2018 22:14 16,4 C 54 % 1019,6 hPa 0,0 l/m 0,0 km/h (0 Bft) W-SW 243 7,1 C 0,0 km/h (0 Bft) 100 %
10.08.2018 22:15 16,3 C 54 % 1019,6 hPa 0,0 l/m 0,0 km/h (0 Bft) W-SW 243 7,0 C 0,0 km/h (0 Bft) 100 %
10.08.2018 22:16 16,3 C 54 % 1019,6 hPa 0,0 l/m 0,1 km/h (0 Bft) W-SW 243 7,0 C 3,1 km/h (1 Bft) 96 %
10.08.2018 22:17 16,3 C 54 % 1019,5 hPa 0,0 l/m 0,0 km/h (0 Bft) W-SW 243 7,0 C 0,0 km/h (0 Bft) 100 %
10.08.2018 22:18 16,3 C 54 % 1019,5 hPa 0,0 l/m 0,0 km/h (0 Bft) W-SW 243 7,0 C 0,0 km/h (0 Bft) 96 %
10.08.2018 22:19 16,2 C 55 % 1019,5 hPa 0,0 l/m 0,0 km/h (0 Bft) W-SW 243 7,2 C 0,0 km/h (0 Bft) 100 %
10.08.2018 22:20 16,2 C 55 % 1019,6 hPa 0,0 l/m 0,0 km/h (0 Bft) W-SW 243 7,2 C 0,0 km/h (0 Bft) 100 %
10.08.2018 22:21 16,2 C 55 % 1019,5 hPa 0,0 l/m 0,0 km/h (0 Bft) W-SW 243 7,2 C 0,0 km/h (0 Bft) 96 %
10.08.2018 22:22 16,1 C 55 % 1019,6 hPa 0,0 l/m 0,0 km/h (0 Bft) W-SW 243 7,1 C 0,0 km/h (0 Bft) 100 %
10.08.2018 22:23 16,1 C 55 % 1019,5 hPa 0,0 l/m 0,0 km/h (0 Bft) W-SW 243 7,1 C 0,0 km/h (0 Bft) 96 %
10.08.2018 22:24 16,1 C 55 % 1019,5 hPa 0,0 l/m 0,0 km/h (0 Bft) W-SW 243 7,1 C 0,0 km/h (0 Bft) 100 %
10.08.2018 22:25 16,1 C 55 % 1019,6 hPa 0,0 l/m 0,0 km/h (0 Bft) W-SW 243 7,1 C 0,0 km/h (0 Bft) 96 %
10.08.2018 22:26 16,0 C 55 % 1019,5 hPa 0,0 l/m 0,0 km/h (0 Bft) W-SW 243 7,0 C 0,0 km/h (0 Bft) 96 %
10.08.2018 22:27 16,0 C 55 % 1019,5 hPa 0,0 l/m 0,0 km/h (0 Bft) W-SW 243 7,0 C 0,0 km/h (0 Bft) 100 %
10.08.2018 22:28 15,9 C 57 % 1019,5 hPa 0,0 l/m 0,0 km/h (0 Bft) W-SW 243 7,4 C 0,0 km/h (0 Bft) 96 %
10.08.2018 22:29 15,9 C 56 % 1019,5 hPa 0,0 l/m 0,0 km/h (0 Bft) W-SW 243 7,1 C 0,0 km/h (0 Bft) 100 %
10.08.2018 22:30 15,9 C 56 % 1019,5 hPa 0,0 l/m 0,0 km/h (0 Bft) W-SW 243 7,1 C 0,0 km/h (0 Bft) 96 %
10.08.2018 22:31 15,9 C 56 % 1019,5 hPa 0,0 l/m 0,0 km/h (0 Bft) W-SW 243 7,1 C 0,0 km/h (0 Bft) 100 %
10.08.2018 22:32 15,8 C 56 % 1019,5 hPa 0,0 l/m 0,0 km/h (0 Bft) W-SW 243 7,0 C 0,0 km/h (0 Bft) 100 %
10.08.2018 22:33 15,8 C 56 % 1019,5 hPa 0,0 l/m 0,0 km/h (0 Bft) W-SW 243 7,0 C 0,0 km/h (0 Bft) 100 %
10.08.2018 22:34 15,8 C 57 % 1019,5 hPa 0,0 l/m 0,0 km/h (0 Bft) W-SW 243 7,3 C 0,0 km/h (0 Bft) 100 %
10.08.2018 22:35 15,8 C 56 % 1019,5 hPa 0,0 l/m 0,0 km/h (0 Bft) W-SW 243 7,0 C 0,0 km/h (0 Bft) 100 %
10.08.2018 22:36 15,7 C 57 % 1019,5 hPa 0,0 l/m 0,0 km/h (0 Bft) W-SW 243 7,2 C 0,0 km/h (0 Bft) 100 %
10.08.2018 22:37 15,7 C 57 % 1019,5 hPa 0,0 l/m 0,0 km/h (0 Bft) W-SW 243 7,2 C 0,0 km/h (0 Bft) 100 %
10.08.2018 22:38 15,7 C 57 % 1019,5 hPa 0,0 l/m 0,0 km/h (0 Bft) W-SW 243 7,2 C 0,0 km/h (0 Bft) 100 %
10.08.2018 22:39 15,6 C 57 % 1019,5 hPa 0,0 l/m 0,0 km/h (0 Bft) W-SW 243 7,1 C 0,0 km/h (0 Bft) 100 %
10.08.2018 22:40 15,6 C 57 % 1019,5 hPa 0,0 l/m 0,0 km/h (0 Bft) W-SW 243 7,1 C 0,0 km/h (0 Bft) 100 %
10.08.2018 22:41 15,6 C 57 % 1019,5 hPa 0,0 l/m 0,0 km/h (0 Bft) W-SW 243 7,1 C 0,0 km/h (0 Bft) 100 %
10.08.2018 22:42 15,6 C 57 % 1019,5 hPa 0,0 l/m 0,0 km/h (0 Bft) W-SW 243 7,1 C 0,0 km/h (0 Bft) 100 %
10.08.2018 22:43 15,5 C 57 % 1019,5 hPa 0,0 l/m 0,0 km/h (0 Bft) W-SW 243 7,0 C 0,0 km/h (0 Bft) 100 %
10.08.2018 22:44 15,5 C 57 % 1019,5 hPa 0,0 l/m 0,0 km/h (0 Bft) W-SW 243 7,0 C 0,0 km/h (0 Bft) 100 %
10.08.2018 22:45 15,4 C 57 % 1019,4 hPa 0,0 l/m 0,0 km/h (0 Bft) W-SW 243 6,9 C 0,0 km/h (0 Bft) 100 %
10.08.2018 22:46 15,4 C 57 % 1019,5 hPa 0,0 l/m 0,0 km/h (0 Bft) W-SW 243 6,9 C 0,0 km/h (0 Bft) 100 %
10.08.2018 22:47 15,4 C 57 % 1019,5 hPa 0,0 l/m 0,0 km/h (0 Bft) W-SW 243 6,9 C 0,0 km/h (0 Bft) 100 %
10.08.2018 22:48 15,4 C 57 % 1019,4 hPa 0,0 l/m 0,0 km/h (0 Bft) W-SW 243 6,9 C 0,0 km/h (0 Bft) 100 %
10.08.2018 22:49 15,4 C 57 % 1019,5 hPa 0,0 l/m 0,0 km/h (0 Bft) W-SW 243 6,9 C 0,0 km/h (0 Bft) 100 %
10.08.2018 22:50 15,3 C 58 % 1019,5 hPa 0,0 l/m 0,0 km/h (0 Bft) W-SW 243 7,1 C 0,0 km/h (0 Bft) 100 %
10.08.2018 22:51 15,3 C 58 % 1019,5 hPa 0,0 l/m 0,0 km/h (0 Bft) W-SW 243 7,1 C 0,0 km/h (0 Bft) 100 %
10.08.2018 22:52 15,3 C 58 % 1019,5 hPa 0,0 l/m 0,0 km/h (0 Bft) W-SW 243 7,1 C 0,0 km/h (0 Bft) 100 %
10.08.2018 22:53 15,3 C 58 % 1019,4 hPa 0,0 l/m 0,0 km/h (0 Bft) W-SW 243 7,1 C 0,0 km/h (0 Bft) 100 %
10.08.2018 22:54 15,3 C 58 % 1019,4 hPa 0,0 l/m 0,0 km/h (0 Bft) W-SW 243 7,1 C 0,0 km/h (0 Bft) 100 %
10.08.2018 22:55 15,3 C 58 % 1019,4 hPa 0,0 l/m 0,0 km/h (0 Bft) W-SW 243 7,1 C 0,0 km/h (0 Bft) 100 %
10.08.2018 22:56 15,2 C 58 % 1019,5 hPa 0,0 l/m 0,0 km/h (0 Bft) W-SW 243 7,0 C 0,0 km/h (0 Bft) 100 %
10.08.2018 22:57 15,2 C 59 % 1019,5 hPa 0,0 l/m 0,0 km/h (0 Bft) W-SW 243 7,2 C 0,0 km/h (0 Bft) 100 %
10.08.2018 22:58 15,2 C 58 % 1019,4 hPa 0,0 l/m 0,0 km/h (0 Bft) W-SW 243 7,0 C 0,0 km/h (0 Bft) 100 %
10.08.2018 22:59 15,1 C 58 % 1019,4 hPa 0,0 l/m 0,0 km/h (0 Bft) W-SW 243 6,9 C 0,0 km/h (0 Bft) 100 %
10.08.2018 23:00 15,1 C 59 % 1019,4 hPa 0,0 l/m 0,0 km/h (0 Bft) W-SW 243 7,1 C 0,0 km/h (0 Bft) 100 %
10.08.2018 23:01 15,1 C 60 % 1019,5 hPa 0,0 l/m 0,0 km/h (0 Bft) W-SW 243 7,4 C 0,0 km/h (0 Bft) 100 %
10.08.2018 23:02 15,0 C 59 % 1019,5 hPa 0,0 l/m 0,0 km/h (0 Bft) W-SW 243 7,1 C 0,0 km/h (0 Bft) 96 %
10.08.2018 23:03 15,0 C 59 % 1019,5 hPa 0,0 l/m 0,0 km/h (0 Bft) W-SW 243 7,1 C 0,0 km/h (0 Bft) 100 %
10.08.2018 23:04 14,9 C 59 % 1019,5 hPa 0,0 l/m 0,0 km/h (0 Bft) W-SW 243 7,0 C 0,0 km/h (0 Bft) 100 %
10.08.2018 23:05 14,9 C 60 % 1019,5 hPa 0,0 l/m 0,0 km/h (0 Bft) W-SW 243 7,2 C 0,0 km/h (0 Bft) 100 %
10.08.2018 23:06 14,9 C 60 % 1019,5 hPa 0,0 l/m 0,0 km/h (0 Bft) W-SW 243 7,2 C 0,0 km/h (0 Bft) 100 %
10.08.2018 23:07 14,8 C 60 % 1019,5 hPa 0,0 l/m 0,0 km/h (0 Bft) W-SW 243 7,1 C 0,0 km/h (0 Bft) 100 %
10.08.2018 23:08 14,8 C 62 % 1019,5 hPa 0,0 l/m 0,0 km/h (0 Bft) W-SW 243 7,6 C 0,0 km/h (0 Bft) 100 %
10.08.2018 23:09 14,8 C 62 % 1019,5 hPa 0,0 l/m 0,1 km/h (0 Bft) W-SW 247 7,6 C 3,1 km/h (1 Bft) 100 %
10.08.2018 23:10 14,8 C 62 % 1019,5 hPa 0,0 l/m 0,0 km/h (0 Bft) W-SW 247 7,6 C 0,0 km/h (0 Bft) 100 %
10.08.2018 23:11 14,7 C 62 % 1019,4 hPa 0,0 l/m 0,0 km/h (0 Bft) W-SW 247 7,5 C 0,0 km/h (0 Bft) 100 %
10.08.2018 23:12 14,7 C 62 % 1019,5 hPa 0,0 l/m 0,0 km/h (0 Bft) W-SW 247 7,5 C 0,0 km/h (0 Bft) 100 %
10.08.2018 23:13 14,7 C 62 % 1019,5 hPa 0,0 l/m 0,0 km/h (0 Bft) W-SW 247 7,5 C 0,0 km/h (0 Bft) 100 %
10.08.2018 23:14 14,7 C 62 % 1019,4 hPa 0,0 l/m 0,0 km/h (0 Bft) W-SW 247 7,5 C 0,0 km/h (0 Bft) 100 %
10.08.2018 23:15 14,7 C 62 % 1019,4 hPa 0,0 l/m 0,1 km/h (0 Bft) SW 223 7,5 C 3,1 km/h (1 Bft) 100 %
10.08.2018 23:16 14,7 C 61 % 1019,4 hPa 0,0 l/m 0,0 km/h (0 Bft) S-SW 199 7,3 C 0,0 km/h (0 Bft) 100 %
10.08.2018 23:17 14,7 C 62 % 1019,4 hPa 0,0 l/m 0,0 km/h (0 Bft) S-SW 198 7,5 C 0,0 km/h (0 Bft) 100 %
10.08.2018 23:18 14,7 C 62 % 1019,4 hPa 0,0 l/m 0,0 km/h (0 Bft) S-SW 198 7,5 C 0,0 km/h (0 Bft) 100 %
10.08.2018 23:19 14,7 C 62 % 1019,4 hPa 0,0 l/m 0,0 km/h (0 Bft) S-SW 198 7,5 C 0,0 km/h (0 Bft) 100 %
10.08.2018 23:20 14,7 C 62 % 1019,4 hPa 0,0 l/m 0,0 km/h (0 Bft) S-SW 203 7,5 C 0,0 km/h (0 Bft) 96 %
10.08.2018 23:21 14,7 C 62 % 1019,4 hPa 0,0 l/m 0,0 km/h (0 Bft) S-SW 203 7,5 C 0,0 km/h (0 Bft) 100 %
10.08.2018 23:22 14,7 C 62 % 1019,4 hPa 0,0 l/m 0,0 km/h (0 Bft) S-SW 203 7,5 C 0,0 km/h (0 Bft) 95 %
10.08.2018 23:23 14,7 C 62 % 1019,4 hPa 0,0 l/m 0,0 km/h (0 Bft) S-SW 203 7,5 C 0,0 km/h (0 Bft) 100 %
10.08.2018 23:24 14,7 C 62 % 1019,4 hPa 0,0 l/m 0,0 km/h (0 Bft) S-SW 204 7,5 C 0,0 km/h (0 Bft) 96 %
10.08.2018 23:25 14,7 C 62 % 1019,3 hPa 0,0 l/m 0,2 km/h (0 Bft) W-SW 249 7,5 C 3,1 km/h (1 Bft) 100 %
10.08.2018 23:26 14,7 C 62 % 1019,3 hPa 0,0 l/m 0,8 km/h (0 Bft) SW 228 7,5 C 3,1 km/h (1 Bft) 96 %
10.08.2018 23:27 14,7 C 62 % 1019,3 hPa 0,0 l/m 0,0 km/h (0 Bft) SW 225 7,5 C 0,0 km/h (0 Bft) 96 %
10.08.2018 23:28 14,7 C 62 % 1019,3 hPa 0,0 l/m 0,6 km/h (0 Bft) W-SW 250 7,5 C 3,1 km/h (1 Bft) 100 %
10.08.2018 23:29 14,8 C 63 % 1019,3 hPa 0,0 l/m 0,0 km/h (0 Bft) W-SW 250 7,8 C 0,0 km/h (0 Bft) 92 %
10.08.2018 23:30 14,8 C 62 % 1019,3 hPa 0,0 l/m 0,0 km/h (0 Bft) SW 221 7,6 C 0,0 km/h (0 Bft) 100 %
10.08.2018 23:31 14,8 C 62 % 1019,3 hPa 0,0 l/m 0,6 km/h (0 Bft) S-SW 207 7,6 C 3,1 km/h (1 Bft) 96 %
10.08.2018 23:32 14,8 C 62 % 1019,2 hPa 0,0 l/m 0,0 km/h (0 Bft) W-SW 243 7,6 C 0,0 km/h (0 Bft) 100 %
10.08.2018 23:33 14,8 C 62 % 1019,3 hPa 0,0 l/m 0,0 km/h (0 Bft) W-SW 243 7,6 C 0,0 km/h (0 Bft) 96 %
10.08.2018 23:34 14,8 C 62 % 1019,2 hPa 0,0 l/m 1,2 km/h (1 Bft) S-SW 209 7,6 C 6,3 km/h (2 Bft) 100 %
10.08.2018 23:35 14,8 C 62 % 1019,3 hPa 0,0 l/m 0,5 km/h (0 Bft) W-SW 251 7,6 C 3,1 km/h (1 Bft) 96 %
10.08.2018 23:36 14,9 C 62 % 1019,2 hPa 0,0 l/m 0,0 km/h (0 Bft) W-SW 251 7,7 C 0,0 km/h (0 Bft) 100 %
10.08.2018 23:37 14,9 C 62 % 1019,3 hPa 0,0 l/m 0,1 km/h (0 Bft) S-SW 193 7,7 C 3,1 km/h (1 Bft) 100 %
10.08.2018 23:38 14,9 C 62 % 1019,3 hPa 0,0 l/m 0,1 km/h (0 Bft) SW 221 7,7 C 3,1 km/h (1 Bft) 96 %
10.08.2018 23:39 14,9 C 62 % 1019,3 hPa 0,0 l/m 0,0 km/h (0 Bft) W-SW 240 7,7 C 0,0 km/h (0 Bft) 100 %
10.08.2018 23:40 14,8 C 62 % 1019,3 hPa 0,0 l/m 1,6 km/h (1 Bft) SW 219 7,6 C 3,1 km/h (1 Bft) 100 %
10.08.2018 23:41 14,8 C 62 % 1019,3 hPa 0,0 l/m 1,8 km/h (1 Bft) SW 229 7,6 C 6,3 km/h (2 Bft) 100 %
10.08.2018 23:42 14,9 C 62 % 1019,2 hPa 0,0 l/m 0,5 km/h (0 Bft) SW 227 7,7 C 3,1 km/h (1 Bft) 100 %
10.08.2018 23:43 14,9 C 62 % 1019,3 hPa 0,0 l/m 0,0 km/h (0 Bft) SW 227 7,7 C 0,0 km/h (0 Bft) 100 %
10.08.2018 23:44 14,8 C 62 % 1019,3 hPa 0,0 l/m 0,8 km/h (0 Bft) W-SW 243 7,6 C 3,1 km/h (1 Bft) 100 %
10.08.2018 23:45 14,8 C 62 % 1019,3 hPa 0,0 l/m 3,4 km/h (1 Bft) W-SW 238 7,6 C 12,6 km/h (3 Bft) 100 %
10.08.2018 23:46 14,9 C 62 % 1019,3 hPa 0,0 l/m 0,7 km/h (0 Bft) SW 229 7,7 C 3,1 km/h (1 Bft) 100 %
10.08.2018 23:47 14,9 C 62 % 1019,3 hPa 0,0 l/m 1,2 km/h (1 Bft) S-SW 212 7,7 C 6,3 km/h (2 Bft) 100 %
10.08.2018 23:48 14,9 C 62 % 1019,2 hPa 0,0 l/m 0,9 km/h (0 Bft) W 262 7,7 C 3,1 km/h (1 Bft) 100 %
10.08.2018 23:49 14,9 C 62 % 1019,3 hPa 0,0 l/m 0,3 km/h (0 Bft) W-SW 250 7,7 C 3,1 km/h (1 Bft) 100 %
10.08.2018 23:50 14,9 C 62 % 1019,3 hPa 0,0 l/m 0,4 km/h (0 Bft) W-SW 257 7,7 C 3,1 km/h (1 Bft) 100 %
10.08.2018 23:51 14,9 C 62 % 1019,3 hPa 0,0 l/m 0,9 km/h (0 Bft) S-SW 210 7,7 C 3,1 km/h (1 Bft) 100 %
10.08.2018 23:52 14,8 C 62 % 1019,3 hPa 0,0 l/m 1,6 km/h (1 Bft) SW 231 7,6 C 6,3 km/h (2 Bft) 100 %
10.08.2018 23:53 14,9 C 62 % 1019,2 hPa 0,0 l/m 2,8 km/h (1 Bft) SW 229 7,7 C 9,4 km/h (2 Bft) 100 %
10.08.2018 23:54 14,9 C 62 % 1019,2 hPa 0,0 l/m 0,3 km/h (0 Bft) S-SW 207 7,7 C 3,1 km/h (1 Bft) 100 %
10.08.2018 23:55 14,9 C 62 % 1019,3 hPa 0,0 l/m 0,0 km/h (0 Bft) S-SW 207 7,7 C 0,0 km/h (0 Bft) 100 %
10.08.2018 23:56 14,9 C 62 % 1019,3 hPa 0,0 l/m 0,1 km/h (0 Bft) SW 214 7,7 C 3,1 km/h (1 Bft) 100 %
10.08.2018 23:57 14,9 C 62 % 1019,3 hPa 0,0 l/m 0,0 km/h (0 Bft) SW 226 7,7 C 0,0 km/h (0 Bft) 100 %
10.08.2018 23:58 14,8 C 62 % 1019,3 hPa 0,0 l/m 0,5 km/h (0 Bft) W-SW 242 7,6 C 3,1 km/h (1 Bft) 100 %
10.08.2018 23:59 14,8 C 62 % 1019,3 hPa 0,0 l/m 1,0 km/h (0 Bft) W-NW 292 7,6 C 3,1 km/h (1 Bft) 100 %
_ Min-Zeit 06:56 16:59 00:02 - 01:11 - - 15:57 01:11 09:34
Minimum _ 14,6 C 29 % 1010,6 hPa - 0,0 km/h (0 Bft) - - 5,2 C 0,0 km/h (0 Bft) 88 %
_ Max-Zeit 17:01 00:00 11:05 00:00 02:21 - - 00:00 02:57 00:04
Maximum _ 24,8 C 84 % 1020,8 hPa 0,0 l/m 31,4 km/h
W-SW (5 Bft)
- - 16,6 C 53,3 km/h
SW (7 Bft)
100 %
Durchschnitt _ 18,9 C 57 % 1018,2 hPa #0,0 l/m 5,4 km/h (1 Bft) W-NW - 9,4 C 11,8 km/h (2 Bft) 99 %